<?xml version="1.0" encoding="UTF-8" standalone="no" ?>
<gpx xmlns="http://www.topografix.com/GPX/1/1" xmlns:xsi="http://www.w3.org/2001/XMLSchema-instance" xsi:schemaLocation="http://www.topografix.com/GPX/1/1 http://www.topografix.com/GPX/1/1/gpx.xsd" version="1.1" creator="VisuGPX - https://www.visugpx.com">
  <metadata>
    <name>Étangs et refuge de Bassiès</name>
    <desc><![CDATA[
]]></desc>
  </metadata>
  <trk>
    <name><![CDATA[bassies]]></name>
    <trkseg>
      <trkpt lat="42.74293" lon="1.46292">
        <ele>843.1</ele>
        <time>2017-06-18T04:26:33Z</time>
      </trkpt>
      <trkpt lat="42.74293" lon="1.46276">
        <ele>843</ele>
        <time>2017-06-18T04:26:42Z</time>
      </trkpt>
      <trkpt lat="42.74286" lon="1.46268">
        <ele>842.2</ele>
        <time>2017-06-18T04:26:53Z</time>
      </trkpt>
      <trkpt lat="42.74277" lon="1.4626">
        <ele>840.1</ele>
        <time>2017-06-18T04:27:03Z</time>
      </trkpt>
      <trkpt lat="42.74275" lon="1.46245">
        <ele>838.2</ele>
        <time>2017-06-18T04:27:10Z</time>
      </trkpt>
      <trkpt lat="42.74276" lon="1.46231">
        <ele>837.3</ele>
        <time>2017-06-18T04:27:19Z</time>
      </trkpt>
      <trkpt lat="42.74284" lon="1.46222">
        <ele>836.1</ele>
        <time>2017-06-18T04:27:29Z</time>
      </trkpt>
      <trkpt lat="42.74285" lon="1.46213">
        <ele>838</ele>
        <time>2017-06-18T04:27:43Z</time>
      </trkpt>
      <trkpt lat="42.74276" lon="1.46212">
        <ele>839.8</ele>
        <time>2017-06-18T04:27:52Z</time>
      </trkpt>
      <trkpt lat="42.74267" lon="1.46211">
        <ele>841.7</ele>
        <time>2017-06-18T04:28:01Z</time>
      </trkpt>
      <trkpt lat="42.74257" lon="1.46206">
        <ele>843.4</ele>
        <time>2017-06-18T04:28:12Z</time>
      </trkpt>
      <trkpt lat="42.74248" lon="1.46202">
        <ele>845</ele>
        <time>2017-06-18T04:28:22Z</time>
      </trkpt>
      <trkpt lat="42.74238" lon="1.46198">
        <ele>847.2</ele>
        <time>2017-06-18T04:28:33Z</time>
      </trkpt>
      <trkpt lat="42.74226" lon="1.46193">
        <ele>848.8</ele>
        <time>2017-06-18T04:28:45Z</time>
      </trkpt>
      <trkpt lat="42.74215" lon="1.46185">
        <ele>850.8</ele>
        <time>2017-06-18T04:28:59Z</time>
      </trkpt>
      <trkpt lat="42.74205" lon="1.46176">
        <ele>852.6</ele>
        <time>2017-06-18T04:29:13Z</time>
      </trkpt>
      <trkpt lat="42.74193" lon="1.46169">
        <ele>854.7</ele>
        <time>2017-06-18T04:29:26Z</time>
      </trkpt>
      <trkpt lat="42.74184" lon="1.46166">
        <ele>857.4</ele>
        <time>2017-06-18T04:29:40Z</time>
      </trkpt>
      <trkpt lat="42.74173" lon="1.46167">
        <ele>861</ele>
        <time>2017-06-18T04:29:53Z</time>
      </trkpt>
      <trkpt lat="42.7416" lon="1.46163">
        <ele>864.2</ele>
        <time>2017-06-18T04:30:03Z</time>
      </trkpt>
      <trkpt lat="42.74152" lon="1.46153">
        <ele>866.4</ele>
        <time>2017-06-18T04:30:11Z</time>
      </trkpt>
      <trkpt lat="42.7415" lon="1.46139">
        <ele>867.6</ele>
        <time>2017-06-18T04:30:19Z</time>
      </trkpt>
      <trkpt lat="42.74144" lon="1.46126">
        <ele>867.8</ele>
        <time>2017-06-18T04:30:26Z</time>
      </trkpt>
      <trkpt lat="42.74137" lon="1.46116">
        <ele>867.4</ele>
        <time>2017-06-18T04:30:34Z</time>
      </trkpt>
      <trkpt lat="42.74128" lon="1.46106">
        <ele>866.8</ele>
        <time>2017-06-18T04:30:40Z</time>
      </trkpt>
      <trkpt lat="42.74122" lon="1.46096">
        <ele>865.6</ele>
        <time>2017-06-18T04:30:48Z</time>
      </trkpt>
      <trkpt lat="42.74113" lon="1.46087">
        <ele>865.3</ele>
        <time>2017-06-18T04:30:57Z</time>
      </trkpt>
      <trkpt lat="42.74103" lon="1.46077">
        <ele>865.3</ele>
        <time>2017-06-18T04:31:06Z</time>
      </trkpt>
      <trkpt lat="42.74094" lon="1.46068">
        <ele>865.2</ele>
        <time>2017-06-18T04:31:14Z</time>
      </trkpt>
      <trkpt lat="42.74084" lon="1.4606">
        <ele>865.8</ele>
        <time>2017-06-18T04:31:23Z</time>
      </trkpt>
      <trkpt lat="42.74073" lon="1.4605">
        <ele>867.1</ele>
        <time>2017-06-18T04:31:31Z</time>
      </trkpt>
      <trkpt lat="42.74062" lon="1.46049">
        <ele>869</ele>
        <time>2017-06-18T04:31:40Z</time>
      </trkpt>
      <trkpt lat="42.74053" lon="1.46047">
        <ele>872.2</ele>
        <time>2017-06-18T04:31:52Z</time>
      </trkpt>
      <trkpt lat="42.74045" lon="1.4604">
        <ele>874.9</ele>
        <time>2017-06-18T04:32:03Z</time>
      </trkpt>
      <trkpt lat="42.74035" lon="1.46035">
        <ele>878.6</ele>
        <time>2017-06-18T04:32:17Z</time>
      </trkpt>
      <trkpt lat="42.74025" lon="1.46025">
        <ele>882.3</ele>
        <time>2017-06-18T04:32:31Z</time>
      </trkpt>
      <trkpt lat="42.74014" lon="1.46013">
        <ele>885</ele>
        <time>2017-06-18T04:32:44Z</time>
      </trkpt>
      <trkpt lat="42.74006" lon="1.46003">
        <ele>887.6</ele>
        <time>2017-06-18T04:32:58Z</time>
      </trkpt>
      <trkpt lat="42.73996" lon="1.45995">
        <ele>891.4</ele>
        <time>2017-06-18T04:33:12Z</time>
      </trkpt>
      <trkpt lat="42.73984" lon="1.45986">
        <ele>893.3</ele>
        <time>2017-06-18T04:33:23Z</time>
      </trkpt>
      <trkpt lat="42.73975" lon="1.4597">
        <ele>894.7</ele>
        <time>2017-06-18T04:33:32Z</time>
      </trkpt>
      <trkpt lat="42.73968" lon="1.45964">
        <ele>895.4</ele>
        <time>2017-06-18T04:33:40Z</time>
      </trkpt>
      <trkpt lat="42.73959" lon="1.45971">
        <ele>895.8</ele>
        <time>2017-06-18T04:33:49Z</time>
      </trkpt>
      <trkpt lat="42.7395" lon="1.45969">
        <ele>897.2</ele>
        <time>2017-06-18T04:34:00Z</time>
      </trkpt>
      <trkpt lat="42.73941" lon="1.45963">
        <ele>898.1</ele>
        <time>2017-06-18T04:34:08Z</time>
      </trkpt>
      <trkpt lat="42.73932" lon="1.45965">
        <ele>899.9</ele>
        <time>2017-06-18T04:34:18Z</time>
      </trkpt>
      <trkpt lat="42.73922" lon="1.45963">
        <ele>902.1</ele>
        <time>2017-06-18T04:34:28Z</time>
      </trkpt>
      <trkpt lat="42.73912" lon="1.45959">
        <ele>904.7</ele>
        <time>2017-06-18T04:34:39Z</time>
      </trkpt>
      <trkpt lat="42.73906" lon="1.4595">
        <ele>906.5</ele>
        <time>2017-06-18T04:34:48Z</time>
      </trkpt>
      <trkpt lat="42.73898" lon="1.45944">
        <ele>908.7</ele>
        <time>2017-06-18T04:34:59Z</time>
      </trkpt>
      <trkpt lat="42.7389" lon="1.45938">
        <ele>911.1</ele>
        <time>2017-06-18T04:35:12Z</time>
      </trkpt>
      <trkpt lat="42.7388" lon="1.45934">
        <ele>913</ele>
        <time>2017-06-18T04:35:38Z</time>
      </trkpt>
      <trkpt lat="42.73875" lon="1.45924">
        <ele>915.7</ele>
        <time>2017-06-18T04:35:49Z</time>
      </trkpt>
      <trkpt lat="42.73872" lon="1.4591">
        <ele>918.4</ele>
        <time>2017-06-18T04:36:00Z</time>
      </trkpt>
      <trkpt lat="42.73874" lon="1.45897">
        <ele>921.7</ele>
        <time>2017-06-18T04:36:11Z</time>
      </trkpt>
      <trkpt lat="42.73868" lon="1.45887">
        <ele>924.9</ele>
        <time>2017-06-18T04:36:23Z</time>
      </trkpt>
      <trkpt lat="42.7386" lon="1.45873">
        <ele>928.7</ele>
        <time>2017-06-18T04:36:37Z</time>
      </trkpt>
      <trkpt lat="42.73854" lon="1.45859">
        <ele>931.4</ele>
        <time>2017-06-18T04:36:51Z</time>
      </trkpt>
      <trkpt lat="42.73844" lon="1.45847">
        <ele>934.4</ele>
        <time>2017-06-18T04:37:03Z</time>
      </trkpt>
      <trkpt lat="42.73837" lon="1.45838">
        <ele>937</ele>
        <time>2017-06-18T04:37:17Z</time>
      </trkpt>
      <trkpt lat="42.73839" lon="1.45824">
        <ele>939.9</ele>
        <time>2017-06-18T04:37:30Z</time>
      </trkpt>
      <trkpt lat="42.73842" lon="1.45809">
        <ele>941.6</ele>
        <time>2017-06-18T04:37:42Z</time>
      </trkpt>
      <trkpt lat="42.73846" lon="1.4579">
        <ele>943.6</ele>
        <time>2017-06-18T04:37:57Z</time>
      </trkpt>
      <trkpt lat="42.73841" lon="1.45775">
        <ele>945.2</ele>
        <time>2017-06-18T04:38:13Z</time>
      </trkpt>
      <trkpt lat="42.73846" lon="1.45771">
        <ele>947.7</ele>
        <time>2017-06-18T04:38:32Z</time>
      </trkpt>
      <trkpt lat="42.73847" lon="1.45769">
        <ele>949.7</ele>
        <time>2017-06-18T04:38:51Z</time>
      </trkpt>
      <trkpt lat="42.73855" lon="1.45765">
        <ele>952.2</ele>
        <time>2017-06-18T04:39:07Z</time>
      </trkpt>
      <trkpt lat="42.73869" lon="1.45761">
        <ele>954.2</ele>
        <time>2017-06-18T04:39:19Z</time>
      </trkpt>
      <trkpt lat="42.73873" lon="1.45749">
        <ele>956.6</ele>
        <time>2017-06-18T04:39:32Z</time>
      </trkpt>
      <trkpt lat="42.73881" lon="1.45743">
        <ele>960.2</ele>
        <time>2017-06-18T04:39:46Z</time>
      </trkpt>
      <trkpt lat="42.7389" lon="1.45737">
        <ele>964.2</ele>
        <time>2017-06-18T04:40:04Z</time>
      </trkpt>
      <trkpt lat="42.73898" lon="1.45733">
        <ele>967.3</ele>
        <time>2017-06-18T04:40:17Z</time>
      </trkpt>
      <trkpt lat="42.73905" lon="1.4573">
        <ele>971.2</ele>
        <time>2017-06-18T04:40:36Z</time>
      </trkpt>
      <trkpt lat="42.7391" lon="1.45731">
        <ele>974.7</ele>
        <time>2017-06-18T04:40:53Z</time>
      </trkpt>
      <trkpt lat="42.73917" lon="1.45734">
        <ele>978.2</ele>
        <time>2017-06-18T04:41:11Z</time>
      </trkpt>
      <trkpt lat="42.73926" lon="1.45731">
        <ele>981</ele>
        <time>2017-06-18T04:41:26Z</time>
      </trkpt>
      <trkpt lat="42.73935" lon="1.45723">
        <ele>984.2</ele>
        <time>2017-06-18T04:41:43Z</time>
      </trkpt>
      <trkpt lat="42.73948" lon="1.45722">
        <ele>986.5</ele>
        <time>2017-06-18T04:41:59Z</time>
      </trkpt>
      <trkpt lat="42.7396" lon="1.45722">
        <ele>988.2</ele>
        <time>2017-06-18T04:42:11Z</time>
      </trkpt>
      <trkpt lat="42.73969" lon="1.45722">
        <ele>990.1</ele>
        <time>2017-06-18T04:42:24Z</time>
      </trkpt>
      <trkpt lat="42.7396" lon="1.45713">
        <ele>992.2</ele>
        <time>2017-06-18T04:42:37Z</time>
      </trkpt>
      <trkpt lat="42.73951" lon="1.45702">
        <ele>993.6</ele>
        <time>2017-06-18T04:42:49Z</time>
      </trkpt>
      <trkpt lat="42.73946" lon="1.45689">
        <ele>995.4</ele>
        <time>2017-06-18T04:43:00Z</time>
      </trkpt>
      <trkpt lat="42.73952" lon="1.45686">
        <ele>997.2</ele>
        <time>2017-06-18T04:43:14Z</time>
      </trkpt>
      <trkpt lat="42.73963" lon="1.45688">
        <ele>999.6</ele>
        <time>2017-06-18T04:43:28Z</time>
      </trkpt>
      <trkpt lat="42.73974" lon="1.45689">
        <ele>1002.1</ele>
        <time>2017-06-18T04:43:43Z</time>
      </trkpt>
      <trkpt lat="42.73985" lon="1.45697">
        <ele>1006</ele>
        <time>2017-06-18T04:44:00Z</time>
      </trkpt>
      <trkpt lat="42.73997" lon="1.45693">
        <ele>1008.9</ele>
        <time>2017-06-18T04:44:13Z</time>
      </trkpt>
      <trkpt lat="42.74009" lon="1.45693">
        <ele>1011.2</ele>
        <time>2017-06-18T04:44:28Z</time>
      </trkpt>
      <trkpt lat="42.74017" lon="1.4569">
        <ele>1014.5</ele>
        <time>2017-06-18T04:44:46Z</time>
      </trkpt>
      <trkpt lat="42.74009" lon="1.45679">
        <ele>1017</ele>
        <time>2017-06-18T04:45:01Z</time>
      </trkpt>
      <trkpt lat="42.73999" lon="1.45673">
        <ele>1019.4</ele>
        <time>2017-06-18T04:45:16Z</time>
      </trkpt>
      <trkpt lat="42.73991" lon="1.4566">
        <ele>1022.2</ele>
        <time>2017-06-18T04:45:31Z</time>
      </trkpt>
      <trkpt lat="42.73987" lon="1.45648">
        <ele>1024.8</ele>
        <time>2017-06-18T04:45:46Z</time>
      </trkpt>
      <trkpt lat="42.73987" lon="1.45635">
        <ele>1027.9</ele>
        <time>2017-06-18T04:46:02Z</time>
      </trkpt>
      <trkpt lat="42.73995" lon="1.45632">
        <ele>1032</ele>
        <time>2017-06-18T04:46:21Z</time>
      </trkpt>
      <trkpt lat="42.74002" lon="1.45635">
        <ele>1035.1</ele>
        <time>2017-06-18T04:46:38Z</time>
      </trkpt>
      <trkpt lat="42.74" lon="1.45621">
        <ele>1037.9</ele>
        <time>2017-06-18T04:46:53Z</time>
      </trkpt>
      <trkpt lat="42.74001" lon="1.45608">
        <ele>1041.4</ele>
        <time>2017-06-18T04:47:10Z</time>
      </trkpt>
      <trkpt lat="42.74005" lon="1.45622">
        <ele>1043.8</ele>
        <time>2017-06-18T04:47:25Z</time>
      </trkpt>
      <trkpt lat="42.74012" lon="1.45631">
        <ele>1046.7</ele>
        <time>2017-06-18T04:47:40Z</time>
      </trkpt>
      <trkpt lat="42.74026" lon="1.45625">
        <ele>1049</ele>
        <time>2017-06-18T04:47:55Z</time>
      </trkpt>
      <trkpt lat="42.74028" lon="1.45612">
        <ele>1051.6</ele>
        <time>2017-06-18T04:48:08Z</time>
      </trkpt>
      <trkpt lat="42.74022" lon="1.45604">
        <ele>1053.9</ele>
        <time>2017-06-18T04:48:23Z</time>
      </trkpt>
      <trkpt lat="42.74026" lon="1.45596">
        <ele>1057.9</ele>
        <time>2017-06-18T04:48:46Z</time>
      </trkpt>
      <trkpt lat="42.74037" lon="1.45593">
        <ele>1060.1</ele>
        <time>2017-06-18T04:48:58Z</time>
      </trkpt>
      <trkpt lat="42.74046" lon="1.45592">
        <ele>1063.1</ele>
        <time>2017-06-18T04:49:17Z</time>
      </trkpt>
      <trkpt lat="42.74041" lon="1.45587">
        <ele>1065.4</ele>
        <time>2017-06-18T04:49:33Z</time>
      </trkpt>
      <trkpt lat="42.74051" lon="1.45581">
        <ele>1069.8</ele>
        <time>2017-06-18T04:49:50Z</time>
      </trkpt>
      <trkpt lat="42.74063" lon="1.45577">
        <ele>1071.9</ele>
        <time>2017-06-18T04:50:05Z</time>
      </trkpt>
      <trkpt lat="42.74056" lon="1.45575">
        <ele>1074.9</ele>
        <time>2017-06-18T04:50:24Z</time>
      </trkpt>
      <trkpt lat="42.7405" lon="1.45562">
        <ele>1078.2</ele>
        <time>2017-06-18T04:50:44Z</time>
      </trkpt>
      <trkpt lat="42.7406" lon="1.45561">
        <ele>1081.7</ele>
        <time>2017-06-18T04:51:02Z</time>
      </trkpt>
      <trkpt lat="42.7407" lon="1.45563">
        <ele>1084</ele>
        <time>2017-06-18T04:51:18Z</time>
      </trkpt>
      <trkpt lat="42.74084" lon="1.45567">
        <ele>1086.5</ele>
        <time>2017-06-18T04:51:33Z</time>
      </trkpt>
      <trkpt lat="42.74077" lon="1.4556">
        <ele>1090.1</ele>
        <time>2017-06-18T04:51:51Z</time>
      </trkpt>
      <trkpt lat="42.74071" lon="1.45547">
        <ele>1093.6</ele>
        <time>2017-06-18T04:52:09Z</time>
      </trkpt>
      <trkpt lat="42.74065" lon="1.45533">
        <ele>1096.8</ele>
        <time>2017-06-18T04:52:28Z</time>
      </trkpt>
      <trkpt lat="42.74069" lon="1.45525">
        <ele>1099.8</ele>
        <time>2017-06-18T04:52:47Z</time>
      </trkpt>
      <trkpt lat="42.74081" lon="1.4553">
        <ele>1102.3</ele>
        <time>2017-06-18T04:53:02Z</time>
      </trkpt>
      <trkpt lat="42.7409" lon="1.45529">
        <ele>1105.7</ele>
        <time>2017-06-18T04:53:21Z</time>
      </trkpt>
      <trkpt lat="42.74088" lon="1.45517">
        <ele>1109.6</ele>
        <time>2017-06-18T04:53:41Z</time>
      </trkpt>
      <trkpt lat="42.74097" lon="1.45523">
        <ele>1113.2</ele>
        <time>2017-06-18T04:54:02Z</time>
      </trkpt>
      <trkpt lat="42.74111" lon="1.45525">
        <ele>1116.2</ele>
        <time>2017-06-18T04:54:20Z</time>
      </trkpt>
      <trkpt lat="42.74108" lon="1.45516">
        <ele>1120</ele>
        <time>2017-06-18T04:54:41Z</time>
      </trkpt>
      <trkpt lat="42.74114" lon="1.45511">
        <ele>1123.9</ele>
        <time>2017-06-18T04:55:01Z</time>
      </trkpt>
      <trkpt lat="42.7412" lon="1.4551">
        <ele>1127.8</ele>
        <time>2017-06-18T04:55:24Z</time>
      </trkpt>
      <trkpt lat="42.74127" lon="1.45502">
        <ele>1131.2</ele>
        <time>2017-06-18T04:55:46Z</time>
      </trkpt>
      <trkpt lat="42.74125" lon="1.45493">
        <ele>1134.6</ele>
        <time>2017-06-18T04:56:05Z</time>
      </trkpt>
      <trkpt lat="42.74137" lon="1.45501">
        <ele>1138.7</ele>
        <time>2017-06-18T04:56:27Z</time>
      </trkpt>
      <trkpt lat="42.74147" lon="1.45508">
        <ele>1141.8</ele>
        <time>2017-06-18T04:56:45Z</time>
      </trkpt>
      <trkpt lat="42.7415" lon="1.45492">
        <ele>1145.8</ele>
        <time>2017-06-18T04:57:06Z</time>
      </trkpt>
      <trkpt lat="42.74157" lon="1.45496">
        <ele>1150.2</ele>
        <time>2017-06-18T04:57:27Z</time>
      </trkpt>
      <trkpt lat="42.74163" lon="1.45501">
        <ele>1152.2</ele>
        <time>2017-06-18T04:57:55Z</time>
      </trkpt>
      <trkpt lat="42.74161" lon="1.455">
        <ele>1152.3</ele>
        <time>2017-06-18T04:58:26Z</time>
      </trkpt>
      <trkpt lat="42.74167" lon="1.45498">
        <ele>1152.5</ele>
        <time>2017-06-18T04:59:03Z</time>
      </trkpt>
      <trkpt lat="42.74168" lon="1.45489">
        <ele>1155.2</ele>
        <time>2017-06-18T04:59:25Z</time>
      </trkpt>
      <trkpt lat="42.74164" lon="1.45475">
        <ele>1159.5</ele>
        <time>2017-06-18T04:59:49Z</time>
      </trkpt>
      <trkpt lat="42.74167" lon="1.45467">
        <ele>1163.9</ele>
        <time>2017-06-18T05:00:12Z</time>
      </trkpt>
      <trkpt lat="42.7417" lon="1.45458">
        <ele>1167.4</ele>
        <time>2017-06-18T05:00:33Z</time>
      </trkpt>
      <trkpt lat="42.74179" lon="1.45466">
        <ele>1171.2</ele>
        <time>2017-06-18T05:00:56Z</time>
      </trkpt>
      <trkpt lat="42.74187" lon="1.45472">
        <ele>1174.4</ele>
        <time>2017-06-18T05:01:20Z</time>
      </trkpt>
      <trkpt lat="42.74195" lon="1.45474">
        <ele>1177.1</ele>
        <time>2017-06-18T05:01:38Z</time>
      </trkpt>
      <trkpt lat="42.74201" lon="1.45479">
        <ele>1177.9</ele>
        <time>2017-06-18T05:01:55Z</time>
      </trkpt>
      <trkpt lat="42.74206" lon="1.4549">
        <ele>1181</ele>
        <time>2017-06-18T05:02:12Z</time>
      </trkpt>
      <trkpt lat="42.74209" lon="1.45488">
        <ele>1184</ele>
        <time>2017-06-18T05:02:29Z</time>
      </trkpt>
      <trkpt lat="42.7421" lon="1.45474">
        <ele>1187.1</ele>
        <time>2017-06-18T05:02:46Z</time>
      </trkpt>
      <trkpt lat="42.74207" lon="1.45457">
        <ele>1190.7</ele>
        <time>2017-06-18T05:03:04Z</time>
      </trkpt>
      <trkpt lat="42.74206" lon="1.45441">
        <ele>1193.1</ele>
        <time>2017-06-18T05:03:22Z</time>
      </trkpt>
      <trkpt lat="42.74212" lon="1.45447">
        <ele>1196</ele>
        <time>2017-06-18T05:03:39Z</time>
      </trkpt>
      <trkpt lat="42.74222" lon="1.45456">
        <ele>1199.2</ele>
        <time>2017-06-18T05:03:55Z</time>
      </trkpt>
      <trkpt lat="42.74228" lon="1.45469">
        <ele>1202.2</ele>
        <time>2017-06-18T05:04:11Z</time>
      </trkpt>
      <trkpt lat="42.74234" lon="1.45473">
        <ele>1205.5</ele>
        <time>2017-06-18T05:04:29Z</time>
      </trkpt>
      <trkpt lat="42.74237" lon="1.4546">
        <ele>1209</ele>
        <time>2017-06-18T05:04:44Z</time>
      </trkpt>
      <trkpt lat="42.74244" lon="1.45466">
        <ele>1212.7</ele>
        <time>2017-06-18T05:05:04Z</time>
      </trkpt>
      <trkpt lat="42.74249" lon="1.45481">
        <ele>1215.9</ele>
        <time>2017-06-18T05:05:21Z</time>
      </trkpt>
      <trkpt lat="42.74253" lon="1.45482">
        <ele>1219.1</ele>
        <time>2017-06-18T05:05:41Z</time>
      </trkpt>
      <trkpt lat="42.74255" lon="1.45467">
        <ele>1223.1</ele>
        <time>2017-06-18T05:06:01Z</time>
      </trkpt>
      <trkpt lat="42.74259" lon="1.45461">
        <ele>1227</ele>
        <time>2017-06-18T05:06:21Z</time>
      </trkpt>
      <trkpt lat="42.7426" lon="1.45446">
        <ele>1230.9</ele>
        <time>2017-06-18T05:06:42Z</time>
      </trkpt>
      <trkpt lat="42.74258" lon="1.45434">
        <ele>1233.2</ele>
        <time>2017-06-18T05:06:57Z</time>
      </trkpt>
      <trkpt lat="42.7426" lon="1.4542">
        <ele>1236.4</ele>
        <time>2017-06-18T05:07:13Z</time>
      </trkpt>
      <trkpt lat="42.74266" lon="1.45424">
        <ele>1240.9</ele>
        <time>2017-06-18T05:07:33Z</time>
      </trkpt>
      <trkpt lat="42.74277" lon="1.45432">
        <ele>1245.2</ele>
        <time>2017-06-18T05:07:55Z</time>
      </trkpt>
      <trkpt lat="42.74286" lon="1.45441">
        <ele>1249.5</ele>
        <time>2017-06-18T05:08:18Z</time>
      </trkpt>
      <trkpt lat="42.74297" lon="1.45448">
        <ele>1253.5</ele>
        <time>2017-06-18T05:08:39Z</time>
      </trkpt>
      <trkpt lat="42.74305" lon="1.4544">
        <ele>1256.8</ele>
        <time>2017-06-18T05:08:58Z</time>
      </trkpt>
      <trkpt lat="42.74306" lon="1.4543">
        <ele>1260.2</ele>
        <time>2017-06-18T05:09:18Z</time>
      </trkpt>
      <trkpt lat="42.74302" lon="1.45414">
        <ele>1263.2</ele>
        <time>2017-06-18T05:09:39Z</time>
      </trkpt>
      <trkpt lat="42.74301" lon="1.45398">
        <ele>1266.7</ele>
        <time>2017-06-18T05:09:59Z</time>
      </trkpt>
      <trkpt lat="42.743" lon="1.45384">
        <ele>1270.3</ele>
        <time>2017-06-18T05:10:18Z</time>
      </trkpt>
      <trkpt lat="42.74309" lon="1.4539">
        <ele>1274</ele>
        <time>2017-06-18T05:10:39Z</time>
      </trkpt>
      <trkpt lat="42.74316" lon="1.45388">
        <ele>1277.7</ele>
        <time>2017-06-18T05:11:00Z</time>
      </trkpt>
      <trkpt lat="42.74312" lon="1.45375">
        <ele>1280.3</ele>
        <time>2017-06-18T05:11:16Z</time>
      </trkpt>
      <trkpt lat="42.74312" lon="1.45365">
        <ele>1283.3</ele>
        <time>2017-06-18T05:12:01Z</time>
      </trkpt>
      <trkpt lat="42.74315" lon="1.45363">
        <ele>1285.1</ele>
        <time>2017-06-18T05:12:18Z</time>
      </trkpt>
      <trkpt lat="42.74325" lon="1.4537">
        <ele>1288.4</ele>
        <time>2017-06-18T05:12:37Z</time>
      </trkpt>
      <trkpt lat="42.74334" lon="1.4537">
        <ele>1291.8</ele>
        <time>2017-06-18T05:12:57Z</time>
      </trkpt>
      <trkpt lat="42.7434" lon="1.45363">
        <ele>1296</ele>
        <time>2017-06-18T05:13:19Z</time>
      </trkpt>
      <trkpt lat="42.74332" lon="1.45353">
        <ele>1299.1</ele>
        <time>2017-06-18T05:13:38Z</time>
      </trkpt>
      <trkpt lat="42.74333" lon="1.45339">
        <ele>1301.7</ele>
        <time>2017-06-18T05:13:55Z</time>
      </trkpt>
      <trkpt lat="42.74339" lon="1.45326">
        <ele>1306</ele>
        <time>2017-06-18T05:14:16Z</time>
      </trkpt>
      <trkpt lat="42.74346" lon="1.4533">
        <ele>1309.6</ele>
        <time>2017-06-18T05:14:37Z</time>
      </trkpt>
      <trkpt lat="42.74352" lon="1.45321">
        <ele>1313</ele>
        <time>2017-06-18T05:14:57Z</time>
      </trkpt>
      <trkpt lat="42.74354" lon="1.45309">
        <ele>1314.9</ele>
        <time>2017-06-18T05:15:12Z</time>
      </trkpt>
      <trkpt lat="42.74358" lon="1.45299">
        <ele>1318.4</ele>
        <time>2017-06-18T05:15:34Z</time>
      </trkpt>
      <trkpt lat="42.74364" lon="1.45296">
        <ele>1323.5</ele>
        <time>2017-06-18T05:15:58Z</time>
      </trkpt>
      <trkpt lat="42.74365" lon="1.4528">
        <ele>1327</ele>
        <time>2017-06-18T05:16:21Z</time>
      </trkpt>
      <trkpt lat="42.74373" lon="1.45278">
        <ele>1331.2</ele>
        <time>2017-06-18T05:16:42Z</time>
      </trkpt>
      <trkpt lat="42.7438" lon="1.4528">
        <ele>1335.9</ele>
        <time>2017-06-18T05:17:02Z</time>
      </trkpt>
      <trkpt lat="42.74381" lon="1.45269">
        <ele>1339.8</ele>
        <time>2017-06-18T05:17:24Z</time>
      </trkpt>
      <trkpt lat="42.74388" lon="1.45275">
        <ele>1344.8</ele>
        <time>2017-06-18T05:17:47Z</time>
      </trkpt>
      <trkpt lat="42.74389" lon="1.4526">
        <ele>1348.2</ele>
        <time>2017-06-18T05:18:07Z</time>
      </trkpt>
      <trkpt lat="42.74393" lon="1.45259">
        <ele>1351.9</ele>
        <time>2017-06-18T05:18:26Z</time>
      </trkpt>
      <trkpt lat="42.74401" lon="1.45261">
        <ele>1354.7</ele>
        <time>2017-06-18T05:18:44Z</time>
      </trkpt>
      <trkpt lat="42.74399" lon="1.45249">
        <ele>1358.1</ele>
        <time>2017-06-18T05:19:03Z</time>
      </trkpt>
      <trkpt lat="42.74399" lon="1.45235">
        <ele>1362.2</ele>
        <time>2017-06-18T05:19:25Z</time>
      </trkpt>
      <trkpt lat="42.74407" lon="1.45238">
        <ele>1365.6</ele>
        <time>2017-06-18T05:19:46Z</time>
      </trkpt>
      <trkpt lat="42.74406" lon="1.45224">
        <ele>1368.8</ele>
        <time>2017-06-18T05:20:05Z</time>
      </trkpt>
      <trkpt lat="42.74409" lon="1.45215">
        <ele>1372.7</ele>
        <time>2017-06-18T05:20:27Z</time>
      </trkpt>
      <trkpt lat="42.74417" lon="1.45219">
        <ele>1376.8</ele>
        <time>2017-06-18T05:20:47Z</time>
      </trkpt>
      <trkpt lat="42.74413" lon="1.45207">
        <ele>1380</ele>
        <time>2017-06-18T05:21:06Z</time>
      </trkpt>
      <trkpt lat="42.74411" lon="1.45192">
        <ele>1383.8</ele>
        <time>2017-06-18T05:21:27Z</time>
      </trkpt>
      <trkpt lat="42.74416" lon="1.45186">
        <ele>1387.9</ele>
        <time>2017-06-18T05:21:49Z</time>
      </trkpt>
      <trkpt lat="42.74425" lon="1.45193">
        <ele>1391.3</ele>
        <time>2017-06-18T05:22:11Z</time>
      </trkpt>
      <trkpt lat="42.74435" lon="1.45202">
        <ele>1394.2</ele>
        <time>2017-06-18T05:22:29Z</time>
      </trkpt>
      <trkpt lat="42.74439" lon="1.45198">
        <ele>1397</ele>
        <time>2017-06-18T05:22:48Z</time>
      </trkpt>
      <trkpt lat="42.74434" lon="1.45186">
        <ele>1398.7</ele>
        <time>2017-06-18T05:23:02Z</time>
      </trkpt>
      <trkpt lat="42.74429" lon="1.45175">
        <ele>1401.6</ele>
        <time>2017-06-18T05:23:22Z</time>
      </trkpt>
      <trkpt lat="42.74423" lon="1.45162">
        <ele>1404.7</ele>
        <time>2017-06-18T05:23:41Z</time>
      </trkpt>
      <trkpt lat="42.7442" lon="1.45149">
        <ele>1408</ele>
        <time>2017-06-18T05:24:02Z</time>
      </trkpt>
      <trkpt lat="42.74417" lon="1.45134">
        <ele>1411.6</ele>
        <time>2017-06-18T05:24:24Z</time>
      </trkpt>
      <trkpt lat="42.74424" lon="1.45134">
        <ele>1415</ele>
        <time>2017-06-18T05:24:47Z</time>
      </trkpt>
      <trkpt lat="42.74436" lon="1.45134">
        <ele>1416.8</ele>
        <time>2017-06-18T05:25:01Z</time>
      </trkpt>
      <trkpt lat="42.74447" lon="1.45129">
        <ele>1420</ele>
        <time>2017-06-18T05:25:21Z</time>
      </trkpt>
      <trkpt lat="42.74457" lon="1.45127">
        <ele>1423.2</ele>
        <time>2017-06-18T05:25:43Z</time>
      </trkpt>
      <trkpt lat="42.74467" lon="1.45119">
        <ele>1425.6</ele>
        <time>2017-06-18T05:26:00Z</time>
      </trkpt>
      <trkpt lat="42.74475" lon="1.45108">
        <ele>1426.3</ele>
        <time>2017-06-18T05:26:15Z</time>
      </trkpt>
      <trkpt lat="42.74484" lon="1.45092">
        <ele>1423.5</ele>
        <time>2017-06-18T05:26:29Z</time>
      </trkpt>
      <trkpt lat="42.74493" lon="1.45077">
        <ele>1420.6</ele>
        <time>2017-06-18T05:26:38Z</time>
      </trkpt>
      <trkpt lat="42.74501" lon="1.45067">
        <ele>1419.1</ele>
        <time>2017-06-18T05:26:46Z</time>
      </trkpt>
      <trkpt lat="42.74514" lon="1.45058">
        <ele>1418.7</ele>
        <time>2017-06-18T05:26:54Z</time>
      </trkpt>
      <trkpt lat="42.74523" lon="1.45051">
        <ele>1418.8</ele>
        <time>2017-06-18T05:27:04Z</time>
      </trkpt>
      <trkpt lat="42.74531" lon="1.45037">
        <ele>1417.6</ele>
        <time>2017-06-18T05:27:14Z</time>
      </trkpt>
      <trkpt lat="42.74538" lon="1.45025">
        <ele>1416.4</ele>
        <time>2017-06-18T05:27:23Z</time>
      </trkpt>
      <trkpt lat="42.74546" lon="1.45014">
        <ele>1414.7</ele>
        <time>2017-06-18T05:27:33Z</time>
      </trkpt>
      <trkpt lat="42.74554" lon="1.45003">
        <ele>1412.8</ele>
        <time>2017-06-18T05:27:43Z</time>
      </trkpt>
      <trkpt lat="42.74562" lon="1.44996">
        <ele>1410.8</ele>
        <time>2017-06-18T05:27:55Z</time>
      </trkpt>
      <trkpt lat="42.74573" lon="1.44984">
        <ele>1409</ele>
        <time>2017-06-18T05:28:10Z</time>
      </trkpt>
      <trkpt lat="42.74579" lon="1.44971">
        <ele>1410.2</ele>
        <time>2017-06-18T05:28:24Z</time>
      </trkpt>
      <trkpt lat="42.74584" lon="1.44956">
        <ele>1412.1</ele>
        <time>2017-06-18T05:28:39Z</time>
      </trkpt>
      <trkpt lat="42.7459" lon="1.44942">
        <ele>1414.1</ele>
        <time>2017-06-18T05:28:52Z</time>
      </trkpt>
      <trkpt lat="42.74593" lon="1.44932">
        <ele>1416.9</ele>
        <time>2017-06-18T05:29:07Z</time>
      </trkpt>
      <trkpt lat="42.746" lon="1.44921">
        <ele>1419.9</ele>
        <time>2017-06-18T05:29:22Z</time>
      </trkpt>
      <trkpt lat="42.7461" lon="1.44913">
        <ele>1422.4</ele>
        <time>2017-06-18T05:29:38Z</time>
      </trkpt>
      <trkpt lat="42.74615" lon="1.44899">
        <ele>1424.4</ele>
        <time>2017-06-18T05:29:53Z</time>
      </trkpt>
      <trkpt lat="42.74623" lon="1.44886">
        <ele>1426.5</ele>
        <time>2017-06-18T05:30:05Z</time>
      </trkpt>
      <trkpt lat="42.74631" lon="1.44878">
        <ele>1428.4</ele>
        <time>2017-06-18T05:30:18Z</time>
      </trkpt>
      <trkpt lat="42.74638" lon="1.4487">
        <ele>1430.4</ele>
        <time>2017-06-18T05:30:29Z</time>
      </trkpt>
      <trkpt lat="42.74646" lon="1.44861">
        <ele>1432.3</ele>
        <time>2017-06-18T05:30:42Z</time>
      </trkpt>
      <trkpt lat="42.74652" lon="1.4485">
        <ele>1434.3</ele>
        <time>2017-06-18T05:30:57Z</time>
      </trkpt>
      <trkpt lat="42.74662" lon="1.44846">
        <ele>1436.7</ele>
        <time>2017-06-18T05:31:11Z</time>
      </trkpt>
      <trkpt lat="42.74671" lon="1.4484">
        <ele>1438.1</ele>
        <time>2017-06-18T05:31:25Z</time>
      </trkpt>
      <trkpt lat="42.74677" lon="1.44834">
        <ele>1439.3</ele>
        <time>2017-06-18T05:31:39Z</time>
      </trkpt>
      <trkpt lat="42.74684" lon="1.44825">
        <ele>1442</ele>
        <time>2017-06-18T05:31:53Z</time>
      </trkpt>
      <trkpt lat="42.74694" lon="1.4482">
        <ele>1444.2</ele>
        <time>2017-06-18T05:32:06Z</time>
      </trkpt>
      <trkpt lat="42.74703" lon="1.44817">
        <ele>1446</ele>
        <time>2017-06-18T05:32:19Z</time>
      </trkpt>
      <trkpt lat="42.7471" lon="1.44808">
        <ele>1447.8</ele>
        <time>2017-06-18T05:32:31Z</time>
      </trkpt>
      <trkpt lat="42.74712" lon="1.44792">
        <ele>1450.2</ele>
        <time>2017-06-18T05:32:47Z</time>
      </trkpt>
      <trkpt lat="42.7472" lon="1.44777">
        <ele>1452.3</ele>
        <time>2017-06-18T05:33:03Z</time>
      </trkpt>
      <trkpt lat="42.7473" lon="1.44769">
        <ele>1453.9</ele>
        <time>2017-06-18T05:33:16Z</time>
      </trkpt>
      <trkpt lat="42.74735" lon="1.44758">
        <ele>1454.7</ele>
        <time>2017-06-18T05:33:27Z</time>
      </trkpt>
      <trkpt lat="42.74742" lon="1.44747">
        <ele>1455.7</ele>
        <time>2017-06-18T05:33:37Z</time>
      </trkpt>
      <trkpt lat="42.74749" lon="1.44747">
        <ele>1456.2</ele>
        <time>2017-06-18T05:33:47Z</time>
      </trkpt>
      <trkpt lat="42.74759" lon="1.44741">
        <ele>1458.1</ele>
        <time>2017-06-18T05:34:04Z</time>
      </trkpt>
      <trkpt lat="42.74767" lon="1.44731">
        <ele>1459.9</ele>
        <time>2017-06-18T05:34:18Z</time>
      </trkpt>
      <trkpt lat="42.74774" lon="1.44722">
        <ele>1461.4</ele>
        <time>2017-06-18T05:34:30Z</time>
      </trkpt>
      <trkpt lat="42.74783" lon="1.44718">
        <ele>1462.8</ele>
        <time>2017-06-18T05:34:43Z</time>
      </trkpt>
      <trkpt lat="42.74789" lon="1.44709">
        <ele>1465.5</ele>
        <time>2017-06-18T05:34:58Z</time>
      </trkpt>
      <trkpt lat="42.74793" lon="1.44697">
        <ele>1468.9</ele>
        <time>2017-06-18T05:35:17Z</time>
      </trkpt>
      <trkpt lat="42.74802" lon="1.44693">
        <ele>1472.6</ele>
        <time>2017-06-18T05:35:36Z</time>
      </trkpt>
      <trkpt lat="42.74809" lon="1.44688">
        <ele>1475.4</ele>
        <time>2017-06-18T05:35:53Z</time>
      </trkpt>
      <trkpt lat="42.74814" lon="1.4468">
        <ele>1479.2</ele>
        <time>2017-06-18T05:36:12Z</time>
      </trkpt>
      <trkpt lat="42.74821" lon="1.44671">
        <ele>1482.3</ele>
        <time>2017-06-18T05:36:30Z</time>
      </trkpt>
      <trkpt lat="42.74826" lon="1.44663">
        <ele>1484.7</ele>
        <time>2017-06-18T05:36:48Z</time>
      </trkpt>
      <trkpt lat="42.74833" lon="1.44656">
        <ele>1487.2</ele>
        <time>2017-06-18T05:37:03Z</time>
      </trkpt>
      <trkpt lat="42.74836" lon="1.44654">
        <ele>1489.5</ele>
        <time>2017-06-18T05:37:40Z</time>
      </trkpt>
      <trkpt lat="42.74841" lon="1.44644">
        <ele>1491.2</ele>
        <time>2017-06-18T05:38:07Z</time>
      </trkpt>
      <trkpt lat="42.7485" lon="1.44637">
        <ele>1495.5</ele>
        <time>2017-06-18T05:38:26Z</time>
      </trkpt>
      <trkpt lat="42.74858" lon="1.44631">
        <ele>1498.6</ele>
        <time>2017-06-18T05:38:43Z</time>
      </trkpt>
      <trkpt lat="42.74866" lon="1.44627">
        <ele>1500.7</ele>
        <time>2017-06-18T05:38:56Z</time>
      </trkpt>
      <trkpt lat="42.74869" lon="1.44619">
        <ele>1503.5</ele>
        <time>2017-06-18T05:39:16Z</time>
      </trkpt>
      <trkpt lat="42.74874" lon="1.44608">
        <ele>1507</ele>
        <time>2017-06-18T05:39:34Z</time>
      </trkpt>
      <trkpt lat="42.74883" lon="1.44602">
        <ele>1509.4</ele>
        <time>2017-06-18T05:39:48Z</time>
      </trkpt>
      <trkpt lat="42.74893" lon="1.44594">
        <ele>1512</ele>
        <time>2017-06-18T05:40:02Z</time>
      </trkpt>
      <trkpt lat="42.749" lon="1.44595">
        <ele>1514.2</ele>
        <time>2017-06-18T05:40:23Z</time>
      </trkpt>
      <trkpt lat="42.74896" lon="1.44597">
        <ele>1518.4</ele>
        <time>2017-06-18T05:46:20Z</time>
      </trkpt>
      <trkpt lat="42.74893" lon="1.44598">
        <ele>1519.7</ele>
        <time>2017-06-18T05:47:15Z</time>
      </trkpt>
      <trkpt lat="42.74898" lon="1.44595">
        <ele>1520.4</ele>
        <time>2017-06-18T05:48:44Z</time>
      </trkpt>
      <trkpt lat="42.74904" lon="1.44584">
        <ele>1519.8</ele>
        <time>2017-06-18T05:48:55Z</time>
      </trkpt>
      <trkpt lat="42.74915" lon="1.44574">
        <ele>1519.5</ele>
        <time>2017-06-18T05:49:06Z</time>
      </trkpt>
      <trkpt lat="42.74925" lon="1.44566">
        <ele>1519.7</ele>
        <time>2017-06-18T05:49:19Z</time>
      </trkpt>
      <trkpt lat="42.74936" lon="1.44559">
        <ele>1520.8</ele>
        <time>2017-06-18T05:49:32Z</time>
      </trkpt>
      <trkpt lat="42.74943" lon="1.44551">
        <ele>1521.8</ele>
        <time>2017-06-18T05:49:50Z</time>
      </trkpt>
      <trkpt lat="42.74952" lon="1.44541">
        <ele>1521.8</ele>
        <time>2017-06-18T05:50:01Z</time>
      </trkpt>
      <trkpt lat="42.74961" lon="1.44534">
        <ele>1521.5</ele>
        <time>2017-06-18T05:50:13Z</time>
      </trkpt>
      <trkpt lat="42.74969" lon="1.44521">
        <ele>1521.3</ele>
        <time>2017-06-18T05:50:27Z</time>
      </trkpt>
      <trkpt lat="42.74979" lon="1.44513">
        <ele>1520.6</ele>
        <time>2017-06-18T05:50:39Z</time>
      </trkpt>
      <trkpt lat="42.74988" lon="1.44507">
        <ele>1519.9</ele>
        <time>2017-06-18T05:50:50Z</time>
      </trkpt>
      <trkpt lat="42.74995" lon="1.44499">
        <ele>1519.2</ele>
        <time>2017-06-18T05:51:10Z</time>
      </trkpt>
      <trkpt lat="42.74999" lon="1.44493">
        <ele>1518.6</ele>
        <time>2017-06-18T05:51:31Z</time>
      </trkpt>
      <trkpt lat="42.75007" lon="1.445">
        <ele>1516.2</ele>
        <time>2017-06-18T05:51:46Z</time>
      </trkpt>
      <trkpt lat="42.75016" lon="1.44494">
        <ele>1514.2</ele>
        <time>2017-06-18T05:51:58Z</time>
      </trkpt>
      <trkpt lat="42.75024" lon="1.44487">
        <ele>1513.5</ele>
        <time>2017-06-18T05:52:09Z</time>
      </trkpt>
      <trkpt lat="42.75037" lon="1.44488">
        <ele>1513</ele>
        <time>2017-06-18T05:52:21Z</time>
      </trkpt>
      <trkpt lat="42.75047" lon="1.44488">
        <ele>1511.6</ele>
        <time>2017-06-18T05:52:30Z</time>
      </trkpt>
      <trkpt lat="42.75055" lon="1.44481">
        <ele>1510.2</ele>
        <time>2017-06-18T05:52:41Z</time>
      </trkpt>
      <trkpt lat="42.75064" lon="1.44472">
        <ele>1509</ele>
        <time>2017-06-18T05:52:52Z</time>
      </trkpt>
      <trkpt lat="42.75074" lon="1.44472">
        <ele>1507.8</ele>
        <time>2017-06-18T05:53:02Z</time>
      </trkpt>
      <trkpt lat="42.75082" lon="1.44479">
        <ele>1505.2</ele>
        <time>2017-06-18T05:53:18Z</time>
      </trkpt>
      <trkpt lat="42.75093" lon="1.44487">
        <ele>1503.3</ele>
        <time>2017-06-18T05:53:30Z</time>
      </trkpt>
      <trkpt lat="42.75103" lon="1.44489">
        <ele>1502.9</ele>
        <time>2017-06-18T05:53:42Z</time>
      </trkpt>
      <trkpt lat="42.75116" lon="1.44487">
        <ele>1503.9</ele>
        <time>2017-06-18T05:53:54Z</time>
      </trkpt>
      <trkpt lat="42.75128" lon="1.44483">
        <ele>1504.7</ele>
        <time>2017-06-18T05:54:06Z</time>
      </trkpt>
      <trkpt lat="42.75137" lon="1.44478">
        <ele>1507.3</ele>
        <time>2017-06-18T05:54:21Z</time>
      </trkpt>
      <trkpt lat="42.75142" lon="1.44472">
        <ele>1510.4</ele>
        <time>2017-06-18T05:54:42Z</time>
      </trkpt>
      <trkpt lat="42.75153" lon="1.44464">
        <ele>1512.4</ele>
        <time>2017-06-18T05:54:56Z</time>
      </trkpt>
      <trkpt lat="42.75161" lon="1.44456">
        <ele>1513</ele>
        <time>2017-06-18T05:55:11Z</time>
      </trkpt>
      <trkpt lat="42.75169" lon="1.44446">
        <ele>1513.5</ele>
        <time>2017-06-18T05:55:22Z</time>
      </trkpt>
      <trkpt lat="42.75181" lon="1.44439">
        <ele>1514.3</ele>
        <time>2017-06-18T05:55:36Z</time>
      </trkpt>
      <trkpt lat="42.75187" lon="1.44427">
        <ele>1516.2</ele>
        <time>2017-06-18T05:55:48Z</time>
      </trkpt>
      <trkpt lat="42.7519" lon="1.44426">
        <ele>1517.2</ele>
        <time>2017-06-18T05:56:59Z</time>
      </trkpt>
      <trkpt lat="42.752" lon="1.44422">
        <ele>1517.5</ele>
        <time>2017-06-18T05:57:14Z</time>
      </trkpt>
      <trkpt lat="42.75209" lon="1.44423">
        <ele>1518.7</ele>
        <time>2017-06-18T05:57:36Z</time>
      </trkpt>
      <trkpt lat="42.7522" lon="1.4442">
        <ele>1519.6</ele>
        <time>2017-06-18T05:57:54Z</time>
      </trkpt>
      <trkpt lat="42.7523" lon="1.44418">
        <ele>1521.3</ele>
        <time>2017-06-18T05:58:06Z</time>
      </trkpt>
      <trkpt lat="42.75241" lon="1.44415">
        <ele>1523.2</ele>
        <time>2017-06-18T05:58:18Z</time>
      </trkpt>
      <trkpt lat="42.75248" lon="1.44407">
        <ele>1526.6</ele>
        <time>2017-06-18T05:58:36Z</time>
      </trkpt>
      <trkpt lat="42.75257" lon="1.44404">
        <ele>1528.5</ele>
        <time>2017-06-18T05:58:49Z</time>
      </trkpt>
      <trkpt lat="42.75265" lon="1.44399">
        <ele>1531.7</ele>
        <time>2017-06-18T05:59:07Z</time>
      </trkpt>
      <trkpt lat="42.75273" lon="1.44392">
        <ele>1535.1</ele>
        <time>2017-06-18T05:59:24Z</time>
      </trkpt>
      <trkpt lat="42.75282" lon="1.44393">
        <ele>1538.9</ele>
        <time>2017-06-18T05:59:43Z</time>
      </trkpt>
      <trkpt lat="42.75284" lon="1.44385">
        <ele>1541.9</ele>
        <time>2017-06-18T06:00:01Z</time>
      </trkpt>
      <trkpt lat="42.7529" lon="1.44395">
        <ele>1543.4</ele>
        <time>2017-06-18T06:00:17Z</time>
      </trkpt>
      <trkpt lat="42.75292" lon="1.44387">
        <ele>1545.6</ele>
        <time>2017-06-18T06:00:34Z</time>
      </trkpt>
      <trkpt lat="42.75294" lon="1.44377">
        <ele>1547.7</ele>
        <time>2017-06-18T06:00:53Z</time>
      </trkpt>
      <trkpt lat="42.75303" lon="1.44382">
        <ele>1551.3</ele>
        <time>2017-06-18T06:01:11Z</time>
      </trkpt>
      <trkpt lat="42.75311" lon="1.44391">
        <ele>1554.2</ele>
        <time>2017-06-18T06:01:24Z</time>
      </trkpt>
      <trkpt lat="42.75318" lon="1.44403">
        <ele>1556.1</ele>
        <time>2017-06-18T06:01:37Z</time>
      </trkpt>
      <trkpt lat="42.75326" lon="1.44412">
        <ele>1557.6</ele>
        <time>2017-06-18T06:01:50Z</time>
      </trkpt>
      <trkpt lat="42.75333" lon="1.44421">
        <ele>1559.2</ele>
        <time>2017-06-18T06:02:05Z</time>
      </trkpt>
      <trkpt lat="42.7534" lon="1.44432">
        <ele>1561.5</ele>
        <time>2017-06-18T06:02:23Z</time>
      </trkpt>
      <trkpt lat="42.75344" lon="1.44443">
        <ele>1563.5</ele>
        <time>2017-06-18T06:02:37Z</time>
      </trkpt>
      <trkpt lat="42.75344" lon="1.44458">
        <ele>1565.7</ele>
        <time>2017-06-18T06:02:52Z</time>
      </trkpt>
      <trkpt lat="42.75343" lon="1.44471">
        <ele>1567.2</ele>
        <time>2017-06-18T06:03:06Z</time>
      </trkpt>
      <trkpt lat="42.75347" lon="1.44485">
        <ele>1568.8</ele>
        <time>2017-06-18T06:03:22Z</time>
      </trkpt>
      <trkpt lat="42.75351" lon="1.44501">
        <ele>1569.2</ele>
        <time>2017-06-18T06:03:34Z</time>
      </trkpt>
      <trkpt lat="42.75351" lon="1.44514">
        <ele>1570.8</ele>
        <time>2017-06-18T06:03:47Z</time>
      </trkpt>
      <trkpt lat="42.75353" lon="1.44527">
        <ele>1572.8</ele>
        <time>2017-06-18T06:04:01Z</time>
      </trkpt>
      <trkpt lat="42.75358" lon="1.44538">
        <ele>1574.4</ele>
        <time>2017-06-18T06:04:15Z</time>
      </trkpt>
      <trkpt lat="42.75367" lon="1.44538">
        <ele>1576.2</ele>
        <time>2017-06-18T06:04:26Z</time>
      </trkpt>
      <trkpt lat="42.75373" lon="1.44541">
        <ele>1578.1</ele>
        <time>2017-06-18T06:04:40Z</time>
      </trkpt>
      <trkpt lat="42.75372" lon="1.44527">
        <ele>1579.1</ele>
        <time>2017-06-18T06:04:53Z</time>
      </trkpt>
      <trkpt lat="42.75372" lon="1.44515">
        <ele>1579.8</ele>
        <time>2017-06-18T06:05:02Z</time>
      </trkpt>
      <trkpt lat="42.75375" lon="1.44503">
        <ele>1580.9</ele>
        <time>2017-06-18T06:05:11Z</time>
      </trkpt>
      <trkpt lat="42.7538" lon="1.44493">
        <ele>1581.7</ele>
        <time>2017-06-18T06:05:20Z</time>
      </trkpt>
      <trkpt lat="42.75386" lon="1.44483">
        <ele>1581.7</ele>
        <time>2017-06-18T06:05:29Z</time>
      </trkpt>
      <trkpt lat="42.75391" lon="1.44478">
        <ele>1581.4</ele>
        <time>2017-06-18T06:06:21Z</time>
      </trkpt>
      <trkpt lat="42.75392" lon="1.4447">
        <ele>1582.2</ele>
        <time>2017-06-18T06:06:40Z</time>
      </trkpt>
      <trkpt lat="42.75401" lon="1.44468">
        <ele>1581.5</ele>
        <time>2017-06-18T06:06:50Z</time>
      </trkpt>
      <trkpt lat="42.75411" lon="1.44467">
        <ele>1580.7</ele>
        <time>2017-06-18T06:07:03Z</time>
      </trkpt>
      <trkpt lat="42.75421" lon="1.44467">
        <ele>1580.3</ele>
        <time>2017-06-18T06:07:13Z</time>
      </trkpt>
      <trkpt lat="42.7543" lon="1.44464">
        <ele>1580.6</ele>
        <time>2017-06-18T06:07:23Z</time>
      </trkpt>
      <trkpt lat="42.75439" lon="1.44461">
        <ele>1581.6</ele>
        <time>2017-06-18T06:07:34Z</time>
      </trkpt>
      <trkpt lat="42.75442" lon="1.44451">
        <ele>1581.9</ele>
        <time>2017-06-18T06:07:43Z</time>
      </trkpt>
      <trkpt lat="42.75448" lon="1.44444">
        <ele>1582.8</ele>
        <time>2017-06-18T06:08:02Z</time>
      </trkpt>
      <trkpt lat="42.75453" lon="1.44431">
        <ele>1582.7</ele>
        <time>2017-06-18T06:08:14Z</time>
      </trkpt>
      <trkpt lat="42.75458" lon="1.44421">
        <ele>1582.7</ele>
        <time>2017-06-18T06:08:23Z</time>
      </trkpt>
      <trkpt lat="42.75463" lon="1.44411">
        <ele>1583.2</ele>
        <time>2017-06-18T06:08:33Z</time>
      </trkpt>
      <trkpt lat="42.75467" lon="1.44399">
        <ele>1584.1</ele>
        <time>2017-06-18T06:08:43Z</time>
      </trkpt>
      <trkpt lat="42.7547" lon="1.44385">
        <ele>1585</ele>
        <time>2017-06-18T06:08:54Z</time>
      </trkpt>
      <trkpt lat="42.75473" lon="1.44373">
        <ele>1585.6</ele>
        <time>2017-06-18T06:09:03Z</time>
      </trkpt>
      <trkpt lat="42.75478" lon="1.44361">
        <ele>1586.1</ele>
        <time>2017-06-18T06:09:12Z</time>
      </trkpt>
      <trkpt lat="42.7548" lon="1.44348">
        <ele>1587.2</ele>
        <time>2017-06-18T06:09:22Z</time>
      </trkpt>
      <trkpt lat="42.75483" lon="1.44334">
        <ele>1587.7</ele>
        <time>2017-06-18T06:09:32Z</time>
      </trkpt>
      <trkpt lat="42.75487" lon="1.44322">
        <ele>1588.4</ele>
        <time>2017-06-18T06:09:41Z</time>
      </trkpt>
      <trkpt lat="42.75493" lon="1.44311">
        <ele>1588.8</ele>
        <time>2017-06-18T06:09:49Z</time>
      </trkpt>
      <trkpt lat="42.75498" lon="1.44301">
        <ele>1589.3</ele>
        <time>2017-06-18T06:09:57Z</time>
      </trkpt>
      <trkpt lat="42.75505" lon="1.44293">
        <ele>1590.1</ele>
        <time>2017-06-18T06:10:07Z</time>
      </trkpt>
      <trkpt lat="42.75509" lon="1.44282">
        <ele>1591.4</ele>
        <time>2017-06-18T06:10:17Z</time>
      </trkpt>
      <trkpt lat="42.7551" lon="1.44277">
        <ele>1591.2</ele>
        <time>2017-06-18T06:11:06Z</time>
      </trkpt>
      <trkpt lat="42.75517" lon="1.44286">
        <ele>1591.7</ele>
        <time>2017-06-18T06:11:42Z</time>
      </trkpt>
      <trkpt lat="42.75523" lon="1.44279">
        <ele>1592.4</ele>
        <time>2017-06-18T06:11:53Z</time>
      </trkpt>
      <trkpt lat="42.75516" lon="1.44276">
        <ele>1592.1</ele>
        <time>2017-06-18T06:12:25Z</time>
      </trkpt>
      <trkpt lat="42.75524" lon="1.44278">
        <ele>1591.9</ele>
        <time>2017-06-18T06:12:58Z</time>
      </trkpt>
      <trkpt lat="42.75532" lon="1.4427">
        <ele>1593.3</ele>
        <time>2017-06-18T06:13:09Z</time>
      </trkpt>
      <trkpt lat="42.75538" lon="1.44262">
        <ele>1593.7</ele>
        <time>2017-06-18T06:13:26Z</time>
      </trkpt>
      <trkpt lat="42.75539" lon="1.44251">
        <ele>1593.7</ele>
        <time>2017-06-18T06:13:40Z</time>
      </trkpt>
      <trkpt lat="42.7554" lon="1.44239">
        <ele>1593.5</ele>
        <time>2017-06-18T06:13:53Z</time>
      </trkpt>
      <trkpt lat="42.75544" lon="1.44228">
        <ele>1594.2</ele>
        <time>2017-06-18T06:14:04Z</time>
      </trkpt>
      <trkpt lat="42.75565" lon="1.44187">
        <ele>1597.2</ele>
        <time>2017-06-18T06:15:03Z</time>
      </trkpt>
      <trkpt lat="42.75568" lon="1.44174">
        <ele>1597.2</ele>
        <time>2017-06-18T06:15:12Z</time>
      </trkpt>
      <trkpt lat="42.75572" lon="1.44162">
        <ele>1597.1</ele>
        <time>2017-06-18T06:15:21Z</time>
      </trkpt>
      <trkpt lat="42.75573" lon="1.44149">
        <ele>1596.4</ele>
        <time>2017-06-18T06:15:30Z</time>
      </trkpt>
      <trkpt lat="42.75574" lon="1.44136">
        <ele>1595.5</ele>
        <time>2017-06-18T06:15:39Z</time>
      </trkpt>
      <trkpt lat="42.75575" lon="1.44123">
        <ele>1595</ele>
        <time>2017-06-18T06:15:49Z</time>
      </trkpt>
      <trkpt lat="42.75579" lon="1.4411">
        <ele>1595.4</ele>
        <time>2017-06-18T06:15:59Z</time>
      </trkpt>
      <trkpt lat="42.75587" lon="1.441">
        <ele>1595.9</ele>
        <time>2017-06-18T06:16:08Z</time>
      </trkpt>
      <trkpt lat="42.75592" lon="1.44089">
        <ele>1596.1</ele>
        <time>2017-06-18T06:16:16Z</time>
      </trkpt>
      <trkpt lat="42.756" lon="1.44081">
        <ele>1596.4</ele>
        <time>2017-06-18T06:16:23Z</time>
      </trkpt>
      <trkpt lat="42.75608" lon="1.44071">
        <ele>1596.7</ele>
        <time>2017-06-18T06:16:31Z</time>
      </trkpt>
      <trkpt lat="42.75615" lon="1.44062">
        <ele>1596.5</ele>
        <time>2017-06-18T06:16:39Z</time>
      </trkpt>
      <trkpt lat="42.75621" lon="1.44053">
        <ele>1596.5</ele>
        <time>2017-06-18T06:16:47Z</time>
      </trkpt>
      <trkpt lat="42.75622" lon="1.4404">
        <ele>1596.6</ele>
        <time>2017-06-18T06:16:56Z</time>
      </trkpt>
      <trkpt lat="42.75627" lon="1.4403">
        <ele>1596.5</ele>
        <time>2017-06-18T06:17:04Z</time>
      </trkpt>
      <trkpt lat="42.75634" lon="1.4402">
        <ele>1596.2</ele>
        <time>2017-06-18T06:17:12Z</time>
      </trkpt>
      <trkpt lat="42.75641" lon="1.44011">
        <ele>1596.3</ele>
        <time>2017-06-18T06:17:20Z</time>
      </trkpt>
      <trkpt lat="42.75646" lon="1.44">
        <ele>1596.2</ele>
        <time>2017-06-18T06:17:29Z</time>
      </trkpt>
      <trkpt lat="42.75652" lon="1.4399">
        <ele>1596.3</ele>
        <time>2017-06-18T06:17:39Z</time>
      </trkpt>
      <trkpt lat="42.7566" lon="1.43983">
        <ele>1596.9</ele>
        <time>2017-06-18T06:17:47Z</time>
      </trkpt>
      <trkpt lat="42.75668" lon="1.43975">
        <ele>1596.9</ele>
        <time>2017-06-18T06:17:57Z</time>
      </trkpt>
      <trkpt lat="42.75675" lon="1.43966">
        <ele>1596.9</ele>
        <time>2017-06-18T06:18:06Z</time>
      </trkpt>
      <trkpt lat="42.75682" lon="1.43955">
        <ele>1596.7</ele>
        <time>2017-06-18T06:18:16Z</time>
      </trkpt>
      <trkpt lat="42.75688" lon="1.43945">
        <ele>1596.7</ele>
        <time>2017-06-18T06:18:25Z</time>
      </trkpt>
      <trkpt lat="42.75692" lon="1.43932">
        <ele>1596.5</ele>
        <time>2017-06-18T06:18:34Z</time>
      </trkpt>
      <trkpt lat="42.75695" lon="1.4392">
        <ele>1596.8</ele>
        <time>2017-06-18T06:18:45Z</time>
      </trkpt>
      <trkpt lat="42.757" lon="1.4391">
        <ele>1597</ele>
        <time>2017-06-18T06:18:53Z</time>
      </trkpt>
      <trkpt lat="42.75708" lon="1.43902">
        <ele>1597.2</ele>
        <time>2017-06-18T06:19:03Z</time>
      </trkpt>
      <trkpt lat="42.75711" lon="1.43889">
        <ele>1597.7</ele>
        <time>2017-06-18T06:19:14Z</time>
      </trkpt>
      <trkpt lat="42.75715" lon="1.43874">
        <ele>1598.5</ele>
        <time>2017-06-18T06:19:24Z</time>
      </trkpt>
      <trkpt lat="42.75722" lon="1.43864">
        <ele>1599.6</ele>
        <time>2017-06-18T06:19:34Z</time>
      </trkpt>
      <trkpt lat="42.75728" lon="1.43852">
        <ele>1599.9</ele>
        <time>2017-06-18T06:19:44Z</time>
      </trkpt>
      <trkpt lat="42.75736" lon="1.43843">
        <ele>1600.4</ele>
        <time>2017-06-18T06:19:53Z</time>
      </trkpt>
      <trkpt lat="42.75744" lon="1.43837">
        <ele>1601.1</ele>
        <time>2017-06-18T06:20:01Z</time>
      </trkpt>
      <trkpt lat="42.7575" lon="1.4383">
        <ele>1601.4</ele>
        <time>2017-06-18T06:20:09Z</time>
      </trkpt>
      <trkpt lat="42.75755" lon="1.4382">
        <ele>1601.4</ele>
        <time>2017-06-18T06:20:17Z</time>
      </trkpt>
      <trkpt lat="42.7576" lon="1.43813">
        <ele>1602.3</ele>
        <time>2017-06-18T06:20:27Z</time>
      </trkpt>
      <trkpt lat="42.75768" lon="1.43803">
        <ele>1602.9</ele>
        <time>2017-06-18T06:20:38Z</time>
      </trkpt>
      <trkpt lat="42.75774" lon="1.43791">
        <ele>1602.6</ele>
        <time>2017-06-18T06:20:46Z</time>
      </trkpt>
      <trkpt lat="42.75781" lon="1.43783">
        <ele>1602.6</ele>
        <time>2017-06-18T06:20:54Z</time>
      </trkpt>
      <trkpt lat="42.7579" lon="1.43776">
        <ele>1602.7</ele>
        <time>2017-06-18T06:21:05Z</time>
      </trkpt>
      <trkpt lat="42.75798" lon="1.43769">
        <ele>1603.3</ele>
        <time>2017-06-18T06:21:14Z</time>
      </trkpt>
      <trkpt lat="42.75804" lon="1.43761">
        <ele>1603.5</ele>
        <time>2017-06-18T06:21:25Z</time>
      </trkpt>
      <trkpt lat="42.75807" lon="1.43749">
        <ele>1603.7</ele>
        <time>2017-06-18T06:21:35Z</time>
      </trkpt>
      <trkpt lat="42.75814" lon="1.43739">
        <ele>1604.5</ele>
        <time>2017-06-18T06:21:44Z</time>
      </trkpt>
      <trkpt lat="42.75819" lon="1.43727">
        <ele>1605.6</ele>
        <time>2017-06-18T06:21:55Z</time>
      </trkpt>
      <trkpt lat="42.75825" lon="1.43716">
        <ele>1606.1</ele>
        <time>2017-06-18T06:22:05Z</time>
      </trkpt>
      <trkpt lat="42.75831" lon="1.43706">
        <ele>1605.9</ele>
        <time>2017-06-18T06:22:15Z</time>
      </trkpt>
      <trkpt lat="42.7584" lon="1.43698">
        <ele>1605.1</ele>
        <time>2017-06-18T06:22:25Z</time>
      </trkpt>
      <trkpt lat="42.75851" lon="1.43691">
        <ele>1604.7</ele>
        <time>2017-06-18T06:22:35Z</time>
      </trkpt>
      <trkpt lat="42.75858" lon="1.43684">
        <ele>1604.7</ele>
        <time>2017-06-18T06:22:44Z</time>
      </trkpt>
      <trkpt lat="42.75864" lon="1.43674">
        <ele>1604.7</ele>
        <time>2017-06-18T06:22:53Z</time>
      </trkpt>
      <trkpt lat="42.7587" lon="1.43662">
        <ele>1604.9</ele>
        <time>2017-06-18T06:23:02Z</time>
      </trkpt>
      <trkpt lat="42.75877" lon="1.43652">
        <ele>1605.2</ele>
        <time>2017-06-18T06:23:10Z</time>
      </trkpt>
      <trkpt lat="42.75881" lon="1.43643">
        <ele>1605.3</ele>
        <time>2017-06-18T06:23:18Z</time>
      </trkpt>
      <trkpt lat="42.75885" lon="1.43631">
        <ele>1605.2</ele>
        <time>2017-06-18T06:23:27Z</time>
      </trkpt>
      <trkpt lat="42.75888" lon="1.43617">
        <ele>1605.7</ele>
        <time>2017-06-18T06:23:38Z</time>
      </trkpt>
      <trkpt lat="42.7589" lon="1.43604">
        <ele>1605.6</ele>
        <time>2017-06-18T06:23:48Z</time>
      </trkpt>
      <trkpt lat="42.75892" lon="1.43592">
        <ele>1605.6</ele>
        <time>2017-06-18T06:23:56Z</time>
      </trkpt>
      <trkpt lat="42.75898" lon="1.43582">
        <ele>1605.9</ele>
        <time>2017-06-18T06:24:07Z</time>
      </trkpt>
      <trkpt lat="42.75905" lon="1.43572">
        <ele>1606.6</ele>
        <time>2017-06-18T06:24:16Z</time>
      </trkpt>
      <trkpt lat="42.7591" lon="1.43559">
        <ele>1607.1</ele>
        <time>2017-06-18T06:24:25Z</time>
      </trkpt>
      <trkpt lat="42.75915" lon="1.43548">
        <ele>1607.1</ele>
        <time>2017-06-18T06:24:38Z</time>
      </trkpt>
      <trkpt lat="42.75921" lon="1.43535">
        <ele>1606.5</ele>
        <time>2017-06-18T06:24:48Z</time>
      </trkpt>
      <trkpt lat="42.75923" lon="1.43523">
        <ele>1606.6</ele>
        <time>2017-06-18T06:24:56Z</time>
      </trkpt>
      <trkpt lat="42.75927" lon="1.43511">
        <ele>1606.7</ele>
        <time>2017-06-18T06:25:05Z</time>
      </trkpt>
      <trkpt lat="42.75929" lon="1.43498">
        <ele>1607.5</ele>
        <time>2017-06-18T06:25:15Z</time>
      </trkpt>
      <trkpt lat="42.75933" lon="1.43484">
        <ele>1608.2</ele>
        <time>2017-06-18T06:25:26Z</time>
      </trkpt>
      <trkpt lat="42.75934" lon="1.4347">
        <ele>1609.4</ele>
        <time>2017-06-18T06:25:37Z</time>
      </trkpt>
      <trkpt lat="42.75937" lon="1.43456">
        <ele>1610.1</ele>
        <time>2017-06-18T06:25:47Z</time>
      </trkpt>
      <trkpt lat="42.75942" lon="1.43444">
        <ele>1610.9</ele>
        <time>2017-06-18T06:26:00Z</time>
      </trkpt>
      <trkpt lat="42.75945" lon="1.43432">
        <ele>1612.2</ele>
        <time>2017-06-18T06:26:13Z</time>
      </trkpt>
      <trkpt lat="42.75947" lon="1.43418">
        <ele>1613</ele>
        <time>2017-06-18T06:26:26Z</time>
      </trkpt>
      <trkpt lat="42.75949" lon="1.43405">
        <ele>1615.1</ele>
        <time>2017-06-18T06:26:43Z</time>
      </trkpt>
      <trkpt lat="42.7595" lon="1.43391">
        <ele>1616.3</ele>
        <time>2017-06-18T06:26:53Z</time>
      </trkpt>
      <trkpt lat="42.75952" lon="1.43378">
        <ele>1617.2</ele>
        <time>2017-06-18T06:27:03Z</time>
      </trkpt>
      <trkpt lat="42.75954" lon="1.43364">
        <ele>1617.7</ele>
        <time>2017-06-18T06:27:34Z</time>
      </trkpt>
      <trkpt lat="42.75957" lon="1.43351">
        <ele>1618.7</ele>
        <time>2017-06-18T06:27:46Z</time>
      </trkpt>
      <trkpt lat="42.75966" lon="1.43341">
        <ele>1619.1</ele>
        <time>2017-06-18T06:28:05Z</time>
      </trkpt>
      <trkpt lat="42.7597" lon="1.43329">
        <ele>1618.9</ele>
        <time>2017-06-18T06:28:13Z</time>
      </trkpt>
      <trkpt lat="42.75971" lon="1.43316">
        <ele>1619.4</ele>
        <time>2017-06-18T06:28:26Z</time>
      </trkpt>
      <trkpt lat="42.75971" lon="1.43303">
        <ele>1619.8</ele>
        <time>2017-06-18T06:28:36Z</time>
      </trkpt>
      <trkpt lat="42.75973" lon="1.43289">
        <ele>1620.7</ele>
        <time>2017-06-18T06:28:47Z</time>
      </trkpt>
      <trkpt lat="42.75979" lon="1.43277">
        <ele>1621.9</ele>
        <time>2017-06-18T06:28:58Z</time>
      </trkpt>
      <trkpt lat="42.75985" lon="1.43267">
        <ele>1622.3</ele>
        <time>2017-06-18T06:29:07Z</time>
      </trkpt>
      <trkpt lat="42.75994" lon="1.43261">
        <ele>1622.2</ele>
        <time>2017-06-18T06:29:16Z</time>
      </trkpt>
      <trkpt lat="42.76001" lon="1.43252">
        <ele>1622.2</ele>
        <time>2017-06-18T06:29:25Z</time>
      </trkpt>
      <trkpt lat="42.76009" lon="1.43246">
        <ele>1622.6</ele>
        <time>2017-06-18T06:29:34Z</time>
      </trkpt>
      <trkpt lat="42.76017" lon="1.43238">
        <ele>1622.6</ele>
        <time>2017-06-18T06:29:42Z</time>
      </trkpt>
      <trkpt lat="42.76025" lon="1.43233">
        <ele>1622.7</ele>
        <time>2017-06-18T06:29:50Z</time>
      </trkpt>
      <trkpt lat="42.76032" lon="1.43224">
        <ele>1622.9</ele>
        <time>2017-06-18T06:29:58Z</time>
      </trkpt>
      <trkpt lat="42.76042" lon="1.43221">
        <ele>1623.1</ele>
        <time>2017-06-18T06:30:08Z</time>
      </trkpt>
      <trkpt lat="42.7605" lon="1.43212">
        <ele>1623.1</ele>
        <time>2017-06-18T06:30:18Z</time>
      </trkpt>
      <trkpt lat="42.7606" lon="1.43206">
        <ele>1622.8</ele>
        <time>2017-06-18T06:30:26Z</time>
      </trkpt>
      <trkpt lat="42.76069" lon="1.432">
        <ele>1622.7</ele>
        <time>2017-06-18T06:30:35Z</time>
      </trkpt>
      <trkpt lat="42.76079" lon="1.43193">
        <ele>1622.5</ele>
        <time>2017-06-18T06:30:44Z</time>
      </trkpt>
      <trkpt lat="42.76087" lon="1.43186">
        <ele>1622.6</ele>
        <time>2017-06-18T06:30:52Z</time>
      </trkpt>
      <trkpt lat="42.76092" lon="1.43176">
        <ele>1622.7</ele>
        <time>2017-06-18T06:31:01Z</time>
      </trkpt>
      <trkpt lat="42.76091" lon="1.43164">
        <ele>1622.4</ele>
        <time>2017-06-18T06:31:10Z</time>
      </trkpt>
      <trkpt lat="42.76092" lon="1.43151">
        <ele>1623.5</ele>
        <time>2017-06-18T06:31:19Z</time>
      </trkpt>
      <trkpt lat="42.76092" lon="1.43137">
        <ele>1624.4</ele>
        <time>2017-06-18T06:31:28Z</time>
      </trkpt>
      <trkpt lat="42.76095" lon="1.43124">
        <ele>1624.9</ele>
        <time>2017-06-18T06:31:37Z</time>
      </trkpt>
      <trkpt lat="42.76101" lon="1.43117">
        <ele>1625.2</ele>
        <time>2017-06-18T06:32:16Z</time>
      </trkpt>
      <trkpt lat="42.76113" lon="1.43111">
        <ele>1625.2</ele>
        <time>2017-06-18T06:32:42Z</time>
      </trkpt>
      <trkpt lat="42.76123" lon="1.4311">
        <ele>1625.3</ele>
        <time>2017-06-18T06:32:50Z</time>
      </trkpt>
      <trkpt lat="42.7613" lon="1.43101">
        <ele>1624.6</ele>
        <time>2017-06-18T06:32:59Z</time>
      </trkpt>
      <trkpt lat="42.76136" lon="1.43091">
        <ele>1623.7</ele>
        <time>2017-06-18T06:33:08Z</time>
      </trkpt>
      <trkpt lat="42.76143" lon="1.43081">
        <ele>1623.5</ele>
        <time>2017-06-18T06:33:17Z</time>
      </trkpt>
      <trkpt lat="42.76148" lon="1.43069">
        <ele>1623.4</ele>
        <time>2017-06-18T06:33:26Z</time>
      </trkpt>
      <trkpt lat="42.76149" lon="1.43058">
        <ele>1623.7</ele>
        <time>2017-06-18T06:33:35Z</time>
      </trkpt>
      <trkpt lat="42.76154" lon="1.43045">
        <ele>1623.9</ele>
        <time>2017-06-18T06:33:44Z</time>
      </trkpt>
      <trkpt lat="42.76155" lon="1.43043">
        <ele>1623.8</ele>
        <time>2017-06-18T06:34:50Z</time>
      </trkpt>
      <trkpt lat="42.76162" lon="1.43033">
        <ele>1624.1</ele>
        <time>2017-06-18T06:35:00Z</time>
      </trkpt>
      <trkpt lat="42.76167" lon="1.43023">
        <ele>1624.8</ele>
        <time>2017-06-18T06:35:08Z</time>
      </trkpt>
      <trkpt lat="42.7617" lon="1.43011">
        <ele>1625.2</ele>
        <time>2017-06-18T06:35:16Z</time>
      </trkpt>
      <trkpt lat="42.76176" lon="1.43004">
        <ele>1625.1</ele>
        <time>2017-06-18T06:35:24Z</time>
      </trkpt>
      <trkpt lat="42.76184" lon="1.42995">
        <ele>1624.4</ele>
        <time>2017-06-18T06:35:34Z</time>
      </trkpt>
      <trkpt lat="42.76188" lon="1.42983">
        <ele>1624.4</ele>
        <time>2017-06-18T06:35:43Z</time>
      </trkpt>
      <trkpt lat="42.76191" lon="1.42971">
        <ele>1625.4</ele>
        <time>2017-06-18T06:35:53Z</time>
      </trkpt>
      <trkpt lat="42.76196" lon="1.42958">
        <ele>1626.2</ele>
        <time>2017-06-18T06:36:03Z</time>
      </trkpt>
      <trkpt lat="42.76198" lon="1.42945">
        <ele>1626.8</ele>
        <time>2017-06-18T06:36:12Z</time>
      </trkpt>
      <trkpt lat="42.762" lon="1.42932">
        <ele>1628.3</ele>
        <time>2017-06-18T06:36:23Z</time>
      </trkpt>
      <trkpt lat="42.76207" lon="1.42921">
        <ele>1628.7</ele>
        <time>2017-06-18T06:36:33Z</time>
      </trkpt>
      <trkpt lat="42.76211" lon="1.42908">
        <ele>1628.4</ele>
        <time>2017-06-18T06:36:42Z</time>
      </trkpt>
      <trkpt lat="42.76215" lon="1.42896">
        <ele>1627.7</ele>
        <time>2017-06-18T06:36:50Z</time>
      </trkpt>
      <trkpt lat="42.76217" lon="1.42885">
        <ele>1627.1</ele>
        <time>2017-06-18T06:36:58Z</time>
      </trkpt>
      <trkpt lat="42.76218" lon="1.42871">
        <ele>1626.7</ele>
        <time>2017-06-18T06:37:07Z</time>
      </trkpt>
      <trkpt lat="42.7622" lon="1.42859">
        <ele>1627.1</ele>
        <time>2017-06-18T06:37:16Z</time>
      </trkpt>
      <trkpt lat="42.76219" lon="1.42845">
        <ele>1628</ele>
        <time>2017-06-18T06:37:26Z</time>
      </trkpt>
      <trkpt lat="42.76214" lon="1.42832">
        <ele>1629.1</ele>
        <time>2017-06-18T06:37:35Z</time>
      </trkpt>
      <trkpt lat="42.76221" lon="1.42824">
        <ele>1630.7</ele>
        <time>2017-06-18T06:37:46Z</time>
      </trkpt>
      <trkpt lat="42.76229" lon="1.42816">
        <ele>1632.8</ele>
        <time>2017-06-18T06:37:58Z</time>
      </trkpt>
      <trkpt lat="42.76234" lon="1.42804">
        <ele>1635.5</ele>
        <time>2017-06-18T06:38:09Z</time>
      </trkpt>
      <trkpt lat="42.76238" lon="1.42793">
        <ele>1636.5</ele>
        <time>2017-06-18T06:38:20Z</time>
      </trkpt>
      <trkpt lat="42.76243" lon="1.42783">
        <ele>1638</ele>
        <time>2017-06-18T06:38:38Z</time>
      </trkpt>
      <trkpt lat="42.76253" lon="1.42774">
        <ele>1639.3</ele>
        <time>2017-06-18T06:38:49Z</time>
      </trkpt>
      <trkpt lat="42.76261" lon="1.42761">
        <ele>1638.8</ele>
        <time>2017-06-18T06:39:01Z</time>
      </trkpt>
      <trkpt lat="42.76266" lon="1.4275">
        <ele>1637.8</ele>
        <time>2017-06-18T06:39:43Z</time>
      </trkpt>
      <trkpt lat="42.76269" lon="1.42739">
        <ele>1637.2</ele>
        <time>2017-06-18T06:39:53Z</time>
      </trkpt>
      <trkpt lat="42.76274" lon="1.42729">
        <ele>1636.9</ele>
        <time>2017-06-18T06:40:02Z</time>
      </trkpt>
      <trkpt lat="42.76281" lon="1.42721">
        <ele>1638.3</ele>
        <time>2017-06-18T06:40:15Z</time>
      </trkpt>
      <trkpt lat="42.76289" lon="1.42712">
        <ele>1641</ele>
        <time>2017-06-18T06:40:30Z</time>
      </trkpt>
      <trkpt lat="42.76296" lon="1.427">
        <ele>1641.9</ele>
        <time>2017-06-18T06:40:42Z</time>
      </trkpt>
      <trkpt lat="42.76307" lon="1.42691">
        <ele>1641.8</ele>
        <time>2017-06-18T06:40:53Z</time>
      </trkpt>
      <trkpt lat="42.76312" lon="1.4268">
        <ele>1643.2</ele>
        <time>2017-06-18T06:41:04Z</time>
      </trkpt>
      <trkpt lat="42.76319" lon="1.42673">
        <ele>1646.2</ele>
        <time>2017-06-18T06:41:18Z</time>
      </trkpt>
      <trkpt lat="42.76322" lon="1.42667">
        <ele>1649.5</ele>
        <time>2017-06-18T06:41:33Z</time>
      </trkpt>
      <trkpt lat="42.76327" lon="1.42659">
        <ele>1653.5</ele>
        <time>2017-06-18T06:41:56Z</time>
      </trkpt>
      <trkpt lat="42.76331" lon="1.42649">
        <ele>1655.6</ele>
        <time>2017-06-18T06:42:11Z</time>
      </trkpt>
      <trkpt lat="42.7634" lon="1.42646">
        <ele>1659</ele>
        <time>2017-06-18T06:42:26Z</time>
      </trkpt>
      <trkpt lat="42.76344" lon="1.42634">
        <ele>1661.9</ele>
        <time>2017-06-18T06:42:41Z</time>
      </trkpt>
      <trkpt lat="42.76345" lon="1.42623">
        <ele>1663.4</ele>
        <time>2017-06-18T06:42:55Z</time>
      </trkpt>
      <trkpt lat="42.76348" lon="1.42609">
        <ele>1663.6</ele>
        <time>2017-06-18T06:43:58Z</time>
      </trkpt>
      <trkpt lat="42.76355" lon="1.426">
        <ele>1663.2</ele>
        <time>2017-06-18T06:44:09Z</time>
      </trkpt>
      <trkpt lat="42.76362" lon="1.42592">
        <ele>1662.9</ele>
        <time>2017-06-18T06:44:20Z</time>
      </trkpt>
      <trkpt lat="42.76365" lon="1.4258">
        <ele>1662.3</ele>
        <time>2017-06-18T06:44:31Z</time>
      </trkpt>
      <trkpt lat="42.76366" lon="1.42567">
        <ele>1662.5</ele>
        <time>2017-06-18T06:44:43Z</time>
      </trkpt>
      <trkpt lat="42.76372" lon="1.42556">
        <ele>1664.4</ele>
        <time>2017-06-18T06:45:00Z</time>
      </trkpt>
      <trkpt lat="42.76373" lon="1.42542">
        <ele>1665.1</ele>
        <time>2017-06-18T06:45:12Z</time>
      </trkpt>
      <trkpt lat="42.76379" lon="1.42534">
        <ele>1665.3</ele>
        <time>2017-06-18T06:45:24Z</time>
      </trkpt>
      <trkpt lat="42.76387" lon="1.42525">
        <ele>1665.8</ele>
        <time>2017-06-18T06:45:36Z</time>
      </trkpt>
      <trkpt lat="42.76396" lon="1.4252">
        <ele>1666.7</ele>
        <time>2017-06-18T06:45:48Z</time>
      </trkpt>
      <trkpt lat="42.76402" lon="1.42511">
        <ele>1665.3</ele>
        <time>2017-06-18T06:46:04Z</time>
      </trkpt>
      <trkpt lat="42.76406" lon="1.425">
        <ele>1662.6</ele>
        <time>2017-06-18T06:46:17Z</time>
      </trkpt>
      <trkpt lat="42.76409" lon="1.42488">
        <ele>1661.5</ele>
        <time>2017-06-18T06:46:30Z</time>
      </trkpt>
      <trkpt lat="42.76412" lon="1.42478">
        <ele>1661</ele>
        <time>2017-06-18T06:46:49Z</time>
      </trkpt>
      <trkpt lat="42.76413" lon="1.42467">
        <ele>1661.7</ele>
        <time>2017-06-18T06:47:43Z</time>
      </trkpt>
      <trkpt lat="42.76413" lon="1.42453">
        <ele>1661.7</ele>
        <time>2017-06-18T06:47:55Z</time>
      </trkpt>
      <trkpt lat="42.76412" lon="1.42441">
        <ele>1661.9</ele>
        <time>2017-06-18T06:48:07Z</time>
      </trkpt>
      <trkpt lat="42.76414" lon="1.42429">
        <ele>1662</ele>
        <time>2017-06-18T06:48:17Z</time>
      </trkpt>
      <trkpt lat="42.76412" lon="1.42415">
        <ele>1661.8</ele>
        <time>2017-06-18T06:48:28Z</time>
      </trkpt>
      <trkpt lat="42.7641" lon="1.42403">
        <ele>1662.4</ele>
        <time>2017-06-18T06:48:41Z</time>
      </trkpt>
      <trkpt lat="42.76415" lon="1.4239">
        <ele>1661.9</ele>
        <time>2017-06-18T06:48:50Z</time>
      </trkpt>
      <trkpt lat="42.76411" lon="1.42378">
        <ele>1662</ele>
        <time>2017-06-18T06:49:00Z</time>
      </trkpt>
      <trkpt lat="42.7641" lon="1.42365">
        <ele>1662.1</ele>
        <time>2017-06-18T06:49:09Z</time>
      </trkpt>
      <trkpt lat="42.76411" lon="1.42352">
        <ele>1661.4</ele>
        <time>2017-06-18T06:49:17Z</time>
      </trkpt>
      <trkpt lat="42.76409" lon="1.42341">
        <ele>1661.2</ele>
        <time>2017-06-18T06:49:26Z</time>
      </trkpt>
      <trkpt lat="42.76408" lon="1.42329">
        <ele>1660.6</ele>
        <time>2017-06-18T06:49:34Z</time>
      </trkpt>
      <trkpt lat="42.76404" lon="1.42317">
        <ele>1659.9</ele>
        <time>2017-06-18T06:49:44Z</time>
      </trkpt>
      <trkpt lat="42.76404" lon="1.42304">
        <ele>1658.8</ele>
        <time>2017-06-18T06:50:14Z</time>
      </trkpt>
      <trkpt lat="42.76406" lon="1.42292">
        <ele>1658.2</ele>
        <time>2017-06-18T06:50:22Z</time>
      </trkpt>
      <trkpt lat="42.76411" lon="1.4228">
        <ele>1656.7</ele>
        <time>2017-06-18T06:50:31Z</time>
      </trkpt>
      <trkpt lat="42.76415" lon="1.42268">
        <ele>1655.4</ele>
        <time>2017-06-18T06:50:39Z</time>
      </trkpt>
      <trkpt lat="42.76421" lon="1.42259">
        <ele>1654.5</ele>
        <time>2017-06-18T06:50:46Z</time>
      </trkpt>
      <trkpt lat="42.76429" lon="1.4225">
        <ele>1654.1</ele>
        <time>2017-06-18T06:50:54Z</time>
      </trkpt>
      <trkpt lat="42.76434" lon="1.4224">
        <ele>1654</ele>
        <time>2017-06-18T06:51:03Z</time>
      </trkpt>
      <trkpt lat="42.76442" lon="1.42234">
        <ele>1653.5</ele>
        <time>2017-06-18T06:51:12Z</time>
      </trkpt>
      <trkpt lat="42.76445" lon="1.42225">
        <ele>1652.8</ele>
        <time>2017-06-18T06:51:22Z</time>
      </trkpt>
      <trkpt lat="42.76442" lon="1.42215">
        <ele>1652.9</ele>
        <time>2017-06-18T06:51:32Z</time>
      </trkpt>
      <trkpt lat="42.76439" lon="1.42202">
        <ele>1653.6</ele>
        <time>2017-06-18T06:51:42Z</time>
      </trkpt>
      <trkpt lat="42.7644" lon="1.42189">
        <ele>1654.2</ele>
        <time>2017-06-18T06:51:51Z</time>
      </trkpt>
      <trkpt lat="42.76448" lon="1.42179">
        <ele>1654</ele>
        <time>2017-06-18T06:51:59Z</time>
      </trkpt>
      <trkpt lat="42.7645" lon="1.42169">
        <ele>1653.8</ele>
        <time>2017-06-18T06:52:07Z</time>
      </trkpt>
      <trkpt lat="42.76448" lon="1.42154">
        <ele>1653.9</ele>
        <time>2017-06-18T06:52:16Z</time>
      </trkpt>
      <trkpt lat="42.76447" lon="1.42142">
        <ele>1653</ele>
        <time>2017-06-18T06:52:24Z</time>
      </trkpt>
      <trkpt lat="42.7645" lon="1.42129">
        <ele>1651.8</ele>
        <time>2017-06-18T06:52:32Z</time>
      </trkpt>
      <trkpt lat="42.76455" lon="1.42117">
        <ele>1651.4</ele>
        <time>2017-06-18T06:52:41Z</time>
      </trkpt>
      <trkpt lat="42.7646" lon="1.42107">
        <ele>1650.8</ele>
        <time>2017-06-18T06:52:48Z</time>
      </trkpt>
      <trkpt lat="42.76467" lon="1.42096">
        <ele>1649.9</ele>
        <time>2017-06-18T06:52:57Z</time>
      </trkpt>
      <trkpt lat="42.76472" lon="1.42087">
        <ele>1649.5</ele>
        <time>2017-06-18T06:53:05Z</time>
      </trkpt>
      <trkpt lat="42.76476" lon="1.42075">
        <ele>1648.2</ele>
        <time>2017-06-18T06:53:14Z</time>
      </trkpt>
      <trkpt lat="42.76482" lon="1.42065">
        <ele>1645.8</ele>
        <time>2017-06-18T06:53:25Z</time>
      </trkpt>
      <trkpt lat="42.7649" lon="1.42055">
        <ele>1645</ele>
        <time>2017-06-18T06:53:34Z</time>
      </trkpt>
      <trkpt lat="42.76497" lon="1.42046">
        <ele>1644.4</ele>
        <time>2017-06-18T06:53:44Z</time>
      </trkpt>
      <trkpt lat="42.765" lon="1.42032">
        <ele>1644.8</ele>
        <time>2017-06-18T06:53:59Z</time>
      </trkpt>
      <trkpt lat="42.76505" lon="1.42021">
        <ele>1643.3</ele>
        <time>2017-06-18T06:54:10Z</time>
      </trkpt>
      <trkpt lat="42.76508" lon="1.42006">
        <ele>1642.9</ele>
        <time>2017-06-18T06:54:22Z</time>
      </trkpt>
      <trkpt lat="42.7651" lon="1.41993">
        <ele>1643.1</ele>
        <time>2017-06-18T06:54:31Z</time>
      </trkpt>
      <trkpt lat="42.76514" lon="1.41982">
        <ele>1643.6</ele>
        <time>2017-06-18T06:54:41Z</time>
      </trkpt>
      <trkpt lat="42.7652" lon="1.4197">
        <ele>1646</ele>
        <time>2017-06-18T06:54:55Z</time>
      </trkpt>
      <trkpt lat="42.76525" lon="1.41959">
        <ele>1647.4</ele>
        <time>2017-06-18T06:55:05Z</time>
      </trkpt>
      <trkpt lat="42.76527" lon="1.41948">
        <ele>1646.1</ele>
        <time>2017-06-18T06:55:15Z</time>
      </trkpt>
      <trkpt lat="42.76531" lon="1.41936">
        <ele>1644.5</ele>
        <time>2017-06-18T06:55:27Z</time>
      </trkpt>
      <trkpt lat="42.76537" lon="1.41926">
        <ele>1643.3</ele>
        <time>2017-06-18T06:55:39Z</time>
      </trkpt>
      <trkpt lat="42.76545" lon="1.41918">
        <ele>1643.4</ele>
        <time>2017-06-18T06:55:50Z</time>
      </trkpt>
      <trkpt lat="42.76552" lon="1.41908">
        <ele>1643.8</ele>
        <time>2017-06-18T06:56:00Z</time>
      </trkpt>
      <trkpt lat="42.76555" lon="1.41896">
        <ele>1643.5</ele>
        <time>2017-06-18T06:56:11Z</time>
      </trkpt>
      <trkpt lat="42.76561" lon="1.41883">
        <ele>1643.3</ele>
        <time>2017-06-18T06:56:20Z</time>
      </trkpt>
      <trkpt lat="42.76565" lon="1.41877">
        <ele>1643.8</ele>
        <time>2017-06-18T06:58:19Z</time>
      </trkpt>
      <trkpt lat="42.76571" lon="1.41873">
        <ele>1644.6</ele>
        <time>2017-06-18T06:58:40Z</time>
      </trkpt>
      <trkpt lat="42.76578" lon="1.41865">
        <ele>1646.4</ele>
        <time>2017-06-18T06:58:53Z</time>
      </trkpt>
      <trkpt lat="42.76588" lon="1.4186">
        <ele>1649.8</ele>
        <time>2017-06-18T06:59:07Z</time>
      </trkpt>
      <trkpt lat="42.76591" lon="1.4185">
        <ele>1652.2</ele>
        <time>2017-06-18T06:59:17Z</time>
      </trkpt>
      <trkpt lat="42.76598" lon="1.41841">
        <ele>1653.4</ele>
        <time>2017-06-18T06:59:28Z</time>
      </trkpt>
      <trkpt lat="42.76601" lon="1.4183">
        <ele>1654</ele>
        <time>2017-06-18T06:59:39Z</time>
      </trkpt>
      <trkpt lat="42.76607" lon="1.41816">
        <ele>1654.8</ele>
        <time>2017-06-18T06:59:50Z</time>
      </trkpt>
      <trkpt lat="42.76614" lon="1.41806">
        <ele>1655.4</ele>
        <time>2017-06-18T06:59:59Z</time>
      </trkpt>
      <trkpt lat="42.76618" lon="1.41796">
        <ele>1655.5</ele>
        <time>2017-06-18T07:00:07Z</time>
      </trkpt>
      <trkpt lat="42.76623" lon="1.41785">
        <ele>1655.6</ele>
        <time>2017-06-18T07:00:16Z</time>
      </trkpt>
      <trkpt lat="42.76625" lon="1.41774">
        <ele>1655.6</ele>
        <time>2017-06-18T07:00:26Z</time>
      </trkpt>
      <trkpt lat="42.76627" lon="1.41763">
        <ele>1655</ele>
        <time>2017-06-18T07:00:36Z</time>
      </trkpt>
      <trkpt lat="42.76625" lon="1.41752">
        <ele>1654.9</ele>
        <time>2017-06-18T07:00:47Z</time>
      </trkpt>
      <trkpt lat="42.76618" lon="1.41744">
        <ele>1655.1</ele>
        <time>2017-06-18T07:00:56Z</time>
      </trkpt>
      <trkpt lat="42.76612" lon="1.41735">
        <ele>1655</ele>
        <time>2017-06-18T07:01:04Z</time>
      </trkpt>
      <trkpt lat="42.76606" lon="1.41726">
        <ele>1654.3</ele>
        <time>2017-06-18T07:01:12Z</time>
      </trkpt>
      <trkpt lat="42.76601" lon="1.41716">
        <ele>1653.1</ele>
        <time>2017-06-18T07:01:20Z</time>
      </trkpt>
      <trkpt lat="42.76596" lon="1.41705">
        <ele>1652.1</ele>
        <time>2017-06-18T07:01:29Z</time>
      </trkpt>
      <trkpt lat="42.76591" lon="1.41693">
        <ele>1652.2</ele>
        <time>2017-06-18T07:01:38Z</time>
      </trkpt>
      <trkpt lat="42.76589" lon="1.4168">
        <ele>1652.8</ele>
        <time>2017-06-18T07:01:46Z</time>
      </trkpt>
      <trkpt lat="42.76594" lon="1.41668">
        <ele>1653.1</ele>
        <time>2017-06-18T07:01:54Z</time>
      </trkpt>
      <trkpt lat="42.76599" lon="1.41657">
        <ele>1654.2</ele>
        <time>2017-06-18T07:02:03Z</time>
      </trkpt>
      <trkpt lat="42.76608" lon="1.4165">
        <ele>1656.5</ele>
        <time>2017-06-18T07:02:14Z</time>
      </trkpt>
      <trkpt lat="42.76612" lon="1.4164">
        <ele>1657.3</ele>
        <time>2017-06-18T07:02:48Z</time>
      </trkpt>
      <trkpt lat="42.76617" lon="1.4163">
        <ele>1656.4</ele>
        <time>2017-06-18T07:02:56Z</time>
      </trkpt>
      <trkpt lat="42.76622" lon="1.4162">
        <ele>1655.6</ele>
        <time>2017-06-18T07:03:05Z</time>
      </trkpt>
      <trkpt lat="42.76628" lon="1.41609">
        <ele>1655.1</ele>
        <time>2017-06-18T07:03:16Z</time>
      </trkpt>
      <trkpt lat="42.76629" lon="1.41595">
        <ele>1654.1</ele>
        <time>2017-06-18T07:03:26Z</time>
      </trkpt>
      <trkpt lat="42.76627" lon="1.41581">
        <ele>1653.6</ele>
        <time>2017-06-18T07:03:32Z</time>
      </trkpt>
      <trkpt lat="42.76628" lon="1.41569">
        <ele>1653.2</ele>
        <time>2017-06-18T07:03:42Z</time>
      </trkpt>
      <trkpt lat="42.76633" lon="1.41556">
        <ele>1652.9</ele>
        <time>2017-06-18T07:03:47Z</time>
      </trkpt>
      <trkpt lat="42.76639" lon="1.41544">
        <ele>1653.1</ele>
        <time>2017-06-18T07:03:57Z</time>
      </trkpt>
      <trkpt lat="42.76643" lon="1.41533">
        <ele>1653.7</ele>
        <time>2017-06-18T07:04:16Z</time>
      </trkpt>
      <trkpt lat="42.76648" lon="1.41522">
        <ele>1653.5</ele>
        <time>2017-06-18T07:04:24Z</time>
      </trkpt>
      <trkpt lat="42.76652" lon="1.41511">
        <ele>1654.5</ele>
        <time>2017-06-18T07:04:34Z</time>
      </trkpt>
      <trkpt lat="42.76656" lon="1.41501">
        <ele>1655.4</ele>
        <time>2017-06-18T07:04:40Z</time>
      </trkpt>
      <trkpt lat="42.76655" lon="1.4149">
        <ele>1655.7</ele>
        <time>2017-06-18T07:04:50Z</time>
      </trkpt>
      <trkpt lat="42.7665" lon="1.41475">
        <ele>1680</ele>
        <time>2017-06-18T07:05:05Z</time>
      </trkpt>
      <trkpt lat="42.7664" lon="1.41452">
        <ele>1678.6</ele>
        <time>2017-06-18T07:05:36Z</time>
      </trkpt>
      <trkpt lat="42.76626" lon="1.4143">
        <ele>1676.2</ele>
        <time>2017-06-18T07:05:45Z</time>
      </trkpt>
      <trkpt lat="42.76615" lon="1.41411">
        <ele>1673.9</ele>
        <time>2017-06-18T07:05:57Z</time>
      </trkpt>
      <trkpt lat="42.76596" lon="1.41394">
        <ele>1668.3</ele>
        <time>2017-06-18T07:06:06Z</time>
      </trkpt>
      <trkpt lat="42.76576" lon="1.41383">
        <ele>1664.1</ele>
        <time>2017-06-18T07:06:19Z</time>
      </trkpt>
      <trkpt lat="42.7655" lon="1.41374">
        <ele>1661.3</ele>
        <time>2017-06-18T07:06:32Z</time>
      </trkpt>
      <trkpt lat="42.7653" lon="1.41365">
        <ele>1659.2</ele>
        <time>2017-06-18T07:06:45Z</time>
      </trkpt>
      <trkpt lat="42.7652" lon="1.41353">
        <ele>1658</ele>
        <time>2017-06-18T07:06:54Z</time>
      </trkpt>
      <trkpt lat="42.7652" lon="1.41337">
        <ele>1657.7</ele>
        <time>2017-06-18T07:07:06Z</time>
      </trkpt>
      <trkpt lat="42.76521" lon="1.41324">
        <ele>1667.9</ele>
        <time>2017-06-18T13:03:26Z</time>
      </trkpt>
      <trkpt lat="42.76518" lon="1.41348">
        <ele>1661.7</ele>
        <time>2017-06-18T13:14:10Z</time>
      </trkpt>
      <trkpt lat="42.76522" lon="1.41361">
        <ele>1661.9</ele>
        <time>2017-06-18T13:14:20Z</time>
      </trkpt>
      <trkpt lat="42.7653" lon="1.4137">
        <ele>1661.3</ele>
        <time>2017-06-18T13:14:30Z</time>
      </trkpt>
      <trkpt lat="42.76537" lon="1.41371">
        <ele>1660.1</ele>
        <time>2017-06-18T13:14:41Z</time>
      </trkpt>
      <trkpt lat="42.76546" lon="1.41375">
        <ele>1657.8</ele>
        <time>2017-06-18T13:14:52Z</time>
      </trkpt>
      <trkpt lat="42.76553" lon="1.4138">
        <ele>1655.8</ele>
        <time>2017-06-18T13:15:05Z</time>
      </trkpt>
      <trkpt lat="42.76562" lon="1.41381">
        <ele>1655.8</ele>
        <time>2017-06-18T13:15:15Z</time>
      </trkpt>
      <trkpt lat="42.76571" lon="1.41384">
        <ele>1656.2</ele>
        <time>2017-06-18T13:15:24Z</time>
      </trkpt>
      <trkpt lat="42.7658" lon="1.4139">
        <ele>1656.3</ele>
        <time>2017-06-18T13:15:34Z</time>
      </trkpt>
      <trkpt lat="42.76588" lon="1.41394">
        <ele>1656.5</ele>
        <time>2017-06-18T13:15:44Z</time>
      </trkpt>
      <trkpt lat="42.76596" lon="1.41399">
        <ele>1657.1</ele>
        <time>2017-06-18T13:15:56Z</time>
      </trkpt>
      <trkpt lat="42.76605" lon="1.41408">
        <ele>1659.4</ele>
        <time>2017-06-18T13:16:11Z</time>
      </trkpt>
      <trkpt lat="42.76611" lon="1.41416">
        <ele>1661.5</ele>
        <time>2017-06-18T13:16:24Z</time>
      </trkpt>
      <trkpt lat="42.76618" lon="1.41426">
        <ele>1662.9</ele>
        <time>2017-06-18T13:16:36Z</time>
      </trkpt>
      <trkpt lat="42.76627" lon="1.41434">
        <ele>1665</ele>
        <time>2017-06-18T13:16:49Z</time>
      </trkpt>
      <trkpt lat="42.76632" lon="1.41444">
        <ele>1665.7</ele>
        <time>2017-06-18T13:16:58Z</time>
      </trkpt>
      <trkpt lat="42.76635" lon="1.41457">
        <ele>1665.6</ele>
        <time>2017-06-18T13:17:06Z</time>
      </trkpt>
      <trkpt lat="42.76641" lon="1.41469">
        <ele>1665</ele>
        <time>2017-06-18T13:17:14Z</time>
      </trkpt>
      <trkpt lat="42.76642" lon="1.4148">
        <ele>1664.6</ele>
        <time>2017-06-18T13:17:24Z</time>
      </trkpt>
      <trkpt lat="42.76647" lon="1.41493">
        <ele>1665.6</ele>
        <time>2017-06-18T13:17:37Z</time>
      </trkpt>
      <trkpt lat="42.76647" lon="1.41507">
        <ele>1666.3</ele>
        <time>2017-06-18T13:17:47Z</time>
      </trkpt>
      <trkpt lat="42.76646" lon="1.41521">
        <ele>1665.7</ele>
        <time>2017-06-18T13:17:54Z</time>
      </trkpt>
      <trkpt lat="42.76644" lon="1.41534">
        <ele>1664</ele>
        <time>2017-06-18T13:18:01Z</time>
      </trkpt>
      <trkpt lat="42.76641" lon="1.41544">
        <ele>1663.1</ele>
        <time>2017-06-18T13:18:08Z</time>
      </trkpt>
      <trkpt lat="42.76638" lon="1.41556">
        <ele>1662.9</ele>
        <time>2017-06-18T13:18:15Z</time>
      </trkpt>
      <trkpt lat="42.76633" lon="1.41567">
        <ele>1662.8</ele>
        <time>2017-06-18T13:18:22Z</time>
      </trkpt>
      <trkpt lat="42.76634" lon="1.4158">
        <ele>1662.8</ele>
        <time>2017-06-18T13:18:31Z</time>
      </trkpt>
      <trkpt lat="42.76634" lon="1.41593">
        <ele>1663.2</ele>
        <time>2017-06-18T13:18:39Z</time>
      </trkpt>
      <trkpt lat="42.76633" lon="1.41605">
        <ele>1663.7</ele>
        <time>2017-06-18T13:18:47Z</time>
      </trkpt>
      <trkpt lat="42.76627" lon="1.41616">
        <ele>1664.3</ele>
        <time>2017-06-18T13:18:55Z</time>
      </trkpt>
      <trkpt lat="42.76621" lon="1.41628">
        <ele>1665</ele>
        <time>2017-06-18T13:19:03Z</time>
      </trkpt>
      <trkpt lat="42.76615" lon="1.41637">
        <ele>1665.7</ele>
        <time>2017-06-18T13:19:12Z</time>
      </trkpt>
      <trkpt lat="42.76611" lon="1.41649">
        <ele>1666.2</ele>
        <time>2017-06-18T13:19:21Z</time>
      </trkpt>
      <trkpt lat="42.76603" lon="1.41656">
        <ele>1667.3</ele>
        <time>2017-06-18T13:19:30Z</time>
      </trkpt>
      <trkpt lat="42.76595" lon="1.41665">
        <ele>1666.8</ele>
        <time>2017-06-18T13:19:39Z</time>
      </trkpt>
      <trkpt lat="42.7659" lon="1.41676">
        <ele>1665</ele>
        <time>2017-06-18T13:19:46Z</time>
      </trkpt>
      <trkpt lat="42.76591" lon="1.41689">
        <ele>1664</ele>
        <time>2017-06-18T13:19:54Z</time>
      </trkpt>
      <trkpt lat="42.76595" lon="1.41702">
        <ele>1663.4</ele>
        <time>2017-06-18T13:20:02Z</time>
      </trkpt>
      <trkpt lat="42.76601" lon="1.41711">
        <ele>1662.8</ele>
        <time>2017-06-18T13:20:10Z</time>
      </trkpt>
      <trkpt lat="42.76602" lon="1.41722">
        <ele>1662.7</ele>
        <time>2017-06-18T13:20:20Z</time>
      </trkpt>
      <trkpt lat="42.76596" lon="1.4173">
        <ele>1662.9</ele>
        <time>2017-06-18T13:20:46Z</time>
      </trkpt>
      <trkpt lat="42.76598" lon="1.41737">
        <ele>1662.1</ele>
        <time>2017-06-18T13:21:12Z</time>
      </trkpt>
      <trkpt lat="42.76596" lon="1.41751">
        <ele>1660.8</ele>
        <time>2017-06-18T13:21:22Z</time>
      </trkpt>
      <trkpt lat="42.76597" lon="1.41763">
        <ele>1658.3</ele>
        <time>2017-06-18T13:21:33Z</time>
      </trkpt>
      <trkpt lat="42.76596" lon="1.41772">
        <ele>1655.1</ele>
        <time>2017-06-18T13:21:50Z</time>
      </trkpt>
      <trkpt lat="42.76591" lon="1.41784">
        <ele>1653.8</ele>
        <time>2017-06-18T13:22:01Z</time>
      </trkpt>
      <trkpt lat="42.76582" lon="1.41794">
        <ele>1653.2</ele>
        <time>2017-06-18T13:22:11Z</time>
      </trkpt>
      <trkpt lat="42.76581" lon="1.41807">
        <ele>1653.1</ele>
        <time>2017-06-18T13:22:23Z</time>
      </trkpt>
      <trkpt lat="42.76575" lon="1.4182">
        <ele>1654</ele>
        <time>2017-06-18T13:22:35Z</time>
      </trkpt>
      <trkpt lat="42.7657" lon="1.41835">
        <ele>1654.7</ele>
        <time>2017-06-18T13:22:48Z</time>
      </trkpt>
      <trkpt lat="42.76564" lon="1.41846">
        <ele>1654.9</ele>
        <time>2017-06-18T13:22:58Z</time>
      </trkpt>
      <trkpt lat="42.76562" lon="1.41859">
        <ele>1654</ele>
        <time>2017-06-18T13:23:08Z</time>
      </trkpt>
      <trkpt lat="42.76566" lon="1.41872">
        <ele>1653.5</ele>
        <time>2017-06-18T13:23:40Z</time>
      </trkpt>
      <trkpt lat="42.76561" lon="1.41884">
        <ele>1653.3</ele>
        <time>2017-06-18T13:23:50Z</time>
      </trkpt>
      <trkpt lat="42.76557" lon="1.41896">
        <ele>1653.1</ele>
        <time>2017-06-18T13:23:58Z</time>
      </trkpt>
      <trkpt lat="42.76553" lon="1.41907">
        <ele>1653.1</ele>
        <time>2017-06-18T13:24:08Z</time>
      </trkpt>
      <trkpt lat="42.76545" lon="1.41917">
        <ele>1653.6</ele>
        <time>2017-06-18T13:24:17Z</time>
      </trkpt>
      <trkpt lat="42.76538" lon="1.41926">
        <ele>1653.1</ele>
        <time>2017-06-18T13:24:30Z</time>
      </trkpt>
      <trkpt lat="42.76534" lon="1.41937">
        <ele>1652.9</ele>
        <time>2017-06-18T13:24:41Z</time>
      </trkpt>
      <trkpt lat="42.76529" lon="1.41949">
        <ele>1654.1</ele>
        <time>2017-06-18T13:24:53Z</time>
      </trkpt>
      <trkpt lat="42.76525" lon="1.41963">
        <ele>1656.4</ele>
        <time>2017-06-18T13:25:07Z</time>
      </trkpt>
      <trkpt lat="42.7652" lon="1.41976">
        <ele>1656.8</ele>
        <time>2017-06-18T13:25:19Z</time>
      </trkpt>
      <trkpt lat="42.76513" lon="1.41986">
        <ele>1654.7</ele>
        <time>2017-06-18T13:25:29Z</time>
      </trkpt>
      <trkpt lat="42.76511" lon="1.42001">
        <ele>1653.1</ele>
        <time>2017-06-18T13:25:38Z</time>
      </trkpt>
      <trkpt lat="42.76511" lon="1.42015">
        <ele>1652.3</ele>
        <time>2017-06-18T13:25:47Z</time>
      </trkpt>
      <trkpt lat="42.76505" lon="1.42024">
        <ele>1652.2</ele>
        <time>2017-06-18T13:25:59Z</time>
      </trkpt>
      <trkpt lat="42.76502" lon="1.42039">
        <ele>1653.1</ele>
        <time>2017-06-18T13:26:19Z</time>
      </trkpt>
      <trkpt lat="42.76495" lon="1.4205">
        <ele>1653.6</ele>
        <time>2017-06-18T13:26:33Z</time>
      </trkpt>
      <trkpt lat="42.76489" lon="1.42062">
        <ele>1653.7</ele>
        <time>2017-06-18T13:26:44Z</time>
      </trkpt>
      <trkpt lat="42.76482" lon="1.42071">
        <ele>1654.1</ele>
        <time>2017-06-18T13:26:54Z</time>
      </trkpt>
      <trkpt lat="42.76478" lon="1.42081">
        <ele>1655.4</ele>
        <time>2017-06-18T13:27:07Z</time>
      </trkpt>
      <trkpt lat="42.76472" lon="1.4209">
        <ele>1657.3</ele>
        <time>2017-06-18T13:27:20Z</time>
      </trkpt>
      <trkpt lat="42.76466" lon="1.42104">
        <ele>1658.4</ele>
        <time>2017-06-18T13:27:32Z</time>
      </trkpt>
      <trkpt lat="42.7646" lon="1.42113">
        <ele>1658.7</ele>
        <time>2017-06-18T13:27:41Z</time>
      </trkpt>
      <trkpt lat="42.76454" lon="1.42125">
        <ele>1659.4</ele>
        <time>2017-06-18T13:27:54Z</time>
      </trkpt>
      <trkpt lat="42.76449" lon="1.42136">
        <ele>1660.3</ele>
        <time>2017-06-18T13:28:04Z</time>
      </trkpt>
      <trkpt lat="42.76449" lon="1.42147">
        <ele>1660.9</ele>
        <time>2017-06-18T13:28:14Z</time>
      </trkpt>
      <trkpt lat="42.76448" lon="1.4216">
        <ele>1662</ele>
        <time>2017-06-18T13:28:26Z</time>
      </trkpt>
      <trkpt lat="42.76452" lon="1.42173">
        <ele>1662.4</ele>
        <time>2017-06-18T13:28:36Z</time>
      </trkpt>
      <trkpt lat="42.76447" lon="1.42186">
        <ele>1662.4</ele>
        <time>2017-06-18T13:28:49Z</time>
      </trkpt>
      <trkpt lat="42.76441" lon="1.42197">
        <ele>1662.7</ele>
        <time>2017-06-18T13:28:59Z</time>
      </trkpt>
      <trkpt lat="42.76444" lon="1.4221">
        <ele>1662.9</ele>
        <time>2017-06-18T13:29:08Z</time>
      </trkpt>
      <trkpt lat="42.76444" lon="1.42223">
        <ele>1662.5</ele>
        <time>2017-06-18T13:29:19Z</time>
      </trkpt>
      <trkpt lat="42.76444" lon="1.42237">
        <ele>1661.4</ele>
        <time>2017-06-18T13:29:34Z</time>
      </trkpt>
      <trkpt lat="42.76436" lon="1.42242">
        <ele>1662</ele>
        <time>2017-06-18T13:29:45Z</time>
      </trkpt>
      <trkpt lat="42.76431" lon="1.42252">
        <ele>1662.2</ele>
        <time>2017-06-18T13:29:55Z</time>
      </trkpt>
      <trkpt lat="42.76425" lon="1.42261">
        <ele>1662.6</ele>
        <time>2017-06-18T13:30:05Z</time>
      </trkpt>
      <trkpt lat="42.76418" lon="1.4227">
        <ele>1662.7</ele>
        <time>2017-06-18T13:30:14Z</time>
      </trkpt>
      <trkpt lat="42.76414" lon="1.42283">
        <ele>1663.5</ele>
        <time>2017-06-18T13:30:25Z</time>
      </trkpt>
      <trkpt lat="42.7641" lon="1.42295">
        <ele>1664.6</ele>
        <time>2017-06-18T13:30:35Z</time>
      </trkpt>
      <trkpt lat="42.76406" lon="1.42308">
        <ele>1665.9</ele>
        <time>2017-06-18T13:30:47Z</time>
      </trkpt>
      <trkpt lat="42.76405" lon="1.42321">
        <ele>1667</ele>
        <time>2017-06-18T13:30:58Z</time>
      </trkpt>
      <trkpt lat="42.76409" lon="1.42336">
        <ele>1668.6</ele>
        <time>2017-06-18T13:31:11Z</time>
      </trkpt>
      <trkpt lat="42.76411" lon="1.42348">
        <ele>1669.2</ele>
        <time>2017-06-18T13:31:20Z</time>
      </trkpt>
      <trkpt lat="42.76414" lon="1.4236">
        <ele>1669.8</ele>
        <time>2017-06-18T13:31:32Z</time>
      </trkpt>
      <trkpt lat="42.76415" lon="1.42374">
        <ele>1670.7</ele>
        <time>2017-06-18T13:31:45Z</time>
      </trkpt>
      <trkpt lat="42.76418" lon="1.42386">
        <ele>1671.1</ele>
        <time>2017-06-18T13:31:56Z</time>
      </trkpt>
      <trkpt lat="42.76416" lon="1.42398">
        <ele>1670.4</ele>
        <time>2017-06-18T13:32:04Z</time>
      </trkpt>
      <trkpt lat="42.76416" lon="1.4241">
        <ele>1670.5</ele>
        <time>2017-06-18T13:32:14Z</time>
      </trkpt>
      <trkpt lat="42.76417" lon="1.42422">
        <ele>1670.8</ele>
        <time>2017-06-18T13:32:24Z</time>
      </trkpt>
      <trkpt lat="42.76419" lon="1.42434">
        <ele>1670.7</ele>
        <time>2017-06-18T13:32:32Z</time>
      </trkpt>
      <trkpt lat="42.76417" lon="1.42448">
        <ele>1670.7</ele>
        <time>2017-06-18T13:32:42Z</time>
      </trkpt>
      <trkpt lat="42.76416" lon="1.4246">
        <ele>1670.4</ele>
        <time>2017-06-18T13:32:51Z</time>
      </trkpt>
      <trkpt lat="42.76415" lon="1.42474">
        <ele>1670.8</ele>
        <time>2017-06-18T13:33:03Z</time>
      </trkpt>
      <trkpt lat="42.76414" lon="1.42487">
        <ele>1670.5</ele>
        <time>2017-06-18T13:33:11Z</time>
      </trkpt>
      <trkpt lat="42.7641" lon="1.42499">
        <ele>1670.6</ele>
        <time>2017-06-18T13:33:20Z</time>
      </trkpt>
      <trkpt lat="42.76407" lon="1.42509">
        <ele>1670.7</ele>
        <time>2017-06-18T13:33:29Z</time>
      </trkpt>
      <trkpt lat="42.76402" lon="1.42519">
        <ele>1672.1</ele>
        <time>2017-06-18T13:33:43Z</time>
      </trkpt>
      <trkpt lat="42.76394" lon="1.42526">
        <ele>1675.2</ele>
        <time>2017-06-18T13:33:58Z</time>
      </trkpt>
      <trkpt lat="42.76387" lon="1.42532">
        <ele>1675.8</ele>
        <time>2017-06-18T13:34:08Z</time>
      </trkpt>
      <trkpt lat="42.7638" lon="1.4254">
        <ele>1675</ele>
        <time>2017-06-18T13:34:15Z</time>
      </trkpt>
      <trkpt lat="42.76377" lon="1.42552">
        <ele>1674.5</ele>
        <time>2017-06-18T13:34:29Z</time>
      </trkpt>
      <trkpt lat="42.76369" lon="1.42559">
        <ele>1674.3</ele>
        <time>2017-06-18T13:34:40Z</time>
      </trkpt>
      <trkpt lat="42.76368" lon="1.42571">
        <ele>1673.3</ele>
        <time>2017-06-18T13:34:52Z</time>
      </trkpt>
      <trkpt lat="42.7637" lon="1.42584">
        <ele>1672.4</ele>
        <time>2017-06-18T13:35:02Z</time>
      </trkpt>
      <trkpt lat="42.76363" lon="1.42594">
        <ele>1671.9</ele>
        <time>2017-06-18T13:35:13Z</time>
      </trkpt>
      <trkpt lat="42.76355" lon="1.42603">
        <ele>1672.3</ele>
        <time>2017-06-18T13:35:24Z</time>
      </trkpt>
      <trkpt lat="42.76349" lon="1.42614">
        <ele>1673</ele>
        <time>2017-06-18T13:35:34Z</time>
      </trkpt>
      <trkpt lat="42.76346" lon="1.42626">
        <ele>1673.1</ele>
        <time>2017-06-18T13:35:43Z</time>
      </trkpt>
      <trkpt lat="42.76345" lon="1.42639">
        <ele>1672.9</ele>
        <time>2017-06-18T13:35:56Z</time>
      </trkpt>
      <trkpt lat="42.76339" lon="1.42649">
        <ele>1670.6</ele>
        <time>2017-06-18T13:36:10Z</time>
      </trkpt>
      <trkpt lat="42.76331" lon="1.42652">
        <ele>1667.3</ele>
        <time>2017-06-18T13:36:26Z</time>
      </trkpt>
      <trkpt lat="42.76328" lon="1.42664">
        <ele>1665.5</ele>
        <time>2017-06-18T13:36:38Z</time>
      </trkpt>
      <trkpt lat="42.76321" lon="1.42668">
        <ele>1663.5</ele>
        <time>2017-06-18T13:36:51Z</time>
      </trkpt>
      <trkpt lat="42.76317" lon="1.42674">
        <ele>1660.9</ele>
        <time>2017-06-18T13:37:05Z</time>
      </trkpt>
      <trkpt lat="42.76308" lon="1.4268">
        <ele>1658.2</ele>
        <time>2017-06-18T13:37:16Z</time>
      </trkpt>
      <trkpt lat="42.76303" lon="1.42688">
        <ele>1655.8</ele>
        <time>2017-06-18T13:37:23Z</time>
      </trkpt>
      <trkpt lat="42.76296" lon="1.42697">
        <ele>1653.3</ele>
        <time>2017-06-18T13:37:35Z</time>
      </trkpt>
      <trkpt lat="42.7629" lon="1.42706">
        <ele>1652.1</ele>
        <time>2017-06-18T13:37:50Z</time>
      </trkpt>
      <trkpt lat="42.76284" lon="1.42717">
        <ele>1651.5</ele>
        <time>2017-06-18T13:38:03Z</time>
      </trkpt>
      <trkpt lat="42.76277" lon="1.42726">
        <ele>1649.5</ele>
        <time>2017-06-18T13:38:12Z</time>
      </trkpt>
      <trkpt lat="42.76271" lon="1.42736">
        <ele>1648.1</ele>
        <time>2017-06-18T13:38:23Z</time>
      </trkpt>
      <trkpt lat="42.76266" lon="1.4275">
        <ele>1647.3</ele>
        <time>2017-06-18T13:38:36Z</time>
      </trkpt>
      <trkpt lat="42.76259" lon="1.42764">
        <ele>1648.4</ele>
        <time>2017-06-18T13:38:49Z</time>
      </trkpt>
      <trkpt lat="42.76252" lon="1.42775">
        <ele>1649.4</ele>
        <time>2017-06-18T13:39:01Z</time>
      </trkpt>
      <trkpt lat="42.76243" lon="1.42783">
        <ele>1649.4</ele>
        <time>2017-06-18T13:39:13Z</time>
      </trkpt>
      <trkpt lat="42.76235" lon="1.42787">
        <ele>1647.8</ele>
        <time>2017-06-18T13:39:28Z</time>
      </trkpt>
      <trkpt lat="42.76226" lon="1.42793">
        <ele>1645.3</ele>
        <time>2017-06-18T13:39:40Z</time>
      </trkpt>
      <trkpt lat="42.76219" lon="1.42804">
        <ele>1643.9</ele>
        <time>2017-06-18T13:39:52Z</time>
      </trkpt>
      <trkpt lat="42.76215" lon="1.42818">
        <ele>1642.5</ele>
        <time>2017-06-18T13:40:04Z</time>
      </trkpt>
      <trkpt lat="42.76214" lon="1.42832">
        <ele>1641.2</ele>
        <time>2017-06-18T13:40:13Z</time>
      </trkpt>
      <trkpt lat="42.76219" lon="1.42845">
        <ele>1640.1</ele>
        <time>2017-06-18T13:40:21Z</time>
      </trkpt>
      <trkpt lat="42.76218" lon="1.42857">
        <ele>1639.2</ele>
        <time>2017-06-18T13:40:29Z</time>
      </trkpt>
      <trkpt lat="42.76217" lon="1.42869">
        <ele>1638.2</ele>
        <time>2017-06-18T13:40:38Z</time>
      </trkpt>
      <trkpt lat="42.76216" lon="1.42882">
        <ele>1637.4</ele>
        <time>2017-06-18T13:40:46Z</time>
      </trkpt>
      <trkpt lat="42.76217" lon="1.42894">
        <ele>1637</ele>
        <time>2017-06-18T13:40:55Z</time>
      </trkpt>
      <trkpt lat="42.76211" lon="1.42905">
        <ele>1637.7</ele>
        <time>2017-06-18T13:41:05Z</time>
      </trkpt>
      <trkpt lat="42.76208" lon="1.4292">
        <ele>1638.4</ele>
        <time>2017-06-18T13:41:16Z</time>
      </trkpt>
      <trkpt lat="42.76201" lon="1.42929">
        <ele>1638.9</ele>
        <time>2017-06-18T13:41:26Z</time>
      </trkpt>
      <trkpt lat="42.76198" lon="1.42942">
        <ele>1639.3</ele>
        <time>2017-06-18T13:41:37Z</time>
      </trkpt>
      <trkpt lat="42.76196" lon="1.42954">
        <ele>1638</ele>
        <time>2017-06-18T13:41:46Z</time>
      </trkpt>
      <trkpt lat="42.76193" lon="1.42967">
        <ele>1636.7</ele>
        <time>2017-06-18T13:41:58Z</time>
      </trkpt>
      <trkpt lat="42.76189" lon="1.42981">
        <ele>1636.1</ele>
        <time>2017-06-18T13:42:08Z</time>
      </trkpt>
      <trkpt lat="42.76185" lon="1.42993">
        <ele>1635.1</ele>
        <time>2017-06-18T13:42:18Z</time>
      </trkpt>
      <trkpt lat="42.76179" lon="1.43002">
        <ele>1634.3</ele>
        <time>2017-06-18T13:42:28Z</time>
      </trkpt>
      <trkpt lat="42.76169" lon="1.43012">
        <ele>1634.5</ele>
        <time>2017-06-18T13:42:39Z</time>
      </trkpt>
      <trkpt lat="42.76167" lon="1.43024">
        <ele>1635.3</ele>
        <time>2017-06-18T13:42:49Z</time>
      </trkpt>
      <trkpt lat="42.76162" lon="1.43035">
        <ele>1635.2</ele>
        <time>2017-06-18T13:42:57Z</time>
      </trkpt>
      <trkpt lat="42.76156" lon="1.43044">
        <ele>1634.7</ele>
        <time>2017-06-18T13:43:05Z</time>
      </trkpt>
      <trkpt lat="42.76153" lon="1.43057">
        <ele>1634</ele>
        <time>2017-06-18T13:43:14Z</time>
      </trkpt>
      <trkpt lat="42.76146" lon="1.43062">
        <ele>1633.7</ele>
        <time>2017-06-18T13:43:24Z</time>
      </trkpt>
      <trkpt lat="42.76146" lon="1.43076">
        <ele>1633.4</ele>
        <time>2017-06-18T13:43:34Z</time>
      </trkpt>
      <trkpt lat="42.76138" lon="1.43087">
        <ele>1633.1</ele>
        <time>2017-06-18T13:43:44Z</time>
      </trkpt>
      <trkpt lat="42.76132" lon="1.43099">
        <ele>1632.9</ele>
        <time>2017-06-18T13:43:57Z</time>
      </trkpt>
      <trkpt lat="42.76123" lon="1.4311">
        <ele>1633.7</ele>
        <time>2017-06-18T13:44:08Z</time>
      </trkpt>
      <trkpt lat="42.76115" lon="1.43114">
        <ele>1634.8</ele>
        <time>2017-06-18T13:44:20Z</time>
      </trkpt>
      <trkpt lat="42.76101" lon="1.43117">
        <ele>1634.7</ele>
        <time>2017-06-18T13:44:31Z</time>
      </trkpt>
      <trkpt lat="42.76093" lon="1.43127">
        <ele>1634.5</ele>
        <time>2017-06-18T13:44:43Z</time>
      </trkpt>
      <trkpt lat="42.76093" lon="1.4314">
        <ele>1634.4</ele>
        <time>2017-06-18T13:44:51Z</time>
      </trkpt>
      <trkpt lat="42.76092" lon="1.43152">
        <ele>1634.2</ele>
        <time>2017-06-18T13:44:59Z</time>
      </trkpt>
      <trkpt lat="42.76091" lon="1.43167">
        <ele>1634</ele>
        <time>2017-06-18T13:45:07Z</time>
      </trkpt>
      <trkpt lat="42.76091" lon="1.43178">
        <ele>1633</ele>
        <time>2017-06-18T13:45:14Z</time>
      </trkpt>
      <trkpt lat="42.76085" lon="1.43189">
        <ele>1632.5</ele>
        <time>2017-06-18T13:45:22Z</time>
      </trkpt>
      <trkpt lat="42.76076" lon="1.43195">
        <ele>1632.7</ele>
        <time>2017-06-18T13:45:30Z</time>
      </trkpt>
      <trkpt lat="42.76069" lon="1.43201">
        <ele>1632.5</ele>
        <time>2017-06-18T13:45:38Z</time>
      </trkpt>
      <trkpt lat="42.76061" lon="1.43206">
        <ele>1632.5</ele>
        <time>2017-06-18T13:45:47Z</time>
      </trkpt>
      <trkpt lat="42.76051" lon="1.43212">
        <ele>1632.3</ele>
        <time>2017-06-18T13:45:56Z</time>
      </trkpt>
      <trkpt lat="42.76043" lon="1.43217">
        <ele>1632.4</ele>
        <time>2017-06-18T13:46:04Z</time>
      </trkpt>
      <trkpt lat="42.76036" lon="1.43225">
        <ele>1632.7</ele>
        <time>2017-06-18T13:46:13Z</time>
      </trkpt>
      <trkpt lat="42.76028" lon="1.43228">
        <ele>1633</ele>
        <time>2017-06-18T13:46:21Z</time>
      </trkpt>
      <trkpt lat="42.76023" lon="1.43235">
        <ele>1632.9</ele>
        <time>2017-06-18T13:46:29Z</time>
      </trkpt>
      <trkpt lat="42.76015" lon="1.43242">
        <ele>1632.7</ele>
        <time>2017-06-18T13:46:37Z</time>
      </trkpt>
      <trkpt lat="42.76008" lon="1.43247">
        <ele>1632.6</ele>
        <time>2017-06-18T13:46:45Z</time>
      </trkpt>
      <trkpt lat="42.76001" lon="1.43252">
        <ele>1632.7</ele>
        <time>2017-06-18T13:46:55Z</time>
      </trkpt>
      <trkpt lat="42.75993" lon="1.43262">
        <ele>1632.4</ele>
        <time>2017-06-18T13:47:04Z</time>
      </trkpt>
      <trkpt lat="42.75986" lon="1.43268">
        <ele>1632.1</ele>
        <time>2017-06-18T13:47:11Z</time>
      </trkpt>
      <trkpt lat="42.75979" lon="1.43277">
        <ele>1632</ele>
        <time>2017-06-18T13:47:20Z</time>
      </trkpt>
      <trkpt lat="42.75973" lon="1.43287">
        <ele>1632</ele>
        <time>2017-06-18T13:47:37Z</time>
      </trkpt>
      <trkpt lat="42.75974" lon="1.43301">
        <ele>1631.3</ele>
        <time>2017-06-18T13:47:47Z</time>
      </trkpt>
      <trkpt lat="42.75974" lon="1.43313">
        <ele>1630.3</ele>
        <time>2017-06-18T13:47:55Z</time>
      </trkpt>
      <trkpt lat="42.75972" lon="1.43327">
        <ele>1629.7</ele>
        <time>2017-06-18T13:48:05Z</time>
      </trkpt>
      <trkpt lat="42.75969" lon="1.43338">
        <ele>1629.2</ele>
        <time>2017-06-18T13:48:14Z</time>
      </trkpt>
      <trkpt lat="42.75962" lon="1.43348">
        <ele>1628.9</ele>
        <time>2017-06-18T13:48:23Z</time>
      </trkpt>
      <trkpt lat="42.75958" lon="1.4336">
        <ele>1628.9</ele>
        <time>2017-06-18T13:48:33Z</time>
      </trkpt>
      <trkpt lat="42.75955" lon="1.43371">
        <ele>1628.6</ele>
        <time>2017-06-18T13:48:41Z</time>
      </trkpt>
      <trkpt lat="42.75954" lon="1.43383">
        <ele>1628.1</ele>
        <time>2017-06-18T13:48:50Z</time>
      </trkpt>
      <trkpt lat="42.75954" lon="1.43397">
        <ele>1627.4</ele>
        <time>2017-06-18T13:48:59Z</time>
      </trkpt>
      <trkpt lat="42.75951" lon="1.43408">
        <ele>1626.5</ele>
        <time>2017-06-18T13:49:10Z</time>
      </trkpt>
      <trkpt lat="42.75948" lon="1.43421">
        <ele>1624.2</ele>
        <time>2017-06-18T13:49:21Z</time>
      </trkpt>
      <trkpt lat="42.75944" lon="1.43431">
        <ele>1623.3</ele>
        <time>2017-06-18T13:49:31Z</time>
      </trkpt>
      <trkpt lat="42.75942" lon="1.43446">
        <ele>1622.4</ele>
        <time>2017-06-18T13:49:43Z</time>
      </trkpt>
      <trkpt lat="42.75936" lon="1.43456">
        <ele>1621.6</ele>
        <time>2017-06-18T13:49:52Z</time>
      </trkpt>
      <trkpt lat="42.75933" lon="1.43469">
        <ele>1620.9</ele>
        <time>2017-06-18T13:50:01Z</time>
      </trkpt>
      <trkpt lat="42.75932" lon="1.43481">
        <ele>1620.3</ele>
        <time>2017-06-18T13:50:10Z</time>
      </trkpt>
      <trkpt lat="42.75929" lon="1.43494">
        <ele>1619.5</ele>
        <time>2017-06-18T13:50:20Z</time>
      </trkpt>
      <trkpt lat="42.75927" lon="1.43508">
        <ele>1618.1</ele>
        <time>2017-06-18T13:50:30Z</time>
      </trkpt>
      <trkpt lat="42.75924" lon="1.4352">
        <ele>1617.4</ele>
        <time>2017-06-18T13:50:38Z</time>
      </trkpt>
      <trkpt lat="42.75923" lon="1.43534">
        <ele>1617</ele>
        <time>2017-06-18T13:50:47Z</time>
      </trkpt>
      <trkpt lat="42.75917" lon="1.43546">
        <ele>1617.2</ele>
        <time>2017-06-18T13:50:56Z</time>
      </trkpt>
      <trkpt lat="42.75912" lon="1.43556">
        <ele>1617.5</ele>
        <time>2017-06-18T13:51:06Z</time>
      </trkpt>
      <trkpt lat="42.7591" lon="1.43569">
        <ele>1617.6</ele>
        <time>2017-06-18T13:51:15Z</time>
      </trkpt>
      <trkpt lat="42.75903" lon="1.43577">
        <ele>1617.7</ele>
        <time>2017-06-18T13:51:24Z</time>
      </trkpt>
      <trkpt lat="42.75896" lon="1.43587">
        <ele>1617.2</ele>
        <time>2017-06-18T13:51:33Z</time>
      </trkpt>
      <trkpt lat="42.75891" lon="1.436">
        <ele>1616.7</ele>
        <time>2017-06-18T13:51:43Z</time>
      </trkpt>
      <trkpt lat="42.75889" lon="1.43613">
        <ele>1616.2</ele>
        <time>2017-06-18T13:51:53Z</time>
      </trkpt>
      <trkpt lat="42.75886" lon="1.43625">
        <ele>1616.3</ele>
        <time>2017-06-18T13:52:05Z</time>
      </trkpt>
      <trkpt lat="42.75887" lon="1.43622">
        <ele>1615.8</ele>
        <time>2017-06-18T13:52:23Z</time>
      </trkpt>
      <trkpt lat="42.75884" lon="1.43636">
        <ele>1616.1</ele>
        <time>2017-06-18T13:52:40Z</time>
      </trkpt>
      <trkpt lat="42.7588" lon="1.43648">
        <ele>1616</ele>
        <time>2017-06-18T13:52:49Z</time>
      </trkpt>
      <trkpt lat="42.75873" lon="1.43658">
        <ele>1616</ele>
        <time>2017-06-18T13:52:59Z</time>
      </trkpt>
      <trkpt lat="42.75867" lon="1.43669">
        <ele>1615.6</ele>
        <time>2017-06-18T13:53:08Z</time>
      </trkpt>
      <trkpt lat="42.7586" lon="1.43681">
        <ele>1615.5</ele>
        <time>2017-06-18T13:53:18Z</time>
      </trkpt>
      <trkpt lat="42.75853" lon="1.43692">
        <ele>1615.5</ele>
        <time>2017-06-18T13:53:30Z</time>
      </trkpt>
      <trkpt lat="42.75843" lon="1.43695">
        <ele>1615.3</ele>
        <time>2017-06-18T13:53:40Z</time>
      </trkpt>
      <trkpt lat="42.75834" lon="1.43702">
        <ele>1615</ele>
        <time>2017-06-18T13:53:49Z</time>
      </trkpt>
      <trkpt lat="42.75828" lon="1.43711">
        <ele>1616</ele>
        <time>2017-06-18T13:54:01Z</time>
      </trkpt>
      <trkpt lat="42.75821" lon="1.4372">
        <ele>1617.1</ele>
        <time>2017-06-18T13:54:12Z</time>
      </trkpt>
      <trkpt lat="42.75817" lon="1.43733">
        <ele>1616.8</ele>
        <time>2017-06-18T13:54:22Z</time>
      </trkpt>
      <trkpt lat="42.75811" lon="1.43742">
        <ele>1616.4</ele>
        <time>2017-06-18T13:54:31Z</time>
      </trkpt>
      <trkpt lat="42.75806" lon="1.43752">
        <ele>1615.6</ele>
        <time>2017-06-18T13:54:39Z</time>
      </trkpt>
      <trkpt lat="42.75803" lon="1.43764">
        <ele>1614.9</ele>
        <time>2017-06-18T13:54:47Z</time>
      </trkpt>
      <trkpt lat="42.75794" lon="1.43768">
        <ele>1614.5</ele>
        <time>2017-06-18T13:54:55Z</time>
      </trkpt>
      <trkpt lat="42.75787" lon="1.43777">
        <ele>1614.2</ele>
        <time>2017-06-18T13:55:03Z</time>
      </trkpt>
      <trkpt lat="42.75779" lon="1.43782">
        <ele>1614</ele>
        <time>2017-06-18T13:55:11Z</time>
      </trkpt>
      <trkpt lat="42.75773" lon="1.43792">
        <ele>1613.6</ele>
        <time>2017-06-18T13:55:19Z</time>
      </trkpt>
      <trkpt lat="42.75766" lon="1.43802">
        <ele>1613.7</ele>
        <time>2017-06-18T13:55:29Z</time>
      </trkpt>
      <trkpt lat="42.75757" lon="1.43811">
        <ele>1613.8</ele>
        <time>2017-06-18T13:55:38Z</time>
      </trkpt>
      <trkpt lat="42.7575" lon="1.43817">
        <ele>1613.7</ele>
        <time>2017-06-18T13:55:46Z</time>
      </trkpt>
      <trkpt lat="42.75745" lon="1.43831">
        <ele>1612.7</ele>
        <time>2017-06-18T13:55:54Z</time>
      </trkpt>
      <trkpt lat="42.75736" lon="1.43835">
        <ele>1612.4</ele>
        <time>2017-06-18T13:56:01Z</time>
      </trkpt>
      <trkpt lat="42.75728" lon="1.43841">
        <ele>1611.9</ele>
        <time>2017-06-18T13:56:09Z</time>
      </trkpt>
      <trkpt lat="42.75722" lon="1.43851">
        <ele>1611.3</ele>
        <time>2017-06-18T13:56:17Z</time>
      </trkpt>
      <trkpt lat="42.75719" lon="1.43862">
        <ele>1610.8</ele>
        <time>2017-06-18T13:56:25Z</time>
      </trkpt>
      <trkpt lat="42.75712" lon="1.43873">
        <ele>1610.5</ele>
        <time>2017-06-18T13:56:34Z</time>
      </trkpt>
      <trkpt lat="42.75708" lon="1.43886">
        <ele>1609.9</ele>
        <time>2017-06-18T13:56:42Z</time>
      </trkpt>
      <trkpt lat="42.75704" lon="1.43896">
        <ele>1609.3</ele>
        <time>2017-06-18T13:56:50Z</time>
      </trkpt>
      <trkpt lat="42.75697" lon="1.43907">
        <ele>1608.8</ele>
        <time>2017-06-18T13:57:00Z</time>
      </trkpt>
      <trkpt lat="42.75691" lon="1.43916">
        <ele>1608.2</ele>
        <time>2017-06-18T13:57:10Z</time>
      </trkpt>
      <trkpt lat="42.75684" lon="1.43926">
        <ele>1608.2</ele>
        <time>2017-06-18T13:57:20Z</time>
      </trkpt>
      <trkpt lat="42.75681" lon="1.43938">
        <ele>1607.6</ele>
        <time>2017-06-18T13:57:30Z</time>
      </trkpt>
      <trkpt lat="42.75675" lon="1.4395">
        <ele>1607.3</ele>
        <time>2017-06-18T13:57:42Z</time>
      </trkpt>
      <trkpt lat="42.75669" lon="1.43959">
        <ele>1607.1</ele>
        <time>2017-06-18T13:57:53Z</time>
      </trkpt>
      <trkpt lat="42.75663" lon="1.43972">
        <ele>1607.8</ele>
        <time>2017-06-18T13:58:08Z</time>
      </trkpt>
      <trkpt lat="42.75655" lon="1.4398">
        <ele>1608.2</ele>
        <time>2017-06-18T13:58:19Z</time>
      </trkpt>
      <trkpt lat="42.75647" lon="1.43989">
        <ele>1608.1</ele>
        <time>2017-06-18T13:58:31Z</time>
      </trkpt>
      <trkpt lat="42.75642" lon="1.44">
        <ele>1607.7</ele>
        <time>2017-06-18T13:58:43Z</time>
      </trkpt>
      <trkpt lat="42.75634" lon="1.4401">
        <ele>1607.4</ele>
        <time>2017-06-18T13:58:54Z</time>
      </trkpt>
      <trkpt lat="42.75626" lon="1.44018">
        <ele>1607.4</ele>
        <time>2017-06-18T13:59:03Z</time>
      </trkpt>
      <trkpt lat="42.75611" lon="1.44061">
        <ele>1605.6</ele>
        <time>2017-06-18T14:01:25Z</time>
      </trkpt>
      <trkpt lat="42.75605" lon="1.44071">
        <ele>1607</ele>
        <time>2017-06-18T14:01:34Z</time>
      </trkpt>
      <trkpt lat="42.75598" lon="1.44078">
        <ele>1607.2</ele>
        <time>2017-06-18T14:01:42Z</time>
      </trkpt>
      <trkpt lat="42.75592" lon="1.44089">
        <ele>1607.4</ele>
        <time>2017-06-18T14:01:51Z</time>
      </trkpt>
      <trkpt lat="42.75586" lon="1.441">
        <ele>1607</ele>
        <time>2017-06-18T14:01:59Z</time>
      </trkpt>
      <trkpt lat="42.75579" lon="1.44108">
        <ele>1606.8</ele>
        <time>2017-06-18T14:02:07Z</time>
      </trkpt>
      <trkpt lat="42.75576" lon="1.4412">
        <ele>1606.6</ele>
        <time>2017-06-18T14:02:15Z</time>
      </trkpt>
      <trkpt lat="42.75572" lon="1.44132">
        <ele>1606</ele>
        <time>2017-06-18T14:02:24Z</time>
      </trkpt>
      <trkpt lat="42.75569" lon="1.44144">
        <ele>1605.4</ele>
        <time>2017-06-18T14:02:33Z</time>
      </trkpt>
      <trkpt lat="42.75567" lon="1.44157">
        <ele>1605.4</ele>
        <time>2017-06-18T14:02:43Z</time>
      </trkpt>
      <trkpt lat="42.75561" lon="1.44166">
        <ele>1606</ele>
        <time>2017-06-18T14:02:53Z</time>
      </trkpt>
      <trkpt lat="42.75558" lon="1.4418">
        <ele>1606.1</ele>
        <time>2017-06-18T14:03:03Z</time>
      </trkpt>
      <trkpt lat="42.75554" lon="1.44193">
        <ele>1605.8</ele>
        <time>2017-06-18T14:03:12Z</time>
      </trkpt>
      <trkpt lat="42.75548" lon="1.44204">
        <ele>1606</ele>
        <time>2017-06-18T14:03:23Z</time>
      </trkpt>
      <trkpt lat="42.75543" lon="1.44213">
        <ele>1606.2</ele>
        <time>2017-06-18T14:03:31Z</time>
      </trkpt>
      <trkpt lat="42.75541" lon="1.44226">
        <ele>1605.6</ele>
        <time>2017-06-18T14:03:39Z</time>
      </trkpt>
      <trkpt lat="42.75541" lon="1.4424">
        <ele>1604.2</ele>
        <time>2017-06-18T14:03:48Z</time>
      </trkpt>
      <trkpt lat="42.75544" lon="1.44252">
        <ele>1603.9</ele>
        <time>2017-06-18T14:03:59Z</time>
      </trkpt>
      <trkpt lat="42.75539" lon="1.44263">
        <ele>1604.6</ele>
        <time>2017-06-18T14:04:08Z</time>
      </trkpt>
      <trkpt lat="42.75532" lon="1.44271">
        <ele>1604.6</ele>
        <time>2017-06-18T14:04:15Z</time>
      </trkpt>
      <trkpt lat="42.75523" lon="1.44278">
        <ele>1604.4</ele>
        <time>2017-06-18T14:04:22Z</time>
      </trkpt>
      <trkpt lat="42.75515" lon="1.44286">
        <ele>1603.9</ele>
        <time>2017-06-18T14:04:29Z</time>
      </trkpt>
      <trkpt lat="42.75507" lon="1.44292">
        <ele>1603.3</ele>
        <time>2017-06-18T14:04:37Z</time>
      </trkpt>
      <trkpt lat="42.75499" lon="1.44299">
        <ele>1602.4</ele>
        <time>2017-06-18T14:04:44Z</time>
      </trkpt>
      <trkpt lat="42.75492" lon="1.44309">
        <ele>1601.5</ele>
        <time>2017-06-18T14:04:50Z</time>
      </trkpt>
      <trkpt lat="42.75486" lon="1.44319">
        <ele>1600.5</ele>
        <time>2017-06-18T14:04:57Z</time>
      </trkpt>
      <trkpt lat="42.75481" lon="1.44329">
        <ele>1599.7</ele>
        <time>2017-06-18T14:05:05Z</time>
      </trkpt>
      <trkpt lat="42.75478" lon="1.44342">
        <ele>1599.1</ele>
        <time>2017-06-18T14:05:13Z</time>
      </trkpt>
      <trkpt lat="42.75473" lon="1.44354">
        <ele>1598.2</ele>
        <time>2017-06-18T14:05:21Z</time>
      </trkpt>
      <trkpt lat="42.7547" lon="1.44367">
        <ele>1597.2</ele>
        <time>2017-06-18T14:05:29Z</time>
      </trkpt>
      <trkpt lat="42.75467" lon="1.44378">
        <ele>1596.8</ele>
        <time>2017-06-18T14:05:35Z</time>
      </trkpt>
      <trkpt lat="42.75465" lon="1.4439">
        <ele>1596.4</ele>
        <time>2017-06-18T14:05:42Z</time>
      </trkpt>
      <trkpt lat="42.75463" lon="1.44402">
        <ele>1595.6</ele>
        <time>2017-06-18T14:05:48Z</time>
      </trkpt>
      <trkpt lat="42.7546" lon="1.44413">
        <ele>1595</ele>
        <time>2017-06-18T14:05:55Z</time>
      </trkpt>
      <trkpt lat="42.75454" lon="1.44423">
        <ele>1594.3</ele>
        <time>2017-06-18T14:06:03Z</time>
      </trkpt>
      <trkpt lat="42.7545" lon="1.44433">
        <ele>1593.8</ele>
        <time>2017-06-18T14:06:11Z</time>
      </trkpt>
      <trkpt lat="42.75446" lon="1.44444">
        <ele>1593.3</ele>
        <time>2017-06-18T14:06:19Z</time>
      </trkpt>
      <trkpt lat="42.7544" lon="1.44455">
        <ele>1592.9</ele>
        <time>2017-06-18T14:06:26Z</time>
      </trkpt>
      <trkpt lat="42.75426" lon="1.44492">
        <ele>1590.9</ele>
        <time>2017-06-18T14:09:00Z</time>
      </trkpt>
      <trkpt lat="42.75421" lon="1.44502">
        <ele>1591.2</ele>
        <time>2017-06-18T14:09:08Z</time>
      </trkpt>
      <trkpt lat="42.75414" lon="1.4451">
        <ele>1591</ele>
        <time>2017-06-18T14:09:16Z</time>
      </trkpt>
      <trkpt lat="42.7541" lon="1.44521">
        <ele>1590.5</ele>
        <time>2017-06-18T14:09:24Z</time>
      </trkpt>
      <trkpt lat="42.75406" lon="1.44531">
        <ele>1589.9</ele>
        <time>2017-06-18T14:09:31Z</time>
      </trkpt>
      <trkpt lat="42.75402" lon="1.44544">
        <ele>1589.5</ele>
        <time>2017-06-18T14:09:40Z</time>
      </trkpt>
      <trkpt lat="42.75402" lon="1.44558">
        <ele>1589.8</ele>
        <time>2017-06-18T14:09:48Z</time>
      </trkpt>
      <trkpt lat="42.75399" lon="1.4457">
        <ele>1590.3</ele>
        <time>2017-06-18T14:09:57Z</time>
      </trkpt>
      <trkpt lat="42.75397" lon="1.44583">
        <ele>1591.7</ele>
        <time>2017-06-18T14:10:07Z</time>
      </trkpt>
      <trkpt lat="42.75393" lon="1.44596">
        <ele>1594.4</ele>
        <time>2017-06-18T14:10:22Z</time>
      </trkpt>
      <trkpt lat="42.75393" lon="1.44609">
        <ele>1596.7</ele>
        <time>2017-06-18T14:10:34Z</time>
      </trkpt>
      <trkpt lat="42.75388" lon="1.4462">
        <ele>1598.5</ele>
        <time>2017-06-18T14:11:01Z</time>
      </trkpt>
      <trkpt lat="42.75387" lon="1.44634">
        <ele>1599.2</ele>
        <time>2017-06-18T14:11:12Z</time>
      </trkpt>
      <trkpt lat="42.75383" lon="1.44647">
        <ele>1598.9</ele>
        <time>2017-06-18T14:11:23Z</time>
      </trkpt>
      <trkpt lat="42.7538" lon="1.44658">
        <ele>1599.1</ele>
        <time>2017-06-18T14:11:31Z</time>
      </trkpt>
      <trkpt lat="42.75379" lon="1.44671">
        <ele>1598.7</ele>
        <time>2017-06-18T14:11:38Z</time>
      </trkpt>
      <trkpt lat="42.75378" lon="1.44684">
        <ele>1597.6</ele>
        <time>2017-06-18T14:11:45Z</time>
      </trkpt>
      <trkpt lat="42.75372" lon="1.44694">
        <ele>1596.6</ele>
        <time>2017-06-18T14:11:52Z</time>
      </trkpt>
      <trkpt lat="42.75367" lon="1.44706">
        <ele>1595</ele>
        <time>2017-06-18T14:12:00Z</time>
      </trkpt>
      <trkpt lat="42.75363" lon="1.44716">
        <ele>1593.2</ele>
        <time>2017-06-18T14:12:07Z</time>
      </trkpt>
      <trkpt lat="42.75359" lon="1.44729">
        <ele>1590.3</ele>
        <time>2017-06-18T14:12:16Z</time>
      </trkpt>
      <trkpt lat="42.75355" lon="1.44739">
        <ele>1588.6</ele>
        <time>2017-06-18T14:12:25Z</time>
      </trkpt>
      <trkpt lat="42.75351" lon="1.44751">
        <ele>1586.6</ele>
        <time>2017-06-18T14:12:34Z</time>
      </trkpt>
      <trkpt lat="42.75348" lon="1.44764">
        <ele>1584.9</ele>
        <time>2017-06-18T14:12:42Z</time>
      </trkpt>
      <trkpt lat="42.75347" lon="1.44777">
        <ele>1582.6</ele>
        <time>2017-06-18T14:12:52Z</time>
      </trkpt>
      <trkpt lat="42.7534" lon="1.44777">
        <ele>1580.2</ele>
        <time>2017-06-18T14:13:03Z</time>
      </trkpt>
      <trkpt lat="42.75336" lon="1.44768">
        <ele>1577.1</ele>
        <time>2017-06-18T14:13:15Z</time>
      </trkpt>
      <trkpt lat="42.75333" lon="1.44779">
        <ele>1574.1</ele>
        <time>2017-06-18T14:13:35Z</time>
      </trkpt>
      <trkpt lat="42.75333" lon="1.44783">
        <ele>1573.7</ele>
        <time>2017-06-18T14:14:00Z</time>
      </trkpt>
      <trkpt lat="42.75327" lon="1.44774">
        <ele>1572</ele>
        <time>2017-06-18T14:14:13Z</time>
      </trkpt>
      <trkpt lat="42.75323" lon="1.44762">
        <ele>1569.6</ele>
        <time>2017-06-18T14:14:24Z</time>
      </trkpt>
      <trkpt lat="42.75322" lon="1.44751">
        <ele>1568.1</ele>
        <time>2017-06-18T14:14:33Z</time>
      </trkpt>
      <trkpt lat="42.75322" lon="1.44739">
        <ele>1566</ele>
        <time>2017-06-18T14:14:44Z</time>
      </trkpt>
      <trkpt lat="42.75321" lon="1.44728">
        <ele>1563.8</ele>
        <time>2017-06-18T14:14:57Z</time>
      </trkpt>
      <trkpt lat="42.75315" lon="1.44721">
        <ele>1562.3</ele>
        <time>2017-06-18T14:15:09Z</time>
      </trkpt>
      <trkpt lat="42.75313" lon="1.44729">
        <ele>1559.3</ele>
        <time>2017-06-18T14:15:25Z</time>
      </trkpt>
      <trkpt lat="42.75311" lon="1.44729">
        <ele>1556.8</ele>
        <time>2017-06-18T14:15:38Z</time>
      </trkpt>
      <trkpt lat="42.75312" lon="1.44743">
        <ele>1553.8</ele>
        <time>2017-06-18T14:15:52Z</time>
      </trkpt>
      <trkpt lat="42.75309" lon="1.44755">
        <ele>1550.2</ele>
        <time>2017-06-18T14:16:09Z</time>
      </trkpt>
      <trkpt lat="42.75306" lon="1.44761">
        <ele>1546.3</ele>
        <time>2017-06-18T14:16:25Z</time>
      </trkpt>
      <trkpt lat="42.75304" lon="1.44774">
        <ele>1543.3</ele>
        <time>2017-06-18T14:16:38Z</time>
      </trkpt>
      <trkpt lat="42.75301" lon="1.44789">
        <ele>1541.1</ele>
        <time>2017-06-18T14:16:49Z</time>
      </trkpt>
      <trkpt lat="42.75295" lon="1.44803">
        <ele>1539.8</ele>
        <time>2017-06-18T14:17:00Z</time>
      </trkpt>
      <trkpt lat="42.75291" lon="1.44817">
        <ele>1538.6</ele>
        <time>2017-06-18T14:17:11Z</time>
      </trkpt>
      <trkpt lat="42.75288" lon="1.44831">
        <ele>1536.8</ele>
        <time>2017-06-18T14:17:22Z</time>
      </trkpt>
      <trkpt lat="42.75287" lon="1.44848">
        <ele>1535.3</ele>
        <time>2017-06-18T14:17:33Z</time>
      </trkpt>
      <trkpt lat="42.75283" lon="1.44862">
        <ele>1534.1</ele>
        <time>2017-06-18T14:17:44Z</time>
      </trkpt>
      <trkpt lat="42.75278" lon="1.44877">
        <ele>1533.1</ele>
        <time>2017-06-18T14:17:57Z</time>
      </trkpt>
      <trkpt lat="42.75271" lon="1.4489">
        <ele>1532.3</ele>
        <time>2017-06-18T14:18:10Z</time>
      </trkpt>
      <trkpt lat="42.75265" lon="1.44906">
        <ele>1530.9</ele>
        <time>2017-06-18T14:18:25Z</time>
      </trkpt>
      <trkpt lat="42.75258" lon="1.44921">
        <ele>1529.4</ele>
        <time>2017-06-18T14:18:37Z</time>
      </trkpt>
      <trkpt lat="42.75249" lon="1.44937">
        <ele>1526.4</ele>
        <time>2017-06-18T14:18:53Z</time>
      </trkpt>
      <trkpt lat="42.75242" lon="1.44953">
        <ele>1524</ele>
        <time>2017-06-18T14:19:06Z</time>
      </trkpt>
      <trkpt lat="42.75235" lon="1.44965">
        <ele>1521.8</ele>
        <time>2017-06-18T14:19:17Z</time>
      </trkpt>
      <trkpt lat="42.75228" lon="1.44979">
        <ele>1518.3</ele>
        <time>2017-06-18T14:19:29Z</time>
      </trkpt>
      <trkpt lat="42.7522" lon="1.44992">
        <ele>1515.1</ele>
        <time>2017-06-18T14:19:41Z</time>
      </trkpt>
      <trkpt lat="42.75215" lon="1.45006">
        <ele>1511.9</ele>
        <time>2017-06-18T14:19:53Z</time>
      </trkpt>
      <trkpt lat="42.75204" lon="1.45018">
        <ele>1508.6</ele>
        <time>2017-06-18T14:20:07Z</time>
      </trkpt>
      <trkpt lat="42.75201" lon="1.4502">
        <ele>1504.8</ele>
        <time>2017-06-18T14:20:24Z</time>
      </trkpt>
      <trkpt lat="42.75178" lon="1.45015">
        <ele>1501.5</ele>
        <time>2017-06-18T14:20:39Z</time>
      </trkpt>
      <trkpt lat="42.75167" lon="1.4502">
        <ele>1496.9</ele>
        <time>2017-06-18T14:20:56Z</time>
      </trkpt>
      <trkpt lat="42.75162" lon="1.45034">
        <ele>1493.5</ele>
        <time>2017-06-18T14:21:08Z</time>
      </trkpt>
      <trkpt lat="42.75155" lon="1.45044">
        <ele>1491.7</ele>
        <time>2017-06-18T14:21:17Z</time>
      </trkpt>
      <trkpt lat="42.75148" lon="1.45054">
        <ele>1490.2</ele>
        <time>2017-06-18T14:21:26Z</time>
      </trkpt>
      <trkpt lat="42.7514" lon="1.45065">
        <ele>1488.6</ele>
        <time>2017-06-18T14:21:38Z</time>
      </trkpt>
      <trkpt lat="42.75132" lon="1.45074">
        <ele>1485.9</ele>
        <time>2017-06-18T14:21:52Z</time>
      </trkpt>
      <trkpt lat="42.75124" lon="1.45081">
        <ele>1481.9</ele>
        <time>2017-06-18T14:22:07Z</time>
      </trkpt>
      <trkpt lat="42.75128" lon="1.45091">
        <ele>1479.3</ele>
        <time>2017-06-18T14:25:23Z</time>
      </trkpt>
      <trkpt lat="42.75122" lon="1.45093">
        <ele>1477.5</ele>
        <time>2017-06-18T14:25:35Z</time>
      </trkpt>
      <trkpt lat="42.75118" lon="1.45095">
        <ele>1474.3</ele>
        <time>2017-06-18T14:25:46Z</time>
      </trkpt>
      <trkpt lat="42.75112" lon="1.45107">
        <ele>1472.7</ele>
        <time>2017-06-18T14:25:56Z</time>
      </trkpt>
      <trkpt lat="42.75111" lon="1.45097">
        <ele>1471</ele>
        <time>2017-06-18T14:26:05Z</time>
      </trkpt>
      <trkpt lat="42.75108" lon="1.4509">
        <ele>1468.5</ele>
        <time>2017-06-18T14:26:15Z</time>
      </trkpt>
      <trkpt lat="42.75101" lon="1.451">
        <ele>1466.2</ele>
        <time>2017-06-18T14:26:25Z</time>
      </trkpt>
      <trkpt lat="42.75094" lon="1.45108">
        <ele>1464.2</ele>
        <time>2017-06-18T14:26:33Z</time>
      </trkpt>
      <trkpt lat="42.75086" lon="1.45115">
        <ele>1461.6</ele>
        <time>2017-06-18T14:26:40Z</time>
      </trkpt>
      <trkpt lat="42.75084" lon="1.45126">
        <ele>1459</ele>
        <time>2017-06-18T14:26:48Z</time>
      </trkpt>
      <trkpt lat="42.75081" lon="1.45137">
        <ele>1456.9</ele>
        <time>2017-06-18T14:26:56Z</time>
      </trkpt>
      <trkpt lat="42.75075" lon="1.45148">
        <ele>1453.4</ele>
        <time>2017-06-18T14:27:08Z</time>
      </trkpt>
      <trkpt lat="42.75072" lon="1.45144">
        <ele>1449.4</ele>
        <time>2017-06-18T14:27:22Z</time>
      </trkpt>
      <trkpt lat="42.75068" lon="1.45154">
        <ele>1447.3</ele>
        <time>2017-06-18T14:27:32Z</time>
      </trkpt>
      <trkpt lat="42.75064" lon="1.45141">
        <ele>1445.2</ele>
        <time>2017-06-18T14:27:41Z</time>
      </trkpt>
      <trkpt lat="42.75061" lon="1.45128">
        <ele>1442.1</ele>
        <time>2017-06-18T14:27:50Z</time>
      </trkpt>
      <trkpt lat="42.75063" lon="1.45112">
        <ele>1438.6</ele>
        <time>2017-06-18T14:28:02Z</time>
      </trkpt>
      <trkpt lat="42.75057" lon="1.45109">
        <ele>1435.5</ele>
        <time>2017-06-18T14:28:14Z</time>
      </trkpt>
      <trkpt lat="42.75057" lon="1.45095">
        <ele>1432.3</ele>
        <time>2017-06-18T14:28:25Z</time>
      </trkpt>
      <trkpt lat="42.7505" lon="1.45103">
        <ele>1429.7</ele>
        <time>2017-06-18T14:28:37Z</time>
      </trkpt>
      <trkpt lat="42.75045" lon="1.45117">
        <ele>1426.6</ele>
        <time>2017-06-18T14:28:49Z</time>
      </trkpt>
      <trkpt lat="42.75038" lon="1.45128">
        <ele>1424.1</ele>
        <time>2017-06-18T14:28:59Z</time>
      </trkpt>
      <trkpt lat="42.75034" lon="1.45129">
        <ele>1420.6</ele>
        <time>2017-06-18T14:29:11Z</time>
      </trkpt>
      <trkpt lat="42.75029" lon="1.45114">
        <ele>1417.8</ele>
        <time>2017-06-18T14:29:23Z</time>
      </trkpt>
      <trkpt lat="42.75023" lon="1.45111">
        <ele>1414.2</ele>
        <time>2017-06-18T14:29:34Z</time>
      </trkpt>
      <trkpt lat="42.75015" lon="1.45121">
        <ele>1410.4</ele>
        <time>2017-06-18T14:29:47Z</time>
      </trkpt>
      <trkpt lat="42.75005" lon="1.45119">
        <ele>1405.8</ele>
        <time>2017-06-18T14:30:02Z</time>
      </trkpt>
      <trkpt lat="42.74997" lon="1.45129">
        <ele>1402.7</ele>
        <time>2017-06-18T14:30:17Z</time>
      </trkpt>
      <trkpt lat="42.74987" lon="1.45126">
        <ele>1399.7</ele>
        <time>2017-06-18T14:30:28Z</time>
      </trkpt>
      <trkpt lat="42.7498" lon="1.45136">
        <ele>1396.6</ele>
        <time>2017-06-18T14:30:39Z</time>
      </trkpt>
      <trkpt lat="42.74974" lon="1.45126">
        <ele>1393.4</ele>
        <time>2017-06-18T14:30:49Z</time>
      </trkpt>
      <trkpt lat="42.74978" lon="1.45114">
        <ele>1390.3</ele>
        <time>2017-06-18T14:31:00Z</time>
      </trkpt>
      <trkpt lat="42.74972" lon="1.45114">
        <ele>1387.4</ele>
        <time>2017-06-18T14:31:13Z</time>
      </trkpt>
      <trkpt lat="42.74964" lon="1.45112">
        <ele>1383.7</ele>
        <time>2017-06-18T14:31:25Z</time>
      </trkpt>
      <trkpt lat="42.74958" lon="1.45113">
        <ele>1380.1</ele>
        <time>2017-06-18T14:31:41Z</time>
      </trkpt>
      <trkpt lat="42.7495" lon="1.45122">
        <ele>1377.3</ele>
        <time>2017-06-18T14:31:52Z</time>
      </trkpt>
      <trkpt lat="42.74942" lon="1.45132">
        <ele>1374.1</ele>
        <time>2017-06-18T14:32:03Z</time>
      </trkpt>
      <trkpt lat="42.74942" lon="1.45146">
        <ele>1372</ele>
        <time>2017-06-18T14:32:31Z</time>
      </trkpt>
      <trkpt lat="42.74941" lon="1.45163">
        <ele>1369.1</ele>
        <time>2017-06-18T14:32:44Z</time>
      </trkpt>
      <trkpt lat="42.74941" lon="1.45177">
        <ele>1367.5</ele>
        <time>2017-06-18T14:32:57Z</time>
      </trkpt>
      <trkpt lat="42.74933" lon="1.45185">
        <ele>1365</ele>
        <time>2017-06-18T14:33:09Z</time>
      </trkpt>
      <trkpt lat="42.74927" lon="1.45199">
        <ele>1362.2</ele>
        <time>2017-06-18T14:33:22Z</time>
      </trkpt>
      <trkpt lat="42.74917" lon="1.45209">
        <ele>1358.2</ele>
        <time>2017-06-18T14:33:35Z</time>
      </trkpt>
      <trkpt lat="42.74909" lon="1.45202">
        <ele>1354.4</ele>
        <time>2017-06-18T14:33:50Z</time>
      </trkpt>
      <trkpt lat="42.74901" lon="1.45198">
        <ele>1352.1</ele>
        <time>2017-06-18T14:34:02Z</time>
      </trkpt>
      <trkpt lat="42.74896" lon="1.45213">
        <ele>1349.7</ele>
        <time>2017-06-18T14:34:14Z</time>
      </trkpt>
      <trkpt lat="42.74895" lon="1.45226">
        <ele>1346.7</ele>
        <time>2017-06-18T14:34:28Z</time>
      </trkpt>
      <trkpt lat="42.74896" lon="1.45244">
        <ele>1342.9</ele>
        <time>2017-06-18T14:34:46Z</time>
      </trkpt>
      <trkpt lat="42.74894" lon="1.4526">
        <ele>1339.6</ele>
        <time>2017-06-18T14:35:01Z</time>
      </trkpt>
      <trkpt lat="42.74882" lon="1.45262">
        <ele>1336.4</ele>
        <time>2017-06-18T14:35:15Z</time>
      </trkpt>
      <trkpt lat="42.74872" lon="1.45261">
        <ele>1332.4</ele>
        <time>2017-06-18T14:35:31Z</time>
      </trkpt>
      <trkpt lat="42.74871" lon="1.45279">
        <ele>1330.6</ele>
        <time>2017-06-18T14:35:45Z</time>
      </trkpt>
      <trkpt lat="42.74869" lon="1.45293">
        <ele>1327.8</ele>
        <time>2017-06-18T14:35:59Z</time>
      </trkpt>
      <trkpt lat="42.74863" lon="1.45306">
        <ele>1324.9</ele>
        <time>2017-06-18T14:36:17Z</time>
      </trkpt>
      <trkpt lat="42.74854" lon="1.45312">
        <ele>1320.9</ele>
        <time>2017-06-18T14:36:37Z</time>
      </trkpt>
      <trkpt lat="42.74847" lon="1.45302">
        <ele>1317.9</ele>
        <time>2017-06-18T14:36:50Z</time>
      </trkpt>
      <trkpt lat="42.74838" lon="1.45295">
        <ele>1314.9</ele>
        <time>2017-06-18T14:37:04Z</time>
      </trkpt>
      <trkpt lat="42.74829" lon="1.45295">
        <ele>1312.2</ele>
        <time>2017-06-18T14:37:15Z</time>
      </trkpt>
      <trkpt lat="42.74827" lon="1.45286">
        <ele>1308.4</ele>
        <time>2017-06-18T14:37:30Z</time>
      </trkpt>
      <trkpt lat="42.74821" lon="1.45281">
        <ele>1304.4</ele>
        <time>2017-06-18T14:37:45Z</time>
      </trkpt>
      <trkpt lat="42.74823" lon="1.45268">
        <ele>1301.9</ele>
        <time>2017-06-18T14:37:57Z</time>
      </trkpt>
      <trkpt lat="42.74814" lon="1.45278">
        <ele>1297.8</ele>
        <time>2017-06-18T14:38:13Z</time>
      </trkpt>
      <trkpt lat="42.74814" lon="1.45295">
        <ele>1294.4</ele>
        <time>2017-06-18T14:38:27Z</time>
      </trkpt>
      <trkpt lat="42.74811" lon="1.4531">
        <ele>1292.8</ele>
        <time>2017-06-18T14:38:38Z</time>
      </trkpt>
      <trkpt lat="42.74812" lon="1.45324">
        <ele>1290.5</ele>
        <time>2017-06-18T14:38:51Z</time>
      </trkpt>
      <trkpt lat="42.74813" lon="1.45339">
        <ele>1287.9</ele>
        <time>2017-06-18T14:39:06Z</time>
      </trkpt>
      <trkpt lat="42.74815" lon="1.45354">
        <ele>1285.2</ele>
        <time>2017-06-18T14:39:19Z</time>
      </trkpt>
      <trkpt lat="42.74816" lon="1.45368">
        <ele>1281.4</ele>
        <time>2017-06-18T14:39:33Z</time>
      </trkpt>
      <trkpt lat="42.7482" lon="1.45383">
        <ele>1278.2</ele>
        <time>2017-06-18T14:39:44Z</time>
      </trkpt>
      <trkpt lat="42.74817" lon="1.45399">
        <ele>1274.1</ele>
        <time>2017-06-18T14:40:00Z</time>
      </trkpt>
      <trkpt lat="42.7481" lon="1.45398">
        <ele>1269.2</ele>
        <time>2017-06-18T14:40:19Z</time>
      </trkpt>
      <trkpt lat="42.748" lon="1.45406">
        <ele>1264.4</ele>
        <time>2017-06-18T14:40:38Z</time>
      </trkpt>
      <trkpt lat="42.74791" lon="1.45413">
        <ele>1260.5</ele>
        <time>2017-06-18T14:40:56Z</time>
      </trkpt>
      <trkpt lat="42.74779" lon="1.45411">
        <ele>1257</ele>
        <time>2017-06-18T14:41:12Z</time>
      </trkpt>
      <trkpt lat="42.74773" lon="1.45421">
        <ele>1252.8</ele>
        <time>2017-06-18T14:41:31Z</time>
      </trkpt>
      <trkpt lat="42.74762" lon="1.45418">
        <ele>1249.7</ele>
        <time>2017-06-18T14:41:46Z</time>
      </trkpt>
      <trkpt lat="42.74752" lon="1.45423">
        <ele>1245.5</ele>
        <time>2017-06-18T14:42:04Z</time>
      </trkpt>
      <trkpt lat="42.74739" lon="1.45425">
        <ele>1242.9</ele>
        <time>2017-06-18T14:42:15Z</time>
      </trkpt>
      <trkpt lat="42.74737" lon="1.45436">
        <ele>1240</ele>
        <time>2017-06-18T14:42:28Z</time>
      </trkpt>
      <trkpt lat="42.74733" lon="1.4545">
        <ele>1236.4</ele>
        <time>2017-06-18T14:42:45Z</time>
      </trkpt>
      <trkpt lat="42.74734" lon="1.45466">
        <ele>1234.7</ele>
        <time>2017-06-18T14:42:58Z</time>
      </trkpt>
      <trkpt lat="42.74738" lon="1.45479">
        <ele>1231.5</ele>
        <time>2017-06-18T14:43:14Z</time>
      </trkpt>
      <trkpt lat="42.74728" lon="1.45481">
        <ele>1227.9</ele>
        <time>2017-06-18T14:43:29Z</time>
      </trkpt>
      <trkpt lat="42.74716" lon="1.45478">
        <ele>1224.9</ele>
        <time>2017-06-18T14:43:42Z</time>
      </trkpt>
      <trkpt lat="42.74712" lon="1.45492">
        <ele>1221.5</ele>
        <time>2017-06-18T14:43:56Z</time>
      </trkpt>
      <trkpt lat="42.74707" lon="1.45504">
        <ele>1217.6</ele>
        <time>2017-06-18T14:44:11Z</time>
      </trkpt>
      <trkpt lat="42.74696" lon="1.4551">
        <ele>1214.8</ele>
        <time>2017-06-18T14:44:25Z</time>
      </trkpt>
      <trkpt lat="42.74692" lon="1.45516">
        <ele>1212.3</ele>
        <time>2017-06-18T14:44:38Z</time>
      </trkpt>
      <trkpt lat="42.74691" lon="1.45528">
        <ele>1209.5</ele>
        <time>2017-06-18T14:44:50Z</time>
      </trkpt>
      <trkpt lat="42.74694" lon="1.4554">
        <ele>1207.1</ele>
        <time>2017-06-18T14:45:00Z</time>
      </trkpt>
      <trkpt lat="42.74686" lon="1.45546">
        <ele>1202.7</ele>
        <time>2017-06-18T14:45:16Z</time>
      </trkpt>
      <trkpt lat="42.74681" lon="1.45553">
        <ele>1199.6</ele>
        <time>2017-06-18T14:45:33Z</time>
      </trkpt>
      <trkpt lat="42.74674" lon="1.45559">
        <ele>1195.2</ele>
        <time>2017-06-18T14:45:50Z</time>
      </trkpt>
      <trkpt lat="42.74663" lon="1.45564">
        <ele>1191.9</ele>
        <time>2017-06-18T14:46:02Z</time>
      </trkpt>
      <trkpt lat="42.74667" lon="1.45578">
        <ele>1189.5</ele>
        <time>2017-06-18T14:46:13Z</time>
      </trkpt>
      <trkpt lat="42.74657" lon="1.4558">
        <ele>1186.7</ele>
        <time>2017-06-18T14:46:25Z</time>
      </trkpt>
      <trkpt lat="42.74648" lon="1.45577">
        <ele>1184.6</ele>
        <time>2017-06-18T14:46:34Z</time>
      </trkpt>
      <trkpt lat="42.7465" lon="1.45589">
        <ele>1181.9</ele>
        <time>2017-06-18T14:46:47Z</time>
      </trkpt>
      <trkpt lat="42.74647" lon="1.45598">
        <ele>1178.3</ele>
        <time>2017-06-18T14:46:57Z</time>
      </trkpt>
      <trkpt lat="42.74641" lon="1.45595">
        <ele>1175.9</ele>
        <time>2017-06-18T14:47:24Z</time>
      </trkpt>
      <trkpt lat="42.74634" lon="1.4558">
        <ele>1176.4</ele>
        <time>2017-06-18T14:47:35Z</time>
      </trkpt>
      <trkpt lat="42.74628" lon="1.45565">
        <ele>1176.9</ele>
        <time>2017-06-18T14:47:44Z</time>
      </trkpt>
      <trkpt lat="42.74626" lon="1.45552">
        <ele>1177</ele>
        <time>2017-06-18T14:47:55Z</time>
      </trkpt>
      <trkpt lat="42.74626" lon="1.45539">
        <ele>1176.9</ele>
        <time>2017-06-18T14:48:06Z</time>
      </trkpt>
      <trkpt lat="42.7462" lon="1.45528">
        <ele>1176.3</ele>
        <time>2017-06-18T14:48:18Z</time>
      </trkpt>
      <trkpt lat="42.74619" lon="1.45522">
        <ele>1176.5</ele>
        <time>2017-06-18T14:48:34Z</time>
      </trkpt>
      <trkpt lat="42.74619" lon="1.45517">
        <ele>1176.1</ele>
        <time>2017-06-18T14:50:43Z</time>
      </trkpt>
      <trkpt lat="42.74626" lon="1.45501">
        <ele>1175</ele>
        <time>2017-06-18T14:50:58Z</time>
      </trkpt>
      <trkpt lat="42.74636" lon="1.45491">
        <ele>1174.8</ele>
        <time>2017-06-18T14:51:08Z</time>
      </trkpt>
      <trkpt lat="42.7463" lon="1.45476">
        <ele>1174.2</ele>
        <time>2017-06-18T14:51:20Z</time>
      </trkpt>
      <trkpt lat="42.74617" lon="1.45461">
        <ele>1175.4</ele>
        <time>2017-06-18T14:51:36Z</time>
      </trkpt>
      <trkpt lat="42.74612" lon="1.45451">
        <ele>1174.2</ele>
        <time>2017-06-18T14:51:57Z</time>
      </trkpt>
      <trkpt lat="42.74599" lon="1.45451">
        <ele>1174.1</ele>
        <time>2017-06-18T14:52:07Z</time>
      </trkpt>
      <trkpt lat="42.74593" lon="1.45461">
        <ele>1173.5</ele>
        <time>2017-06-18T14:52:16Z</time>
      </trkpt>
      <trkpt lat="42.74584" lon="1.45466">
        <ele>1173</ele>
        <time>2017-06-18T14:52:27Z</time>
      </trkpt>
      <trkpt lat="42.74573" lon="1.4547">
        <ele>1173</ele>
        <time>2017-06-18T14:52:42Z</time>
      </trkpt>
      <trkpt lat="42.74562" lon="1.45471">
        <ele>1173</ele>
        <time>2017-06-18T14:52:51Z</time>
      </trkpt>
      <trkpt lat="42.74551" lon="1.45472">
        <ele>1172.7</ele>
        <time>2017-06-18T14:53:01Z</time>
      </trkpt>
      <trkpt lat="42.74541" lon="1.45471">
        <ele>1172.6</ele>
        <time>2017-06-18T14:53:11Z</time>
      </trkpt>
      <trkpt lat="42.74529" lon="1.45472">
        <ele>1172.4</ele>
        <time>2017-06-18T14:53:22Z</time>
      </trkpt>
      <trkpt lat="42.74519" lon="1.45473">
        <ele>1172.2</ele>
        <time>2017-06-18T14:53:32Z</time>
      </trkpt>
      <trkpt lat="42.7451" lon="1.45481">
        <ele>1171.9</ele>
        <time>2017-06-18T14:53:44Z</time>
      </trkpt>
      <trkpt lat="42.74501" lon="1.45484">
        <ele>1171.8</ele>
        <time>2017-06-18T14:53:56Z</time>
      </trkpt>
      <trkpt lat="42.74491" lon="1.45485">
        <ele>1171.8</ele>
        <time>2017-06-18T14:54:05Z</time>
      </trkpt>
      <trkpt lat="42.74482" lon="1.4549">
        <ele>1171.7</ele>
        <time>2017-06-18T14:54:17Z</time>
      </trkpt>
      <trkpt lat="42.74471" lon="1.45496">
        <ele>1171.8</ele>
        <time>2017-06-18T14:54:27Z</time>
      </trkpt>
      <trkpt lat="42.74459" lon="1.455">
        <ele>1172</ele>
        <time>2017-06-18T14:54:39Z</time>
      </trkpt>
      <trkpt lat="42.74448" lon="1.45504">
        <ele>1172.5</ele>
        <time>2017-06-18T14:54:51Z</time>
      </trkpt>
      <trkpt lat="42.74438" lon="1.45509">
        <ele>1172.7</ele>
        <time>2017-06-18T14:55:00Z</time>
      </trkpt>
      <trkpt lat="42.74429" lon="1.45515">
        <ele>1172.8</ele>
        <time>2017-06-18T14:55:08Z</time>
      </trkpt>
      <trkpt lat="42.74419" lon="1.45521">
        <ele>1172.7</ele>
        <time>2017-06-18T14:55:19Z</time>
      </trkpt>
      <trkpt lat="42.74412" lon="1.45533">
        <ele>1172.8</ele>
        <time>2017-06-18T14:55:28Z</time>
      </trkpt>
      <trkpt lat="42.74401" lon="1.45539">
        <ele>1172.8</ele>
        <time>2017-06-18T14:55:36Z</time>
      </trkpt>
      <trkpt lat="42.74392" lon="1.45545">
        <ele>1172.6</ele>
        <time>2017-06-18T14:55:45Z</time>
      </trkpt>
      <trkpt lat="42.7438" lon="1.45548">
        <ele>1172.3</ele>
        <time>2017-06-18T14:55:55Z</time>
      </trkpt>
      <trkpt lat="42.7437" lon="1.4555">
        <ele>1172.4</ele>
        <time>2017-06-18T14:56:03Z</time>
      </trkpt>
      <trkpt lat="42.7436" lon="1.45556">
        <ele>1172.3</ele>
        <time>2017-06-18T14:56:13Z</time>
      </trkpt>
      <trkpt lat="42.7435" lon="1.45564">
        <ele>1172.2</ele>
        <time>2017-06-18T14:56:23Z</time>
      </trkpt>
      <trkpt lat="42.7434" lon="1.45576">
        <ele>1172.2</ele>
        <time>2017-06-18T14:56:34Z</time>
      </trkpt>
      <trkpt lat="42.74332" lon="1.45585">
        <ele>1172.2</ele>
        <time>2017-06-18T14:56:43Z</time>
      </trkpt>
      <trkpt lat="42.74323" lon="1.45594">
        <ele>1172.2</ele>
        <time>2017-06-18T14:56:53Z</time>
      </trkpt>
      <trkpt lat="42.74315" lon="1.45604">
        <ele>1172.6</ele>
        <time>2017-06-18T14:57:02Z</time>
      </trkpt>
      <trkpt lat="42.74306" lon="1.4561">
        <ele>1172.7</ele>
        <time>2017-06-18T14:57:11Z</time>
      </trkpt>
      <trkpt lat="42.74298" lon="1.45619">
        <ele>1172.8</ele>
        <time>2017-06-18T14:57:20Z</time>
      </trkpt>
      <trkpt lat="42.74289" lon="1.45626">
        <ele>1173.2</ele>
        <time>2017-06-18T14:57:29Z</time>
      </trkpt>
      <trkpt lat="42.74279" lon="1.45632">
        <ele>1173.4</ele>
        <time>2017-06-18T14:57:39Z</time>
      </trkpt>
      <trkpt lat="42.7427" lon="1.45642">
        <ele>1173.6</ele>
        <time>2017-06-18T14:57:48Z</time>
      </trkpt>
      <trkpt lat="42.74259" lon="1.45645">
        <ele>1173.7</ele>
        <time>2017-06-18T14:57:56Z</time>
      </trkpt>
      <trkpt lat="42.74248" lon="1.45645">
        <ele>1174.1</ele>
        <time>2017-06-18T14:58:05Z</time>
      </trkpt>
      <trkpt lat="42.74238" lon="1.45648">
        <ele>1174.2</ele>
        <time>2017-06-18T14:58:13Z</time>
      </trkpt>
      <trkpt lat="42.74228" lon="1.45644">
        <ele>1174.4</ele>
        <time>2017-06-18T14:58:22Z</time>
      </trkpt>
      <trkpt lat="42.74217" lon="1.45635">
        <ele>1174.2</ele>
        <time>2017-06-18T14:58:31Z</time>
      </trkpt>
      <trkpt lat="42.74208" lon="1.45629">
        <ele>1174.2</ele>
        <time>2017-06-18T14:58:39Z</time>
      </trkpt>
      <trkpt lat="42.74199" lon="1.45623">
        <ele>1174.2</ele>
        <time>2017-06-18T14:58:47Z</time>
      </trkpt>
      <trkpt lat="42.74191" lon="1.45616">
        <ele>1174.2</ele>
        <time>2017-06-18T14:58:55Z</time>
      </trkpt>
      <trkpt lat="42.74184" lon="1.45607">
        <ele>1174.1</ele>
        <time>2017-06-18T14:59:04Z</time>
      </trkpt>
      <trkpt lat="42.74177" lon="1.45595">
        <ele>1174</ele>
        <time>2017-06-18T14:59:13Z</time>
      </trkpt>
      <trkpt lat="42.7417" lon="1.45584">
        <ele>1173.5</ele>
        <time>2017-06-18T14:59:24Z</time>
      </trkpt>
      <trkpt lat="42.74164" lon="1.45573">
        <ele>1173.4</ele>
        <time>2017-06-18T14:59:34Z</time>
      </trkpt>
      <trkpt lat="42.74162" lon="1.45555">
        <ele>1173.2</ele>
        <time>2017-06-18T14:59:44Z</time>
      </trkpt>
      <trkpt lat="42.74163" lon="1.4554">
        <ele>1173.5</ele>
        <time>2017-06-18T14:59:52Z</time>
      </trkpt>
      <trkpt lat="42.74165" lon="1.45524">
        <ele>1173.9</ele>
        <time>2017-06-18T15:00:02Z</time>
      </trkpt>
      <trkpt lat="42.74161" lon="1.45509">
        <ele>1174.3</ele>
        <time>2017-06-18T15:00:23Z</time>
      </trkpt>
      <trkpt lat="42.74159" lon="1.45502">
        <ele>1173.8</ele>
        <time>2017-06-18T15:01:02Z</time>
      </trkpt>
      <trkpt lat="42.74151" lon="1.45508">
        <ele>1168.9</ele>
        <time>2017-06-18T15:01:21Z</time>
      </trkpt>
      <trkpt lat="42.74144" lon="1.4551">
        <ele>1164.5</ele>
        <time>2017-06-18T15:01:36Z</time>
      </trkpt>
      <trkpt lat="42.74133" lon="1.45505">
        <ele>1160.3</ele>
        <time>2017-06-18T15:01:53Z</time>
      </trkpt>
      <trkpt lat="42.74126" lon="1.4551">
        <ele>1156.5</ele>
        <time>2017-06-18T15:02:09Z</time>
      </trkpt>
      <trkpt lat="42.74125" lon="1.4552">
        <ele>1152.6</ele>
        <time>2017-06-18T15:02:25Z</time>
      </trkpt>
      <trkpt lat="42.74115" lon="1.45517">
        <ele>1148.8</ele>
        <time>2017-06-18T15:02:41Z</time>
      </trkpt>
      <trkpt lat="42.74111" lon="1.45525">
        <ele>1145</ele>
        <time>2017-06-18T15:02:58Z</time>
      </trkpt>
      <trkpt lat="42.74115" lon="1.45536">
        <ele>1142.2</ele>
        <time>2017-06-18T15:03:10Z</time>
      </trkpt>
      <trkpt lat="42.74102" lon="1.45537">
        <ele>1138.4</ele>
        <time>2017-06-18T15:03:24Z</time>
      </trkpt>
      <trkpt lat="42.74091" lon="1.45533">
        <ele>1135.3</ele>
        <time>2017-06-18T15:03:36Z</time>
      </trkpt>
      <trkpt lat="42.74092" lon="1.45545">
        <ele>1131.8</ele>
        <time>2017-06-18T15:03:48Z</time>
      </trkpt>
      <trkpt lat="42.74086" lon="1.45548">
        <ele>1128.3</ele>
        <time>2017-06-18T15:04:02Z</time>
      </trkpt>
      <trkpt lat="42.74074" lon="1.45543">
        <ele>1124.8</ele>
        <time>2017-06-18T15:04:13Z</time>
      </trkpt>
      <trkpt lat="42.7407" lon="1.45543">
        <ele>1122.1</ele>
        <time>2017-06-18T15:04:26Z</time>
      </trkpt>
      <trkpt lat="42.74074" lon="1.45555">
        <ele>1119.8</ele>
        <time>2017-06-18T15:04:36Z</time>
      </trkpt>
      <trkpt lat="42.74079" lon="1.45567">
        <ele>1117.1</ele>
        <time>2017-06-18T15:04:46Z</time>
      </trkpt>
      <trkpt lat="42.74082" lon="1.45576">
        <ele>1113.2</ele>
        <time>2017-06-18T15:04:59Z</time>
      </trkpt>
      <trkpt lat="42.74069" lon="1.45575">
        <ele>1108.7</ele>
        <time>2017-06-18T15:05:14Z</time>
      </trkpt>
      <trkpt lat="42.74057" lon="1.45572">
        <ele>1105.7</ele>
        <time>2017-06-18T15:05:26Z</time>
      </trkpt>
      <trkpt lat="42.74057" lon="1.45582">
        <ele>1102.7</ele>
        <time>2017-06-18T15:05:39Z</time>
      </trkpt>
      <trkpt lat="42.74064" lon="1.45592">
        <ele>1098</ele>
        <time>2017-06-18T15:05:54Z</time>
      </trkpt>
      <trkpt lat="42.74052" lon="1.45593">
        <ele>1094.8</ele>
        <time>2017-06-18T15:06:07Z</time>
      </trkpt>
      <trkpt lat="42.74042" lon="1.45591">
        <ele>1092</ele>
        <time>2017-06-18T15:06:20Z</time>
      </trkpt>
      <trkpt lat="42.74046" lon="1.45603">
        <ele>1089.3</ele>
        <time>2017-06-18T15:06:32Z</time>
      </trkpt>
      <trkpt lat="42.74043" lon="1.45607">
        <ele>1086.3</ele>
        <time>2017-06-18T15:06:48Z</time>
      </trkpt>
      <trkpt lat="42.74032" lon="1.45606">
        <ele>1083.4</ele>
        <time>2017-06-18T15:07:01Z</time>
      </trkpt>
      <trkpt lat="42.74026" lon="1.45614">
        <ele>1079.1</ele>
        <time>2017-06-18T15:07:20Z</time>
      </trkpt>
      <trkpt lat="42.74029" lon="1.45629">
        <ele>1075.4</ele>
        <time>2017-06-18T15:07:34Z</time>
      </trkpt>
      <trkpt lat="42.74025" lon="1.45639">
        <ele>1073.2</ele>
        <time>2017-06-18T15:07:47Z</time>
      </trkpt>
      <trkpt lat="42.74016" lon="1.45636">
        <ele>1069.2</ele>
        <time>2017-06-18T15:08:01Z</time>
      </trkpt>
      <trkpt lat="42.74008" lon="1.45625">
        <ele>1065.3</ele>
        <time>2017-06-18T15:08:16Z</time>
      </trkpt>
      <trkpt lat="42.74005" lon="1.45635">
        <ele>1061.6</ele>
        <time>2017-06-18T15:08:32Z</time>
      </trkpt>
      <trkpt lat="42.74004" lon="1.45644">
        <ele>1057.7</ele>
        <time>2017-06-18T15:08:44Z</time>
      </trkpt>
      <trkpt lat="42.73991" lon="1.4564">
        <ele>1052.7</ele>
        <time>2017-06-18T15:09:01Z</time>
      </trkpt>
      <trkpt lat="42.73988" lon="1.45656">
        <ele>1048.2</ele>
        <time>2017-06-18T15:09:17Z</time>
      </trkpt>
      <trkpt lat="42.73992" lon="1.45669">
        <ele>1045.9</ele>
        <time>2017-06-18T15:09:26Z</time>
      </trkpt>
      <trkpt lat="42.73999" lon="1.45681">
        <ele>1042.6</ele>
        <time>2017-06-18T15:09:38Z</time>
      </trkpt>
      <trkpt lat="42.74007" lon="1.45692">
        <ele>1039.9</ele>
        <time>2017-06-18T15:09:50Z</time>
      </trkpt>
      <trkpt lat="42.74012" lon="1.45695">
        <ele>1037.8</ele>
        <time>2017-06-18T15:10:16Z</time>
      </trkpt>
      <trkpt lat="42.74019" lon="1.45707">
        <ele>1036.6</ele>
        <time>2017-06-18T15:10:32Z</time>
      </trkpt>
      <trkpt lat="42.74007" lon="1.45709">
        <ele>1033.7</ele>
        <time>2017-06-18T15:10:44Z</time>
      </trkpt>
      <trkpt lat="42.73997" lon="1.45712">
        <ele>1031.1</ele>
        <time>2017-06-18T15:10:54Z</time>
      </trkpt>
      <trkpt lat="42.73985" lon="1.45712">
        <ele>1028.5</ele>
        <time>2017-06-18T15:11:08Z</time>
      </trkpt>
      <trkpt lat="42.73975" lon="1.45705">
        <ele>1025.3</ele>
        <time>2017-06-18T15:11:25Z</time>
      </trkpt>
      <trkpt lat="42.73962" lon="1.45704">
        <ele>1022.1</ele>
        <time>2017-06-18T15:11:37Z</time>
      </trkpt>
      <trkpt lat="42.7395" lon="1.457">
        <ele>1019.1</ele>
        <time>2017-06-18T15:11:48Z</time>
      </trkpt>
      <trkpt lat="42.73948" lon="1.45707">
        <ele>1016.3</ele>
        <time>2017-06-18T15:12:01Z</time>
      </trkpt>
      <trkpt lat="42.73956" lon="1.45718">
        <ele>1013.8</ele>
        <time>2017-06-18T15:12:12Z</time>
      </trkpt>
      <trkpt lat="42.73965" lon="1.45728">
        <ele>1011.8</ele>
        <time>2017-06-18T15:12:22Z</time>
      </trkpt>
      <trkpt lat="42.73963" lon="1.45733">
        <ele>1009.7</ele>
        <time>2017-06-18T15:12:34Z</time>
      </trkpt>
      <trkpt lat="42.73952" lon="1.45735">
        <ele>1007.9</ele>
        <time>2017-06-18T15:12:43Z</time>
      </trkpt>
      <trkpt lat="42.73941" lon="1.45738">
        <ele>1005.8</ele>
        <time>2017-06-18T15:12:52Z</time>
      </trkpt>
      <trkpt lat="42.73931" lon="1.45745">
        <ele>1003.3</ele>
        <time>2017-06-18T15:13:03Z</time>
      </trkpt>
      <trkpt lat="42.73921" lon="1.45748">
        <ele>1000.4</ele>
        <time>2017-06-18T15:13:13Z</time>
      </trkpt>
      <trkpt lat="42.73915" lon="1.4574">
        <ele>995.5</ele>
        <time>2017-06-18T15:13:29Z</time>
      </trkpt>
      <trkpt lat="42.73905" lon="1.45743">
        <ele>990.1</ele>
        <time>2017-06-18T15:13:46Z</time>
      </trkpt>
      <trkpt lat="42.73895" lon="1.45752">
        <ele>983.6</ele>
        <time>2017-06-18T15:14:03Z</time>
      </trkpt>
      <trkpt lat="42.73881" lon="1.45755">
        <ele>978.9</ele>
        <time>2017-06-18T15:14:18Z</time>
      </trkpt>
      <trkpt lat="42.73873" lon="1.45765">
        <ele>975.3</ele>
        <time>2017-06-18T15:14:34Z</time>
      </trkpt>
      <trkpt lat="42.73866" lon="1.45768">
        <ele>973.2</ele>
        <time>2017-06-18T15:14:52Z</time>
      </trkpt>
      <trkpt lat="42.73854" lon="1.45775">
        <ele>971.1</ele>
        <time>2017-06-18T15:15:07Z</time>
      </trkpt>
      <trkpt lat="42.73846" lon="1.45784">
        <ele>967.3</ele>
        <time>2017-06-18T15:15:28Z</time>
      </trkpt>
      <trkpt lat="42.73849" lon="1.45797">
        <ele>964.5</ele>
        <time>2017-06-18T15:15:51Z</time>
      </trkpt>
      <trkpt lat="42.73846" lon="1.45816">
        <ele>962.9</ele>
        <time>2017-06-18T15:16:03Z</time>
      </trkpt>
      <trkpt lat="42.73842" lon="1.45831">
        <ele>961.4</ele>
        <time>2017-06-18T15:16:13Z</time>
      </trkpt>
      <trkpt lat="42.73842" lon="1.45847">
        <ele>959.6</ele>
        <time>2017-06-18T15:16:23Z</time>
      </trkpt>
      <trkpt lat="42.73851" lon="1.45857">
        <ele>956.9</ele>
        <time>2017-06-18T15:16:33Z</time>
      </trkpt>
      <trkpt lat="42.73858" lon="1.45868">
        <ele>954.5</ele>
        <time>2017-06-18T15:16:43Z</time>
      </trkpt>
      <trkpt lat="42.73862" lon="1.45882">
        <ele>951.4</ele>
        <time>2017-06-18T15:16:53Z</time>
      </trkpt>
      <trkpt lat="42.73871" lon="1.45894">
        <ele>949.5</ele>
        <time>2017-06-18T15:17:04Z</time>
      </trkpt>
      <trkpt lat="42.73877" lon="1.45909">
        <ele>946.7</ele>
        <time>2017-06-18T15:17:15Z</time>
      </trkpt>
      <trkpt lat="42.73881" lon="1.45923">
        <ele>944.1</ele>
        <time>2017-06-18T15:17:25Z</time>
      </trkpt>
      <trkpt lat="42.73883" lon="1.45936">
        <ele>941.2</ele>
        <time>2017-06-18T15:17:35Z</time>
      </trkpt>
      <trkpt lat="42.7389" lon="1.45947">
        <ele>937.2</ele>
        <time>2017-06-18T15:17:48Z</time>
      </trkpt>
      <trkpt lat="42.73903" lon="1.45953">
        <ele>933.3</ele>
        <time>2017-06-18T15:18:01Z</time>
      </trkpt>
      <trkpt lat="42.73913" lon="1.45961">
        <ele>930.7</ele>
        <time>2017-06-18T15:18:11Z</time>
      </trkpt>
      <trkpt lat="42.73926" lon="1.45966">
        <ele>928.2</ele>
        <time>2017-06-18T15:18:23Z</time>
      </trkpt>
      <trkpt lat="42.73939" lon="1.4597">
        <ele>925.2</ele>
        <time>2017-06-18T15:18:37Z</time>
      </trkpt>
      <trkpt lat="42.73954" lon="1.45972">
        <ele>922.5</ele>
        <time>2017-06-18T15:18:48Z</time>
      </trkpt>
      <trkpt lat="42.73967" lon="1.45974">
        <ele>920.8</ele>
        <time>2017-06-18T15:19:01Z</time>
      </trkpt>
      <trkpt lat="42.73979" lon="1.45977">
        <ele>919.7</ele>
        <time>2017-06-18T15:19:14Z</time>
      </trkpt>
      <trkpt lat="42.73988" lon="1.45989">
        <ele>919.5</ele>
        <time>2017-06-18T15:19:26Z</time>
      </trkpt>
      <trkpt lat="42.73999" lon="1.45998">
        <ele>918.2</ele>
        <time>2017-06-18T15:19:37Z</time>
      </trkpt>
      <trkpt lat="42.74008" lon="1.46007">
        <ele>916.2</ele>
        <time>2017-06-18T15:19:47Z</time>
      </trkpt>
      <trkpt lat="42.74019" lon="1.46018">
        <ele>912.7</ele>
        <time>2017-06-18T15:19:59Z</time>
      </trkpt>
      <trkpt lat="42.74026" lon="1.46029">
        <ele>910.4</ele>
        <time>2017-06-18T15:20:08Z</time>
      </trkpt>
      <trkpt lat="42.74033" lon="1.46038">
        <ele>907.8</ele>
        <time>2017-06-18T15:20:18Z</time>
      </trkpt>
      <trkpt lat="42.74043" lon="1.4605">
        <ele>904.3</ele>
        <time>2017-06-18T15:20:31Z</time>
      </trkpt>
      <trkpt lat="42.74055" lon="1.46056">
        <ele>901.1</ele>
        <time>2017-06-18T15:20:41Z</time>
      </trkpt>
      <trkpt lat="42.74066" lon="1.46062">
        <ele>898.1</ele>
        <time>2017-06-18T15:20:52Z</time>
      </trkpt>
      <trkpt lat="42.74078" lon="1.46069">
        <ele>895.1</ele>
        <time>2017-06-18T15:21:02Z</time>
      </trkpt>
      <trkpt lat="42.7409" lon="1.46076">
        <ele>893</ele>
        <time>2017-06-18T15:21:13Z</time>
      </trkpt>
      <trkpt lat="42.74099" lon="1.46085">
        <ele>892.3</ele>
        <time>2017-06-18T15:21:22Z</time>
      </trkpt>
      <trkpt lat="42.74111" lon="1.46093">
        <ele>892.2</ele>
        <time>2017-06-18T15:21:31Z</time>
      </trkpt>
      <trkpt lat="42.74122" lon="1.461">
        <ele>892</ele>
        <time>2017-06-18T15:21:40Z</time>
      </trkpt>
      <trkpt lat="42.74131" lon="1.46111">
        <ele>891.9</ele>
        <time>2017-06-18T15:21:49Z</time>
      </trkpt>
      <trkpt lat="42.74141" lon="1.46123">
        <ele>892.6</ele>
        <time>2017-06-18T15:22:00Z</time>
      </trkpt>
      <trkpt lat="42.74148" lon="1.46135">
        <ele>893.2</ele>
        <time>2017-06-18T15:22:09Z</time>
      </trkpt>
      <trkpt lat="42.74152" lon="1.46151">
        <ele>893.7</ele>
        <time>2017-06-18T15:22:18Z</time>
      </trkpt>
      <trkpt lat="42.74155" lon="1.46161">
        <ele>893.6</ele>
        <time>2017-06-18T15:22:25Z</time>
      </trkpt>
      <trkpt lat="42.74164" lon="1.46165">
        <ele>892.5</ele>
        <time>2017-06-18T15:22:33Z</time>
      </trkpt>
      <trkpt lat="42.74175" lon="1.46169">
        <ele>888.2</ele>
        <time>2017-06-18T15:22:47Z</time>
      </trkpt>
      <trkpt lat="42.74187" lon="1.4617">
        <ele>885.6</ele>
        <time>2017-06-18T15:22:56Z</time>
      </trkpt>
      <trkpt lat="42.742" lon="1.46173">
        <ele>883.2</ele>
        <time>2017-06-18T15:23:04Z</time>
      </trkpt>
      <trkpt lat="42.74211" lon="1.46178">
        <ele>880.7</ele>
        <time>2017-06-18T15:23:12Z</time>
      </trkpt>
      <trkpt lat="42.74221" lon="1.46188">
        <ele>878.7</ele>
        <time>2017-06-18T15:23:21Z</time>
      </trkpt>
      <trkpt lat="42.7423" lon="1.46196">
        <ele>876.8</ele>
        <time>2017-06-18T15:23:30Z</time>
      </trkpt>
      <trkpt lat="42.74242" lon="1.46201">
        <ele>874.7</ele>
        <time>2017-06-18T15:23:39Z</time>
      </trkpt>
      <trkpt lat="42.74253" lon="1.46208">
        <ele>872.8</ele>
        <time>2017-06-18T15:23:50Z</time>
      </trkpt>
      <trkpt lat="42.74265" lon="1.46212">
        <ele>870.3</ele>
        <time>2017-06-18T15:24:01Z</time>
      </trkpt>
      <trkpt lat="42.74276" lon="1.46218">
        <ele>868.2</ele>
        <time>2017-06-18T15:24:11Z</time>
      </trkpt>
      <trkpt lat="42.74287" lon="1.46219">
        <ele>866.5</ele>
        <time>2017-06-18T15:24:20Z</time>
      </trkpt>
      <trkpt lat="42.74294" lon="1.46225">
        <ele>864.3</ele>
        <time>2017-06-18T15:24:31Z</time>
      </trkpt>
      <trkpt lat="42.74284" lon="1.46232">
        <ele>862.1</ele>
        <time>2017-06-18T15:24:41Z</time>
      </trkpt>
      <trkpt lat="42.74278" lon="1.46245">
        <ele>861.9</ele>
        <time>2017-06-18T15:24:52Z</time>
      </trkpt>
      <trkpt lat="42.74279" lon="1.46259">
        <ele>862.5</ele>
        <time>2017-06-18T15:25:07Z</time>
      </trkpt>
      <trkpt lat="42.74289" lon="1.46267">
        <ele>864</ele>
        <time>2017-06-18T15:25:23Z</time>
      </trkpt>
      <trkpt lat="42.74295" lon="1.46278">
        <ele>866.1</ele>
        <time>2017-06-18T15:25:39Z</time>
      </trkpt>
      <trkpt lat="42.74299" lon="1.46288">
        <ele>832.7</ele>
        <time>2017-06-18T15:25:51Z</time>
      </trkpt>
    </trkseg>
  </trk>
</gpx>